<?xml version="1.0" encoding="UTF-8" standalone="no" ?><gpx xmlns="http://www.topografix.com/GPX/1/1" xmlns:gpxx="http://www.garmin.com/xmlschemas/GpxExtensions/v3" xmlns:wptx1="http://www.garmin.com/xmlschemas/WaypointExtension/v1" xmlns:gpxtpx="http://www.garmin.com/xmlschemas/TrackPointExtension/v1" creator="eTrex 20" version="1.1" xmlns:xsi="http://www.w3.org/2001/XMLSchema-instance" xsi:schemaLocation="http://www.topografix.com/GPX/1/1 http://www.topografix.com/GPX/1/1/gpx.xsd http://www.garmin.com/xmlschemas/GpxExtensions/v3 http://www8.garmin.com/xmlschemas/GpxExtensionsv3.xsd http://www.garmin.com/xmlschemas/WaypointExtension/v1 http://www8.garmin.com/xmlschemas/WaypointExtensionv1.xsd http://www.garmin.com/xmlschemas/TrackPointExtension/v1 http://www.garmin.com/xmlschemas/TrackPointExtensionv1.xsd"><metadata><link href="http://www.garmin.com"><text>Garmin International</text></link><time>2012-09-14T21:15:14Z</time></metadata><trk><name>14-SEP-12 K3+800-7+640</name><extensions><gpxx:TrackExtension><gpxx:DisplayColor>Green</gpxx:DisplayColor></gpxx:TrackExtension></extensions><trkseg><trkpt lat="4.9606011529" lon="-75.6403788831"><ele>1469.03</ele><time>2012-09-14T12:18:47Z</time></trkpt><trkpt lat="4.9606038351" lon="-75.6403745245"><ele>1469.03</ele><time>2012-09-14T12:19:08Z</time></trkpt><trkpt lat="4.9606065173" lon="-75.6403800566"><ele>1469.03</ele><time>2012-09-14T12:19:30Z</time></trkpt><trkpt lat="4.9606367759" lon="-75.6403704174"><ele>1469.03</ele><time>2012-09-14T12:19:53Z</time></trkpt><trkpt lat="4.9606290646" lon="-75.6403754465"><ele>1469.03</ele><time>2012-09-14T12:20:15Z</time></trkpt><trkpt lat="4.9606315792" lon="-75.6403782964"><ele>1468.55</ele><time>2012-09-14T12:20:34Z</time></trkpt><trkpt lat="4.9606257118" lon="-75.6403844990"><ele>1468.07</ele><time>2012-09-14T12:20:56Z</time></trkpt><trkpt lat="4.9606258795" lon="-75.6403850019"><ele>1468.07</ele><time>2012-09-14T12:21:31Z</time></trkpt><trkpt lat="4.9606268853" lon="-75.6403860915"><ele>1468.07</ele><time>2012-09-14T12:21:59Z</time></trkpt><trkpt lat="4.9606213532" lon="-75.6403865945"><ele>1468.07</ele><time>2012-09-14T12:22:30Z</time></trkpt><trkpt lat="4.9606170785" lon="-75.6403870974"><ele>1467.59</ele><time>2012-09-14T12:23:03Z</time></trkpt><trkpt lat="4.9606123008" lon="-75.6403887738"><ele>1467.59</ele><time>2012-09-14T12:23:34Z</time></trkpt><trkpt lat="4.9606134742" lon="-75.6403935514"><ele>1468.07</ele><time>2012-09-14T12:23:57Z</time></trkpt><trkpt lat="4.9606118817" lon="-75.6403925456"><ele>1467.59</ele><time>2012-09-14T12:24:18Z</time></trkpt><trkpt lat="4.9606098700" lon="-75.6403886899"><ele>1467.11</ele><time>2012-09-14T12:24:38Z</time></trkpt><trkpt lat="4.9606100377" lon="-75.6403853372"><ele>1467.11</ele><time>2012-09-14T12:25:05Z</time></trkpt><trkpt lat="4.9606107920" lon="-75.6403808948"><ele>1467.11</ele><time>2012-09-14T12:25:37Z</time></trkpt><trkpt lat="4.9606102891" lon="-75.6403796375"><ele>1467.11</ele><time>2012-09-14T12:26:00Z</time></trkpt><trkpt lat="4.9606081098" lon="-75.6403765362"><ele>1466.63</ele><time>2012-09-14T12:26:25Z</time></trkpt><trkpt lat="4.9606075231" lon="-75.6403772067"><ele>1466.15</ele><time>2012-09-14T12:26:58Z</time></trkpt><trkpt lat="4.9606076907" lon="-75.6403573416"><ele>1466.15</ele><time>2012-09-14T12:27:24Z</time></trkpt><trkpt lat="4.9606139772" lon="-75.6403676514"><ele>1466.15</ele><time>2012-09-14T12:27:53Z</time></trkpt><trkpt lat="4.9605831318" lon="-75.6404090580"><ele>1467.11</ele><time>2012-09-14T12:28:15Z</time></trkpt><trkpt lat="4.9606167432" lon="-75.6404603552"><ele>1468.07</ele><time>2012-09-14T12:28:31Z</time></trkpt><trkpt lat="4.9605919328" lon="-75.6404322758"><ele>1467.11</ele><time>2012-09-14T12:28:42Z</time></trkpt><trkpt lat="4.9606609996" lon="-75.6403481215"><ele>1467.11</ele><time>2012-09-14T12:28:55Z</time></trkpt><trkpt lat="4.9607010651" lon="-75.6403024402"><ele>1466.15</ele><time>2012-09-14T12:29:14Z</time></trkpt><trkpt lat="4.9606675375" lon="-75.6403163541"><ele>1465.19</ele><time>2012-09-14T12:29:34Z</time></trkpt><trkpt lat="4.9606127199" lon="-75.6403423380"><ele>1462.78</ele><time>2012-09-14T12:29:57Z</time></trkpt><trkpt lat="4.9605750013" lon="-75.6403953116"><ele>1464.71</ele><time>2012-09-14T12:30:17Z</time></trkpt><trkpt lat="4.9605765101" lon="-75.6404000893"><ele>1466.63</ele><time>2012-09-14T12:30:38Z</time></trkpt><trkpt lat="4.9605864845" lon="-75.6404063758"><ele>1468.07</ele><time>2012-09-14T12:30:55Z</time></trkpt><trkpt lat="4.9605934415" lon="-75.6403990835"><ele>1468.55</ele><time>2012-09-14T12:31:23Z</time></trkpt><trkpt lat="4.9606007338" lon="-75.6404008437"><ele>1467.59</ele><time>2012-09-14T12:31:50Z</time></trkpt><trkpt lat="4.9606017396" lon="-75.6404019333"><ele>1467.59</ele><time>2012-09-14T12:32:20Z</time></trkpt><trkpt lat="4.9606019910" lon="-75.6404040288"><ele>1468.07</ele><time>2012-09-14T12:32:53Z</time></trkpt><trkpt lat="4.9606011529" lon="-75.6404209603"><ele>1468.07</ele><time>2012-09-14T12:33:15Z</time></trkpt><trkpt lat="4.9606019072" lon="-75.6404270791"><ele>1469.03</ele><time>2012-09-14T12:33:29Z</time></trkpt><trkpt lat="4.9605988897" lon="-75.6404295936"><ele>1469.51</ele><time>2012-09-14T12:33:47Z</time></trkpt><trkpt lat="4.9605991412" lon="-75.6404376402"><ele>1469.51</ele><time>2012-09-14T12:34:04Z</time></trkpt><trkpt lat="4.9605993088" lon="-75.6404342037"><ele>1469.51</ele><time>2012-09-14T12:34:30Z</time></trkpt><trkpt lat="4.9606282264" lon="-75.6404781248"><ele>1469.51</ele><time>2012-09-14T12:34:56Z</time></trkpt><trkpt lat="4.9607580621" lon="-75.6405659672"><ele>1468.55</ele><time>2012-09-14T12:35:14Z</time></trkpt><trkpt lat="4.9608089402" lon="-75.6406743452"><ele>1467.11</ele><time>2012-09-14T12:35:31Z</time></trkpt><trkpt lat="4.9608534481" lon="-75.6408187654"><ele>1469.51</ele><time>2012-09-14T12:35:46Z</time></trkpt><trkpt lat="4.9608759955" lon="-75.6409008242"><ele>1469.03</ele><time>2012-09-14T12:36:00Z</time></trkpt><trkpt lat="4.9608906638" lon="-75.6409483496"><ele>1468.55</ele><time>2012-09-14T12:36:17Z</time></trkpt><trkpt lat="4.9609161448" lon="-75.6410331745"><ele>1468.07</ele><time>2012-09-14T12:36:30Z</time></trkpt><trkpt lat="4.9609654304" lon="-75.6412280537"><ele>1464.71</ele><time>2012-09-14T12:36:57Z</time></trkpt><trkpt lat="4.9609775003" lon="-75.6412979588"><ele>1463.26</ele><time>2012-09-14T12:37:16Z</time></trkpt><trkpt lat="4.9609861337" lon="-75.6413133815"><ele>1462.30</ele><time>2012-09-14T12:37:37Z</time></trkpt><trkpt lat="4.9610157218" lon="-75.6414145511"><ele>1459.90</ele><time>2012-09-14T12:37:58Z</time></trkpt><trkpt lat="4.9610327370" lon="-75.6414629146"><ele>1458.94</ele><time>2012-09-14T12:38:18Z</time></trkpt><trkpt lat="4.9610786699" lon="-75.6416090950"><ele>1452.69</ele><time>2012-09-14T12:38:42Z</time></trkpt><trkpt lat="4.9610927515" lon="-75.6416629907"><ele>1450.29</ele><time>2012-09-14T12:39:01Z</time></trkpt><trkpt lat="4.9610930867" lon="-75.6416749768"><ele>1449.81</ele><time>2012-09-14T12:39:25Z</time></trkpt><trkpt lat="4.9610541947" lon="-75.6417333148"><ele>1448.84</ele><time>2012-09-14T12:39:40Z</time></trkpt><trkpt lat="4.9610203318" lon="-75.6417402718"><ele>1448.84</ele><time>2012-09-14T12:39:57Z</time></trkpt><trkpt lat="4.9609667715" lon="-75.6418456323"><ele>1450.29</ele><time>2012-09-14T12:40:15Z</time></trkpt><trkpt lat="4.9609113671" lon="-75.6419229973"><ele>1451.73</ele><time>2012-09-14T12:40:31Z</time></trkpt><trkpt lat="4.9608438928" lon="-75.6419427786"><ele>1453.65</ele><time>2012-09-14T12:40:47Z</time></trkpt><trkpt lat="4.9608002231" lon="-75.6419767253"><ele>1453.17</ele><time>2012-09-14T12:41:08Z</time></trkpt><trkpt lat="4.9607757479" lon="-75.6419676729"><ele>1452.69</ele><time>2012-09-14T12:41:31Z</time></trkpt><trkpt lat="4.9607168231" lon="-75.6419101730"><ele>1453.17</ele><time>2012-09-14T12:41:51Z</time></trkpt><trkpt lat="4.9605906755" lon="-75.6418739632"><ele>1452.21</ele><time>2012-09-14T12:42:12Z</time></trkpt><trkpt lat="4.9605756719" lon="-75.6418328919"><ele>1453.17</ele><time>2012-09-14T12:42:31Z</time></trkpt><trkpt lat="4.9605884962" lon="-75.6418582052"><ele>1453.65</ele><time>2012-09-14T12:42:51Z</time></trkpt><trkpt lat="4.9605959561" lon="-75.6418613903"><ele>1454.61</ele><time>2012-09-14T12:43:11Z</time></trkpt><trkpt lat="4.9605935253" lon="-75.6418631505"><ele>1456.53</ele><time>2012-09-14T12:43:38Z</time></trkpt><trkpt lat="4.9605410546" lon="-75.6418901403"><ele>1457.02</ele><time>2012-09-14T12:44:00Z</time></trkpt><trkpt lat="4.9605268054" lon="-75.6418863684"><ele>1457.02</ele><time>2012-09-14T12:44:26Z</time></trkpt><trkpt lat="4.9606113788" lon="-75.6419293676"><ele>1456.53</ele><time>2012-09-14T12:44:46Z</time></trkpt><trkpt lat="4.9607503507" lon="-75.6419128552"><ele>1456.05</ele><time>2012-09-14T12:45:10Z</time></trkpt><trkpt lat="4.9608992971" lon="-75.6418583728"><ele>1454.13</ele><time>2012-09-14T12:45:33Z</time></trkpt><trkpt lat="4.9609198328" lon="-75.6418544333"><ele>1453.65</ele><time>2012-09-14T12:45:45Z</time></trkpt><trkpt lat="4.9610516801" lon="-75.6417960115"><ele>1454.61</ele><time>2012-09-14T12:46:07Z</time></trkpt><trkpt lat="4.9611474853" lon="-75.6417318899"><ele>1453.65</ele><time>2012-09-14T12:46:25Z</time></trkpt><trkpt lat="4.9611511733" lon="-75.6417293753"><ele>1453.17</ele><time>2012-09-14T12:46:27Z</time></trkpt><trkpt lat="4.9611991178" lon="-75.6416543573"><ele>1454.13</ele><time>2012-09-14T12:46:39Z</time></trkpt><trkpt lat="4.9611920770" lon="-75.6416139565"><ele>1453.17</ele><time>2012-09-14T12:46:56Z</time></trkpt><trkpt lat="4.9611996207" lon="-75.6415775791"><ele>1452.21</ele><time>2012-09-14T12:47:13Z</time></trkpt><trkpt lat="4.9611958489" lon="-75.6415799260"><ele>1451.25</ele><time>2012-09-14T12:47:46Z</time></trkpt><trkpt lat="4.9611944240" lon="-75.6415799260"><ele>1450.77</ele><time>2012-09-14T12:48:14Z</time></trkpt><trkpt lat="4.9611957651" lon="-75.6415746454"><ele>1450.29</ele><time>2012-09-14T12:48:41Z</time></trkpt><trkpt lat="4.9611968547" lon="-75.6415753998"><ele>1450.29</ele><time>2012-09-14T12:49:03Z</time></trkpt><trkpt lat="4.9611800909" lon="-75.6416177284"><ele>1449.81</ele><time>2012-09-14T12:49:23Z</time></trkpt><trkpt lat="4.9611943401" lon="-75.6415736396"><ele>1448.84</ele><time>2012-09-14T12:49:46Z</time></trkpt><trkpt lat="4.9611894786" lon="-75.6415748969"><ele>1448.36</ele><time>2012-09-14T12:50:22Z</time></trkpt><trkpt lat="4.9611907359" lon="-75.6415746454"><ele>1448.84</ele><time>2012-09-14T12:50:50Z</time></trkpt><trkpt lat="4.9611904006" lon="-75.6415691134"><ele>1448.84</ele><time>2012-09-14T12:51:22Z</time></trkpt><trkpt lat="4.9611901492" lon="-75.6415370945"><ele>1449.32</ele><time>2012-09-14T12:51:53Z</time></trkpt><trkpt lat="4.9611877184" lon="-75.6415520143"><ele>1449.32</ele><time>2012-09-14T12:52:21Z</time></trkpt><trkpt lat="4.9611563701" lon="-75.6416846160"><ele>1451.25</ele><time>2012-09-14T12:52:44Z</time></trkpt><trkpt lat="4.9611229263" lon="-75.6417489890"><ele>1454.61</ele><time>2012-09-14T12:53:06Z</time></trkpt><trkpt lat="4.9612133671" lon="-75.6417536829"><ele>1451.25</ele><time>2012-09-14T12:53:24Z</time></trkpt><trkpt lat="4.9612311367" lon="-75.6417555269"><ele>1450.29</ele><time>2012-09-14T12:53:50Z</time></trkpt><trkpt lat="4.9611790851" lon="-75.6417400204"><ele>1450.29</ele><time>2012-09-14T12:54:11Z</time></trkpt><trkpt lat="4.9611577112" lon="-75.6417193171"><ele>1450.29</ele><time>2012-09-14T12:54:31Z</time></trkpt><trkpt lat="4.9611092638" lon="-75.6416893937"><ele>1451.25</ele><time>2012-09-14T12:54:50Z</time></trkpt><trkpt lat="4.9610722158" lon="-75.6417067442"><ele>1451.25</ele><time>2012-09-14T12:55:09Z</time></trkpt><trkpt lat="4.9609606527" lon="-75.6417640764"><ele>1453.17</ele><time>2012-09-14T12:55:31Z</time></trkpt><trkpt lat="4.9608733971" lon="-75.6418739632"><ele>1454.61</ele><time>2012-09-14T12:55:53Z</time></trkpt><trkpt lat="4.9607557151" lon="-75.6419357378"><ele>1453.17</ele><time>2012-09-14T12:56:17Z</time></trkpt><trkpt lat="4.9606750812" lon="-75.6419299543"><ele>1453.17</ele><time>2012-09-14T12:56:39Z</time></trkpt><trkpt lat="4.9605924357" lon="-75.6419068202"><ele>1454.13</ele><time>2012-09-14T12:56:59Z</time></trkpt><trkpt lat="4.9605059344" lon="-75.6419361569"><ele>1454.13</ele><time>2012-09-14T12:57:23Z</time></trkpt><trkpt lat="4.9604365323" lon="-75.6419600453"><ele>1452.69</ele><time>2012-09-14T12:57:43Z</time></trkpt><trkpt lat="4.9603253882" lon="-75.6419793237"><ele>1451.25</ele><time>2012-09-14T12:58:03Z</time></trkpt><trkpt lat="4.9602221232" lon="-75.6421067286"><ele>1447.40</ele><time>2012-09-14T12:58:22Z</time></trkpt><trkpt lat="4.9601892661" lon="-75.6422726065"><ele>1443.56</ele><time>2012-09-14T12:58:47Z</time></trkpt><trkpt lat="4.9602136575" lon="-75.6423449423"><ele>1443.08</ele><time>2012-09-14T12:59:10Z</time></trkpt><trkpt lat="4.9602259789" lon="-75.6423478760"><ele>1444.04</ele><time>2012-09-14T12:59:37Z</time></trkpt><trkpt lat="4.9602291640" lon="-75.6423254125"><ele>1448.84</ele><time>2012-09-14T13:00:02Z</time></trkpt><trkpt lat="4.9602300860" lon="-75.6423275080"><ele>1448.84</ele><time>2012-09-14T13:00:34Z</time></trkpt><trkpt lat="4.9602209497" lon="-75.6423256639"><ele>1448.84</ele><time>2012-09-14T13:01:02Z</time></trkpt><trkpt lat="4.9603044335" lon="-75.6423243228"><ele>1447.40</ele><time>2012-09-14T13:01:24Z</time></trkpt><trkpt lat="4.9603134859" lon="-75.6423135940"><ele>1447.40</ele><time>2012-09-14T13:01:47Z</time></trkpt><trkpt lat="4.9603057746" lon="-75.6423135102"><ele>1447.88</ele><time>2012-09-14T13:02:13Z</time></trkpt><trkpt lat="4.9603011645" lon="-75.6423114985"><ele>1447.88</ele><time>2012-09-14T13:02:45Z</time></trkpt><trkpt lat="4.9602446705" lon="-75.6423692498"><ele>1448.84</ele><time>2012-09-14T13:03:08Z</time></trkpt><trkpt lat="4.9602724984" lon="-75.6423538271"><ele>1447.40</ele><time>2012-09-14T13:03:33Z</time></trkpt><trkpt lat="4.9602484424" lon="-75.6423472054"><ele>1448.84</ele><time>2012-09-14T13:03:55Z</time></trkpt><trkpt lat="4.9602297507" lon="-75.6423460320"><ele>1447.88</ele><time>2012-09-14T13:04:23Z</time></trkpt><trkpt lat="4.9602013361" lon="-75.6423600297"><ele>1448.84</ele><time>2012-09-14T13:04:48Z</time></trkpt><trkpt lat="4.9602031801" lon="-75.6423571799"><ele>1448.84</ele><time>2012-09-14T13:05:19Z</time></trkpt><trkpt lat="4.9602296669" lon="-75.6423646398"><ele>1448.84</ele><time>2012-09-14T13:05:48Z</time></trkpt><trkpt lat="4.9602320977" lon="-75.6423628796"><ele>1449.81</ele><time>2012-09-14T13:06:21Z</time></trkpt><trkpt lat="4.9602357857" lon="-75.6423642207"><ele>1449.81</ele><time>2012-09-14T13:06:46Z</time></trkpt><trkpt lat="4.9602296669" lon="-75.6423752010"><ele>1449.81</ele><time>2012-09-14T13:07:10Z</time></trkpt><trkpt lat="4.9602695648" lon="-75.6423894502"><ele>1451.73</ele><time>2012-09-14T13:07:32Z</time></trkpt><trkpt lat="4.9602885079" lon="-75.6424080580"><ele>1452.69</ele><time>2012-09-14T13:07:49Z</time></trkpt><trkpt lat="4.9603363685" lon="-75.6424650550"><ele>1453.65</ele><time>2012-09-14T13:08:06Z</time></trkpt><trkpt lat="4.9603409786" lon="-75.6425021030"><ele>1456.05</ele><time>2012-09-14T13:08:29Z</time></trkpt><trkpt lat="4.9603757635" lon="-75.6426385604"><ele>1460.86</ele><time>2012-09-14T13:08:49Z</time></trkpt><trkpt lat="4.9605171662" lon="-75.6427347008"><ele>1468.07</ele><time>2012-09-14T13:09:09Z</time></trkpt><trkpt lat="4.9606651906" lon="-75.6427343655"><ele>1468.55</ele><time>2012-09-14T13:09:24Z</time></trkpt><trkpt lat="4.9607938528" lon="-75.6427269056"><ele>1468.55</ele><time>2012-09-14T13:09:44Z</time></trkpt><trkpt lat="4.9608859699" lon="-75.6427168474"><ele>1469.99</ele><time>2012-09-14T13:09:57Z</time></trkpt><trkpt lat="4.9610577989" lon="-75.6427136622"><ele>1469.03</ele><time>2012-09-14T13:10:16Z</time></trkpt><trkpt lat="4.9611326493" lon="-75.6427067053"><ele>1468.55</ele><time>2012-09-14T13:10:32Z</time></trkpt><trkpt lat="4.9612814281" lon="-75.6426962279"><ele>1468.07</ele><time>2012-09-14T13:10:48Z</time></trkpt><trkpt lat="4.9614274409" lon="-75.6426616944"><ele>1469.03</ele><time>2012-09-14T13:11:04Z</time></trkpt><trkpt lat="4.9616302829" lon="-75.6426226348"><ele>1468.55</ele><time>2012-09-14T13:11:26Z</time></trkpt><trkpt lat="4.9617348053" lon="-75.6425948907"><ele>1469.03</ele><time>2012-09-14T13:11:43Z</time></trkpt><trkpt lat="4.9617354758" lon="-75.6425941363"><ele>1469.03</ele><time>2012-09-14T13:12:08Z</time></trkpt><trkpt lat="4.9617353920" lon="-75.6425912026"><ele>1468.55</ele><time>2012-09-14T13:12:39Z</time></trkpt><trkpt lat="4.9617363978" lon="-75.6425801385"><ele>1469.03</ele><time>2012-09-14T13:13:15Z</time></trkpt><trkpt lat="4.9617307819" lon="-75.6425809767"><ele>1469.03</ele><time>2012-09-14T13:13:32Z</time></trkpt><trkpt lat="4.9617343023" lon="-75.6425771210"><ele>1468.55</ele><time>2012-09-14T13:14:08Z</time></trkpt><trkpt lat="4.9617353920" lon="-75.6425743550"><ele>1467.59</ele><time>2012-09-14T13:14:35Z</time></trkpt><trkpt lat="4.9617351405" lon="-75.6425714213"><ele>1467.59</ele><time>2012-09-14T13:14:54Z</time></trkpt><trkpt lat="4.9617358111" lon="-75.6425725110"><ele>1468.07</ele><time>2012-09-14T13:15:21Z</time></trkpt><trkpt lat="4.9617360625" lon="-75.6425739359"><ele>1468.07</ele><time>2012-09-14T13:15:52Z</time></trkpt><trkpt lat="4.9617369846" lon="-75.6425745226"><ele>1468.07</ele><time>2012-09-14T13:16:19Z</time></trkpt><trkpt lat="4.9617304467" lon="-75.6425736845"><ele>1468.07</ele><time>2012-09-14T13:16:43Z</time></trkpt><trkpt lat="4.9617221486" lon="-75.6425802223"><ele>1468.55</ele><time>2012-09-14T13:17:07Z</time></trkpt><trkpt lat="4.9616550095" lon="-75.6426219642"><ele>1469.51</ele><time>2012-09-14T13:17:15Z</time></trkpt><trkpt lat="4.9615098350" lon="-75.6426379737"><ele>1468.55</ele><time>2012-09-14T13:17:29Z</time></trkpt><trkpt lat="4.9614665005" lon="-75.6426610239"><ele>1469.51</ele><time>2012-09-14T13:17:33Z</time></trkpt><trkpt lat="4.9611748103" lon="-75.6427322701"><ele>1472.88</ele><time>2012-09-14T13:17:59Z</time></trkpt><trkpt lat="4.9610725511" lon="-75.6428410672"><ele>1469.51</ele><time>2012-09-14T13:18:20Z</time></trkpt><trkpt lat="4.9610848725" lon="-75.6428929511"><ele>1469.03</ele><time>2012-09-14T13:18:41Z</time></trkpt><trkpt lat="4.9610962719" lon="-75.6429615151"><ele>1468.55</ele><time>2012-09-14T13:18:49Z</time></trkpt><trkpt lat="4.9611102697" lon="-75.6432744116"><ele>1469.51</ele><time>2012-09-14T13:19:13Z</time></trkpt><trkpt lat="4.9612663407" lon="-75.6434061751"><ele>1467.59</ele><time>2012-09-14T13:19:32Z</time></trkpt><trkpt lat="4.9613458011" lon="-75.6434267107"><ele>1466.15</ele><time>2012-09-14T13:19:43Z</time></trkpt><trkpt lat="4.9615836795" lon="-75.6435027346"><ele>1464.23</ele><time>2012-09-14T13:20:03Z</time></trkpt><trkpt lat="4.9618158583" lon="-75.6435629167"><ele>1464.23</ele><time>2012-09-14T13:20:24Z</time></trkpt><trkpt lat="4.9619952310" lon="-75.6436155550"><ele>1464.23</ele><time>2012-09-14T13:20:43Z</time></trkpt><trkpt lat="4.9620543234" lon="-75.6436300557"><ele>1464.23</ele><time>2012-09-14T13:21:05Z</time></trkpt><trkpt lat="4.9620694946" lon="-75.6436254457"><ele>1464.23</ele><time>2012-09-14T13:21:31Z</time></trkpt><trkpt lat="4.9620798882" lon="-75.6436106097"><ele>1465.19</ele><time>2012-09-14T13:21:59Z</time></trkpt><trkpt lat="4.9620702490" lon="-75.6436137110"><ele>1467.59</ele><time>2012-09-14T13:22:18Z</time></trkpt><trkpt lat="4.9621111527" lon="-75.6436485797"><ele>1467.11</ele><time>2012-09-14T13:22:41Z</time></trkpt><trkpt lat="4.9621203728" lon="-75.6436510943"><ele>1467.11</ele><time>2012-09-14T13:22:42Z</time></trkpt><trkpt lat="4.9623305071" lon="-75.6437087618"><ele>1466.15</ele><time>2012-09-14T13:23:04Z</time></trkpt><trkpt lat="4.9623199459" lon="-75.6437681895"><ele>1468.07</ele><time>2012-09-14T13:23:18Z</time></trkpt><trkpt lat="4.9622811377" lon="-75.6439043116"><ele>1469.03</ele><time>2012-09-14T13:23:32Z</time></trkpt><trkpt lat="4.9622435868" lon="-75.6440039724"><ele>1469.03</ele><time>2012-09-14T13:23:53Z</time></trkpt><trkpt lat="4.9622210395" lon="-75.6441113446"><ele>1466.15</ele><time>2012-09-14T13:24:15Z</time></trkpt><trkpt lat="4.9623372965" lon="-75.6441081595"><ele>1463.74</ele><time>2012-09-14T13:24:36Z</time></trkpt><trkpt lat="4.9624850694" lon="-75.6441064831"><ele>1460.86</ele><time>2012-09-14T13:24:54Z</time></trkpt><trkpt lat="4.9626389612" lon="-75.6441215705"><ele>1462.30</ele><time>2012-09-14T13:25:14Z</time></trkpt><trkpt lat="4.9627773464" lon="-75.6442001089"><ele>1462.78</ele><time>2012-09-14T13:25:34Z</time></trkpt><trkpt lat="4.9628710561" lon="-75.6443093251"><ele>1460.86</ele><time>2012-09-14T13:25:57Z</time></trkpt><trkpt lat="4.9629458226" lon="-75.6444487162"><ele>1457.98</ele><time>2012-09-14T13:26:17Z</time></trkpt><trkpt lat="4.9630578887" lon="-75.6445708405"><ele>1453.65</ele><time>2012-09-14T13:26:40Z</time></trkpt><trkpt lat="4.9630706292" lon="-75.6445824075"><ele>1453.65</ele><time>2012-09-14T13:26:55Z</time></trkpt><trkpt lat="4.9630728923" lon="-75.6445866823"><ele>1453.65</ele><time>2012-09-14T13:27:18Z</time></trkpt><trkpt lat="4.9630728923" lon="-75.6445871852"><ele>1453.65</ele><time>2012-09-14T13:27:43Z</time></trkpt><trkpt lat="4.9630770832" lon="-75.6445905380"><ele>1453.65</ele><time>2012-09-14T13:28:10Z</time></trkpt><trkpt lat="4.9630775023" lon="-75.6445872691"><ele>1453.65</ele><time>2012-09-14T13:28:27Z</time></trkpt><trkpt lat="4.9630739819" lon="-75.6445827428"><ele>1453.65</ele><time>2012-09-14T13:28:53Z</time></trkpt><trkpt lat="4.9630754068" lon="-75.6445814017"><ele>1454.13</ele><time>2012-09-14T13:29:26Z</time></trkpt><trkpt lat="4.9630754068" lon="-75.6445816532"><ele>1454.13</ele><time>2012-09-14T13:29:27Z</time></trkpt><trkpt lat="4.9630784243" lon="-75.6445829943"><ele>1454.13</ele><time>2012-09-14T13:29:40Z</time></trkpt><trkpt lat="4.9630729761" lon="-75.6445860956"><ele>1454.13</ele><time>2012-09-14T13:30:06Z</time></trkpt><trkpt lat="4.9630741496" lon="-75.6445864309"><ele>1454.13</ele><time>2012-09-14T13:30:36Z</time></trkpt><trkpt lat="4.9630748201" lon="-75.6445865985"><ele>1454.13</ele><time>2012-09-14T13:31:04Z</time></trkpt><trkpt lat="4.9630763289" lon="-75.6445855927"><ele>1453.65</ele><time>2012-09-14T13:31:29Z</time></trkpt><trkpt lat="4.9632658437" lon="-75.6446129177"><ele>1451.73</ele><time>2012-09-14T13:31:52Z</time></trkpt><trkpt lat="4.9633937515" lon="-75.6446284242"><ele>1449.32</ele><time>2012-09-14T13:32:15Z</time></trkpt><trkpt lat="4.9635580368" lon="-75.6447056215"><ele>1445.48</ele><time>2012-09-14T13:32:36Z</time></trkpt><trkpt lat="4.9636912253" lon="-75.6447782926"><ele>1441.15</ele><time>2012-09-14T13:32:57Z</time></trkpt><trkpt lat="4.9638136849" lon="-75.6448618602"><ele>1438.27</ele><time>2012-09-14T13:33:13Z</time></trkpt><trkpt lat="4.9638434406" lon="-75.6448806357"><ele>1438.75</ele><time>2012-09-14T13:33:16Z</time></trkpt><trkpt lat="4.9638724420" lon="-75.6448938791"><ele>1438.75</ele><time>2012-09-14T13:33:33Z</time></trkpt><trkpt lat="4.9638818298" lon="-75.6449000817"><ele>1439.23</ele><time>2012-09-14T13:33:48Z</time></trkpt><trkpt lat="4.9639717676" lon="-75.6448991597"><ele>1438.27</ele><time>2012-09-14T13:34:04Z</time></trkpt><trkpt lat="4.9641182832" lon="-75.6449773628"><ele>1436.35</ele><time>2012-09-14T13:34:26Z</time></trkpt><trkpt lat="4.9641659763" lon="-75.6449929532"><ele>1435.39</ele><time>2012-09-14T13:34:45Z</time></trkpt><trkpt lat="4.9641785491" lon="-75.6449844874"><ele>1434.91</ele><time>2012-09-14T13:35:04Z</time></trkpt><trkpt lat="4.9642316904" lon="-75.6449725851"><ele>1432.98</ele><time>2012-09-14T13:35:31Z</time></trkpt><trkpt lat="4.9642584287" lon="-75.6449590903"><ele>1432.50</ele><time>2012-09-14T13:35:34Z</time></trkpt><trkpt lat="4.9644448422" lon="-75.6449406501"><ele>1429.62</ele><time>2012-09-14T13:35:56Z</time></trkpt><trkpt lat="4.9645092990" lon="-75.6449562404"><ele>1428.66</ele><time>2012-09-14T13:36:03Z</time></trkpt><trkpt lat="4.9646210298" lon="-75.6449735910"><ele>1424.81</ele><time>2012-09-14T13:36:23Z</time></trkpt><trkpt lat="4.9647931103" lon="-75.6450322643"><ele>1419.04</ele><time>2012-09-14T13:36:47Z</time></trkpt><trkpt lat="4.9649031647" lon="-75.6450496148"><ele>1416.16</ele><time>2012-09-14T13:37:06Z</time></trkpt><trkpt lat="4.9649048410" lon="-75.6450472679"><ele>1415.68</ele><time>2012-09-14T13:37:26Z</time></trkpt><trkpt lat="4.9650449026" lon="-75.6450826395"><ele>1412.79</ele><time>2012-09-14T13:37:45Z</time></trkpt><trkpt lat="4.9651129637" lon="-75.6450813822"><ele>1410.87</ele><time>2012-09-14T13:38:05Z</time></trkpt><trkpt lat="4.9651100300" lon="-75.6450930331"><ele>1408.47</ele><time>2012-09-14T13:38:32Z</time></trkpt><trkpt lat="4.9650939368" lon="-75.6450926140"><ele>1407.99</ele><time>2012-09-14T13:39:00Z</time></trkpt><trkpt lat="4.9651205912" lon="-75.6450885907"><ele>1407.99</ele><time>2012-09-14T13:39:28Z</time></trkpt><trkpt lat="4.9651536159" lon="-75.6451056059"><ele>1407.51</ele><time>2012-09-14T13:39:57Z</time></trkpt><trkpt lat="4.9651623331" lon="-75.6451711524"><ele>1406.07</ele><time>2012-09-14T13:40:23Z</time></trkpt><trkpt lat="4.9651494250" lon="-75.6451586634"><ele>1406.07</ele><time>2012-09-14T13:40:45Z</time></trkpt><trkpt lat="4.9651284702" lon="-75.6450610142"><ele>1407.51</ele><time>2012-09-14T13:41:14Z</time></trkpt><trkpt lat="4.9651233573" lon="-75.6450486928"><ele>1407.51</ele><time>2012-09-14T13:41:42Z</time></trkpt><trkpt lat="4.9651198369" lon="-75.6450688932"><ele>1408.47</ele><time>2012-09-14T13:42:15Z</time></trkpt><trkpt lat="4.9651325773" lon="-75.6451024208"><ele>1408.47</ele><time>2012-09-14T13:42:43Z</time></trkpt><trkpt lat="4.9651490897" lon="-75.6451679673"><ele>1408.95</ele><time>2012-09-14T13:43:08Z</time></trkpt><trkpt lat="4.9651574716" lon="-75.6451346911"><ele>1407.03</ele><time>2012-09-14T13:43:31Z</time></trkpt><trkpt lat="4.9651659373" lon="-75.6451588310"><ele>1404.62</ele><time>2012-09-14T13:43:53Z</time></trkpt><trkpt lat="4.9651628360" lon="-75.6452079490"><ele>1402.22</ele><time>2012-09-14T13:44:17Z</time></trkpt><trkpt lat="4.9651753251" lon="-75.6452226173"><ele>1401.74</ele><time>2012-09-14T13:44:39Z</time></trkpt><trkpt lat="4.9651666917" lon="-75.6452175882"><ele>1400.78</ele><time>2012-09-14T13:45:07Z</time></trkpt><trkpt lat="4.9651600700" lon="-75.6452135649"><ele>1399.82</ele><time>2012-09-14T13:45:36Z</time></trkpt><trkpt lat="4.9651581421" lon="-75.6452216115"><ele>1399.82</ele><time>2012-09-14T13:46:07Z</time></trkpt><trkpt lat="4.9651458208" lon="-75.6452500261"><ele>1399.34</ele><time>2012-09-14T13:46:31Z</time></trkpt><trkpt lat="4.9651443958" lon="-75.6452956237"><ele>1399.34</ele><time>2012-09-14T13:46:56Z</time></trkpt><trkpt lat="4.9651623331" lon="-75.6452454161"><ele>1396.93</ele><time>2012-09-14T13:47:24Z</time></trkpt><trkpt lat="4.9651732296" lon="-75.6452796143"><ele>1397.41</ele><time>2012-09-14T13:47:48Z</time></trkpt><trkpt lat="4.9652273767" lon="-75.6452383753"><ele>1395.49</ele><time>2012-09-14T13:48:13Z</time></trkpt><trkpt lat="4.9652695376" lon="-75.6452353578"><ele>1395.01</ele><time>2012-09-14T13:48:30Z</time></trkpt><trkpt lat="4.9652915820" lon="-75.6452370342"><ele>1393.57</ele><time>2012-09-14T13:48:46Z</time></trkpt><trkpt lat="4.9653065857" lon="-75.6452417281"><ele>1392.61</ele><time>2012-09-14T13:49:05Z</time></trkpt><trkpt lat="4.9653150514" lon="-75.6452491041"><ele>1392.13</ele><time>2012-09-14T13:49:23Z</time></trkpt><trkpt lat="4.9653563742" lon="-75.6452792790"><ele>1389.24</ele><time>2012-09-14T13:49:41Z</time></trkpt><trkpt lat="4.9654082581" lon="-75.6453581527"><ele>1386.36</ele><time>2012-09-14T13:50:02Z</time></trkpt><trkpt lat="4.9654394388" lon="-75.6453723181"><ele>1383.47</ele><time>2012-09-14T13:50:21Z</time></trkpt><trkpt lat="4.9654766545" lon="-75.6453877408"><ele>1380.59</ele><time>2012-09-14T13:50:37Z</time></trkpt><trkpt lat="4.9654860422" lon="-75.6453837175"><ele>1380.11</ele><time>2012-09-14T13:50:57Z</time></trkpt><trkpt lat="4.9654892273" lon="-75.6453843042"><ele>1379.63</ele><time>2012-09-14T13:51:28Z</time></trkpt><trkpt lat="4.9654704519" lon="-75.6453278940"><ele>1374.82</ele><time>2012-09-14T13:51:54Z</time></trkpt><trkpt lat="4.9654804263" lon="-75.6453815382"><ele>1371.94</ele><time>2012-09-14T13:52:20Z</time></trkpt><trkpt lat="4.9654505868" lon="-75.6454076897"><ele>1370.98</ele><time>2012-09-14T13:52:46Z</time></trkpt><trkpt lat="4.9654582981" lon="-75.6454018224"><ele>1368.09</ele><time>2012-09-14T13:53:11Z</time></trkpt><trkpt lat="4.9654950947" lon="-75.6454251241"><ele>1367.61</ele><time>2012-09-14T13:53:27Z</time></trkpt><trkpt lat="4.9655215815" lon="-75.6454317458"><ele>1365.69</ele><time>2012-09-14T13:53:45Z</time></trkpt><trkpt lat="4.9655428715" lon="-75.6454373617"><ele>1363.77</ele><time>2012-09-14T13:54:02Z</time></trkpt><trkpt lat="4.9655537680" lon="-75.6454545446"><ele>1362.81</ele><time>2012-09-14T13:54:22Z</time></trkpt><trkpt lat="4.9655962642" lon="-75.6455012318"><ele>1360.88</ele><time>2012-09-14T13:54:43Z</time></trkpt><trkpt lat="4.9656150397" lon="-75.6455724780"><ele>1357.52</ele><time>2012-09-14T13:55:05Z</time></trkpt><trkpt lat="4.9656332284" lon="-75.6455762498"><ele>1355.12</ele><time>2012-09-14T13:55:30Z</time></trkpt><trkpt lat="4.9656369165" lon="-75.6455747411"><ele>1355.60</ele><time>2012-09-14T13:55:57Z</time></trkpt><trkpt lat="4.9656170513" lon="-75.6456097774"><ele>1354.63</ele><time>2012-09-14T13:56:25Z</time></trkpt><trkpt lat="4.9656042270" lon="-75.6455601566"><ele>1353.67</ele><time>2012-09-14T13:56:45Z</time></trkpt><trkpt lat="4.9655927438" lon="-75.6455425546"><ele>1354.63</ele><time>2012-09-14T13:57:04Z</time></trkpt><trkpt lat="4.9655864574" lon="-75.6455428898"><ele>1355.60</ele><time>2012-09-14T13:57:33Z</time></trkpt><trkpt lat="4.9655965995" lon="-75.6455521099"><ele>1355.12</ele><time>2012-09-14T13:58:01Z</time></trkpt><trkpt lat="4.9655847810" lon="-75.6455614977"><ele>1354.15</ele><time>2012-09-14T13:58:24Z</time></trkpt><trkpt lat="4.9655853678" lon="-75.6455540378"><ele>1353.67</ele><time>2012-09-14T13:58:46Z</time></trkpt><trkpt lat="4.9655879661" lon="-75.6455521099"><ele>1353.67</ele><time>2012-09-14T13:59:06Z</time></trkpt><trkpt lat="4.9656212423" lon="-75.6455806922"><ele>1351.75</ele><time>2012-09-14T13:59:25Z</time></trkpt><trkpt lat="4.9657227471" lon="-75.6456145551"><ele>1349.83</ele><time>2012-09-14T13:59:47Z</time></trkpt><trkpt lat="4.9657529220" lon="-75.6456349231"><ele>1348.87</ele><time>2012-09-14T14:00:13Z</time></trkpt><trkpt lat="4.9658657424" lon="-75.6457868870"><ele>1343.58</ele><time>2012-09-14T14:00:36Z</time></trkpt><trkpt lat="4.9659555964" lon="-75.6458203308"><ele>1339.25</ele><time>2012-09-14T14:00:57Z</time></trkpt><trkpt lat="4.9661085662" lon="-75.6458103564"><ele>1336.85</ele><time>2012-09-14T14:01:15Z</time></trkpt><trkpt lat="4.9661379866" lon="-75.6458976120"><ele>1336.85</ele><time>2012-09-14T14:01:30Z</time></trkpt><trkpt lat="4.9660845101" lon="-75.6460041460"><ele>1341.66</ele><time>2012-09-14T14:01:54Z</time></trkpt><trkpt lat="4.9661559239" lon="-75.6461017113"><ele>1344.54</ele><time>2012-09-14T14:02:13Z</time></trkpt><trkpt lat="4.9663481209" lon="-75.6461243425"><ele>1345.98</ele><time>2012-09-14T14:02:33Z</time></trkpt><trkpt lat="4.9664945528" lon="-75.6459928304"><ele>1345.02</ele><time>2012-09-14T14:02:52Z</time></trkpt><trkpt lat="4.9666067865" lon="-75.6458323169"><ele>1342.62</ele><time>2012-09-14T14:03:14Z</time></trkpt><trkpt lat="4.9666006677" lon="-75.6458309758"><ele>1343.10</ele><time>2012-09-14T14:03:42Z</time></trkpt><trkpt lat="4.9666179344" lon="-75.6458230969"><ele>1343.10</ele><time>2012-09-14T14:04:09Z</time></trkpt><trkpt lat="4.9665150046" lon="-75.6458167266"><ele>1343.10</ele><time>2012-09-14T14:04:23Z</time></trkpt><trkpt lat="4.9664289225" lon="-75.6459028926"><ele>1345.02</ele><time>2012-09-14T14:04:45Z</time></trkpt><trkpt lat="4.9663591012" lon="-75.6460861210"><ele>1347.91</ele><time>2012-09-14T14:05:07Z</time></trkpt><trkpt lat="4.9664819799" lon="-75.6459338218"><ele>1344.54</ele><time>2012-09-14T14:05:33Z</time></trkpt><trkpt lat="4.9666409846" lon="-75.6458327360"><ele>1344.06</ele><time>2012-09-14T14:05:56Z</time></trkpt><trkpt lat="4.9666745123" lon="-75.6458423752"><ele>1343.10</ele><time>2012-09-14T14:06:16Z</time></trkpt><trkpt lat="4.9666956346" lon="-75.6458448898"><ele>1342.62</ele><time>2012-09-14T14:06:39Z</time></trkpt><trkpt lat="4.9667273182" lon="-75.6458338257"><ele>1340.70</ele><time>2012-09-14T14:07:04Z</time></trkpt><trkpt lat="4.9668584950" lon="-75.6459222548"><ele>1340.22</ele><time>2012-09-14T14:07:23Z</time></trkpt><trkpt lat="4.9669406377" lon="-75.6459664274"><ele>1341.66</ele><time>2012-09-14T14:07:44Z</time></trkpt><trkpt lat="4.9669454992" lon="-75.6459706184"><ele>1342.62</ele><time>2012-09-14T14:08:07Z</time></trkpt><trkpt lat="4.9669561442" lon="-75.6459560338"><ele>1344.06</ele><time>2012-09-14T14:08:36Z</time></trkpt><trkpt lat="4.9670411367" lon="-75.6459586322"><ele>1346.46</ele><time>2012-09-14T14:08:54Z</time></trkpt><trkpt lat="4.9671478383" lon="-75.6458551995"><ele>1346.46</ele><time>2012-09-14T14:09:15Z</time></trkpt><trkpt lat="4.9672927614" lon="-75.6457494199"><ele>1344.06</ele><time>2012-09-14T14:09:36Z</time></trkpt><trkpt lat="4.9673119560" lon="-75.6457303092"><ele>1342.14</ele><time>2012-09-14T14:09:54Z</time></trkpt><trkpt lat="4.9673744850" lon="-75.6457494199"><ele>1344.06</ele><time>2012-09-14T14:10:11Z</time></trkpt><trkpt lat="4.9674404506" lon="-75.6457716320"><ele>1348.39</ele><time>2012-09-14T14:10:29Z</time></trkpt><trkpt lat="4.9675366748" lon="-75.6457751524"><ele>1350.79</ele><time>2012-09-14T14:10:43Z</time></trkpt><trkpt lat="4.9676019698" lon="-75.6457285490"><ele>1353.67</ele><time>2012-09-14T14:10:58Z</time></trkpt><trkpt lat="4.9676556140" lon="-75.6457130425"><ele>1357.04</ele><time>2012-09-14T14:11:16Z</time></trkpt><trkpt lat="4.9676515907" lon="-75.6457668543"><ele>1361.36</ele><time>2012-09-14T14:11:33Z</time></trkpt><trkpt lat="4.9675283767" lon="-75.6459069997"><ele>1371.46</ele><time>2012-09-14T14:11:54Z</time></trkpt><trkpt lat="4.9674270395" lon="-75.6459718756"><ele>1373.38</ele><time>2012-09-14T14:12:15Z</time></trkpt><trkpt lat="4.9673079327" lon="-75.6460556947"><ele>1375.78</ele><time>2012-09-14T14:12:33Z</time></trkpt><trkpt lat="4.9673257023" lon="-75.6460503303"><ele>1374.82</ele><time>2012-09-14T14:12:51Z</time></trkpt><trkpt lat="4.9672329146" lon="-75.6461544335"><ele>1372.90</ele><time>2012-09-14T14:13:10Z</time></trkpt><trkpt lat="4.9672034103" lon="-75.6463555992"><ele>1371.46</ele><time>2012-09-14T14:13:29Z</time></trkpt><trkpt lat="4.9671637639" lon="-75.6465741154"><ele>1371.94</ele><time>2012-09-14T14:13:52Z</time></trkpt><trkpt lat="4.9670525361" lon="-75.6467262469"><ele>1375.78</ele><time>2012-09-14T14:14:13Z</time></trkpt><trkpt lat="4.9669397157" lon="-75.6468395703"><ele>1380.59</ele><time>2012-09-14T14:14:35Z</time></trkpt><trkpt lat="4.9668036774" lon="-75.6470043585"><ele>1383.96</ele><time>2012-09-14T14:14:58Z</time></trkpt><trkpt lat="4.9667346943" lon="-75.6470512133"><ele>1384.92</ele><time>2012-09-14T14:15:15Z</time></trkpt><trkpt lat="4.9666488636" lon="-75.6471625250"><ele>1384.44</ele><time>2012-09-14T14:15:37Z</time></trkpt><trkpt lat="4.9664959777" lon="-75.6473047659"><ele>1383.96</ele><time>2012-09-14T14:16:04Z</time></trkpt><trkpt lat="4.9663433433" lon="-75.6475304067"><ele>1383.47</ele><time>2012-09-14T14:16:25Z</time></trkpt><trkpt lat="4.9662901182" lon="-75.6475788541"><ele>1383.47</ele><time>2012-09-14T14:16:48Z</time></trkpt><trkpt lat="4.9661798123" lon="-75.6476924289"><ele>1379.63</ele><time>2012-09-14T14:17:08Z</time></trkpt><trkpt lat="4.9659819994" lon="-75.6479117833"><ele>1386.84</ele><time>2012-09-14T14:17:29Z</time></trkpt><trkpt lat="4.9660379905" lon="-75.6478566304"><ele>1386.36</ele><time>2012-09-14T14:17:45Z</time></trkpt><trkpt lat="4.9660334643" lon="-75.6478713825"><ele>1386.84</ele><time>2012-09-14T14:18:10Z</time></trkpt><trkpt lat="4.9659052212" lon="-75.6480324827"><ele>1387.80</ele><time>2012-09-14T14:18:33Z</time></trkpt><trkpt lat="4.9657915626" lon="-75.6481745560"><ele>1389.72</ele><time>2012-09-14T14:18:56Z</time></trkpt><trkpt lat="4.9657679256" lon="-75.6482749712"><ele>1390.68</ele><time>2012-09-14T14:19:15Z</time></trkpt><trkpt lat="4.9658104219" lon="-75.6484911405"><ele>1390.20</ele><time>2012-09-14T14:19:39Z</time></trkpt><trkpt lat="4.9658548459" lon="-75.6486199703"><ele>1393.57</ele><time>2012-09-14T14:19:58Z</time></trkpt><trkpt lat="4.9658669997" lon="-75.6486821640"><ele>1395.97</ele><time>2012-09-14T14:20:16Z</time></trkpt><trkpt lat="4.9658556003" lon="-75.6487042084"><ele>1395.97</ele><time>2012-09-14T14:20:41Z</time></trkpt><trkpt lat="4.9658390880" lon="-75.6487273425"><ele>1395.97</ele><time>2012-09-14T14:21:07Z</time></trkpt><trkpt lat="4.9656028021" lon="-75.6489170250"><ele>1398.37</ele><time>2012-09-14T14:21:30Z</time></trkpt><trkpt lat="4.9654570408" lon="-75.6490220502"><ele>1398.86</ele><time>2012-09-14T14:21:55Z</time></trkpt><trkpt lat="4.9651892390" lon="-75.6491934601"><ele>1404.14</ele><time>2012-09-14T14:22:18Z</time></trkpt><trkpt lat="4.9650373589" lon="-75.6493397243"><ele>1408.95</ele><time>2012-09-14T14:22:44Z</time></trkpt><trkpt lat="4.9649660289" lon="-75.6494060252"><ele>1414.72</ele><time>2012-09-14T14:23:06Z</time></trkpt><trkpt lat="4.9648958724" lon="-75.6495087873"><ele>1415.68</ele><time>2012-09-14T14:23:20Z</time></trkpt><trkpt lat="4.9648755882" lon="-75.6496497709"><ele>1419.04</ele><time>2012-09-14T14:23:35Z</time></trkpt><trkpt lat="4.9648700561" lon="-75.6497205980"><ele>1420.97</ele><time>2012-09-14T14:23:49Z</time></trkpt><trkpt lat="4.9648750853" lon="-75.6498316582"><ele>1421.93</ele><time>2012-09-14T14:24:05Z</time></trkpt><trkpt lat="4.9648928549" lon="-75.6499812752"><ele>1423.37</ele><time>2012-09-14T14:24:27Z</time></trkpt><trkpt lat="4.9648683798" lon="-75.6502039824"><ele>1424.81</ele><time>2012-09-14T14:24:51Z</time></trkpt><trkpt lat="4.9649846368" lon="-75.6503891386"><ele>1426.73</ele><time>2012-09-14T14:25:13Z</time></trkpt><trkpt lat="4.9649526179" lon="-75.6504360773"><ele>1423.85</ele><time>2012-09-14T14:25:32Z</time></trkpt><trkpt lat="4.9648844730" lon="-75.6504963432"><ele>1421.93</ele><time>2012-09-14T14:25:52Z</time></trkpt><trkpt lat="4.9648102932" lon="-75.6505458802"><ele>1421.45</ele><time>2012-09-14T14:26:18Z</time></trkpt><trkpt lat="4.9648002349" lon="-75.6505325530"><ele>1420.97</ele><time>2012-09-14T14:26:33Z</time></trkpt><trkpt lat="4.9647973850" lon="-75.6505418569"><ele>1420.97</ele><time>2012-09-14T14:26:52Z</time></trkpt><trkpt lat="4.9647896737" lon="-75.6505376659"><ele>1420.49</ele><time>2012-09-14T14:27:09Z</time></trkpt><trkpt lat="4.9647905957" lon="-75.6505437847"><ele>1420.49</ele><time>2012-09-14T14:27:38Z</time></trkpt><trkpt lat="4.9647952896" lon="-75.6505379174"><ele>1420.97</ele><time>2012-09-14T14:28:08Z</time></trkpt><trkpt lat="4.9647992291" lon="-75.6505348161"><ele>1420.97</ele><time>2012-09-14T14:28:40Z</time></trkpt><trkpt lat="4.9648032524" lon="-75.6505297869"><ele>1421.45</ele><time>2012-09-14T14:29:14Z</time></trkpt><trkpt lat="4.9648028333" lon="-75.6505326368"><ele>1421.45</ele><time>2012-09-14T14:29:45Z</time></trkpt><trkpt lat="4.9648035876" lon="-75.6505325530"><ele>1421.93</ele><time>2012-09-14T14:30:15Z</time></trkpt><trkpt lat="4.9648044258" lon="-75.6505327206"><ele>1422.41</ele><time>2012-09-14T14:30:58Z</time></trkpt><trkpt lat="4.9647993129" lon="-75.6505392585"><ele>1422.89</ele><time>2012-09-14T14:31:29Z</time></trkpt><trkpt lat="4.9648004025" lon="-75.6505457964"><ele>1424.81</ele><time>2012-09-14T14:32:10Z</time></trkpt><trkpt lat="4.9648118857" lon="-75.6505446229"><ele>1425.29</ele><time>2012-09-14T14:32:44Z</time></trkpt><trkpt lat="4.9648099579" lon="-75.6505492330"><ele>1425.77</ele><time>2012-09-14T14:33:12Z</time></trkpt><trkpt lat="4.9648081139" lon="-75.6505530886"><ele>1426.25</ele><time>2012-09-14T14:33:44Z</time></trkpt><trkpt lat="4.9648074433" lon="-75.6505563576"><ele>1426.25</ele><time>2012-09-14T14:34:21Z</time></trkpt><trkpt lat="4.9648085330" lon="-75.6505520828"><ele>1426.73</ele><time>2012-09-14T14:34:51Z</time></trkpt><trkpt lat="4.9648099579" lon="-75.6505582016"><ele>1428.18</ele><time>2012-09-14T14:35:22Z</time></trkpt><trkpt lat="4.9648068566" lon="-75.6505596265"><ele>1429.14</ele><time>2012-09-14T14:35:56Z</time></trkpt><trkpt lat="4.9648065213" lon="-75.6505636498"><ele>1429.62</ele><time>2012-09-14T14:36:32Z</time></trkpt><trkpt lat="4.9648041744" lon="-75.6505644880"><ele>1430.10</ele><time>2012-09-14T14:37:04Z</time></trkpt><trkpt lat="4.9647978041" lon="-75.6505638175"><ele>1429.14</ele><time>2012-09-14T14:37:29Z</time></trkpt><trkpt lat="4.9647979718" lon="-75.6505624764"><ele>1428.66</ele><time>2012-09-14T14:37:47Z</time></trkpt><trkpt lat="4.9647985585" lon="-75.6505625602"><ele>1428.66</ele><time>2012-09-14T14:38:07Z</time></trkpt><trkpt lat="4.9647822138" lon="-75.6505411863"><ele>1429.14</ele><time>2012-09-14T14:38:35Z</time></trkpt><trkpt lat="4.9648119695" lon="-75.6505530886"><ele>1430.10</ele><time>2012-09-14T14:39:05Z</time></trkpt><trkpt lat="4.9647996482" lon="-75.6505350675"><ele>1429.62</ele><time>2012-09-14T14:39:37Z</time></trkpt><trkpt lat="4.9648213573" lon="-75.6505770609"><ele>1429.62</ele><time>2012-09-14T14:40:13Z</time></trkpt><trkpt lat="4.9648166634" lon="-75.6505711097"><ele>1429.14</ele><time>2012-09-14T14:40:41Z</time></trkpt><trkpt lat="4.9648011569" lon="-75.6505654100"><ele>1429.14</ele><time>2012-09-14T14:41:21Z</time></trkpt><trkpt lat="4.9648102932" lon="-75.6505775638"><ele>1428.66</ele><time>2012-09-14T14:42:01Z</time></trkpt><trkpt lat="4.9648029171" lon="-75.6505792402"><ele>1428.66</ele><time>2012-09-14T14:42:34Z</time></trkpt><trkpt lat="4.9648004863" lon="-75.6505755521"><ele>1428.18</ele><time>2012-09-14T14:43:07Z</time></trkpt><trkpt lat="4.9647923559" lon="-75.6505598780"><ele>1427.70</ele><time>2012-09-14T14:43:46Z</time></trkpt><trkpt lat="4.9647945352" lon="-75.6505554356"><ele>1427.21</ele><time>2012-09-14T14:44:22Z</time></trkpt><trkpt lat="4.9648002349" lon="-75.6505559385"><ele>1427.70</ele><time>2012-09-14T14:45:01Z</time></trkpt><trkpt lat="4.9648104608" lon="-75.6505528372"><ele>1427.70</ele><time>2012-09-14T14:45:44Z</time></trkpt><trkpt lat="4.9648105446" lon="-75.6505540106"><ele>1428.18</ele><time>2012-09-14T14:46:12Z</time></trkpt><trkpt lat="4.9648118857" lon="-75.6505489815"><ele>1428.18</ele><time>2012-09-14T14:46:47Z</time></trkpt><trkpt lat="4.9648077786" lon="-75.6505476404"><ele>1428.66</ele><time>2012-09-14T14:47:23Z</time></trkpt><trkpt lat="4.9648051802" lon="-75.6505473051"><ele>1428.18</ele><time>2012-09-14T14:48:03Z</time></trkpt><trkpt lat="4.9648020789" lon="-75.6505468860"><ele>1428.18</ele><time>2012-09-14T14:48:37Z</time></trkpt><trkpt lat="4.9648021627" lon="-75.6505495682"><ele>1427.70</ele><time>2012-09-14T14:49:18Z</time></trkpt><trkpt lat="4.9647999834" lon="-75.6505439524"><ele>1427.70</ele><time>2012-09-14T14:49:57Z</time></trkpt><trkpt lat="4.9648004025" lon="-75.6505437847"><ele>1427.70</ele><time>2012-09-14T14:50:31Z</time></trkpt><trkpt lat="4.9647962954" lon="-75.6505438685"><ele>1427.70</ele><time>2012-09-14T14:50:59Z</time></trkpt><trkpt lat="4.9647962116" lon="-75.6505453773"><ele>1428.18</ele><time>2012-09-14T14:51:42Z</time></trkpt><trkpt lat="4.9647959601" lon="-75.6505426951"><ele>1428.66</ele><time>2012-09-14T14:52:09Z</time></trkpt><trkpt lat="4.9647976365" lon="-75.6505416892"><ele>1428.18</ele><time>2012-09-14T14:52:41Z</time></trkpt><trkpt lat="4.9648172501" lon="-75.6505846884"><ele>1429.14</ele><time>2012-09-14T14:53:09Z</time></trkpt><trkpt lat="4.9648333434" lon="-75.6505793240"><ele>1430.58</ele><time>2012-09-14T14:53:42Z</time></trkpt><trkpt lat="4.9648322538" lon="-75.6505825929"><ele>1430.10</ele><time>2012-09-14T14:54:16Z</time></trkpt><trkpt lat="4.9648081977" lon="-75.6505639013"><ele>1429.62</ele><time>2012-09-14T14:54:49Z</time></trkpt><trkpt lat="4.9648011569" lon="-75.6505574472"><ele>1429.62</ele><time>2012-09-14T14:55:26Z</time></trkpt><trkpt lat="4.9648015760" lon="-75.6505570281"><ele>1430.58</ele><time>2012-09-14T14:55:58Z</time></trkpt><trkpt lat="4.9648010731" lon="-75.6505540106"><ele>1432.50</ele><time>2012-09-14T14:56:32Z</time></trkpt><trkpt lat="4.9648018274" lon="-75.6505470537"><ele>1432.02</ele><time>2012-09-14T14:57:16Z</time></trkpt><trkpt lat="4.9647994805" lon="-75.6505429465"><ele>1431.54</ele><time>2012-09-14T14:57:51Z</time></trkpt><trkpt lat="4.9647999834" lon="-75.6505411863"><ele>1431.06</ele><time>2012-09-14T14:58:30Z</time></trkpt><trkpt lat="4.9648014922" lon="-75.6505402643"><ele>1431.54</ele><time>2012-09-14T14:59:07Z</time></trkpt><trkpt lat="4.9648009054" lon="-75.6505408511"><ele>1432.02</ele><time>2012-09-14T14:59:42Z</time></trkpt><trkpt lat="4.9648014922" lon="-75.6505391747"><ele>1432.02</ele><time>2012-09-14T15:00:21Z</time></trkpt><trkpt lat="4.9648003187" lon="-75.6505409349"><ele>1431.06</ele><time>2012-09-14T15:01:09Z</time></trkpt><trkpt lat="4.9648009054" lon="-75.6505408511"><ele>1431.54</ele><time>2012-09-14T15:01:43Z</time></trkpt><trkpt lat="4.9647989776" lon="-75.6505442876"><ele>1431.06</ele><time>2012-09-14T15:02:14Z</time></trkpt><trkpt lat="4.9648000672" lon="-75.6505449582"><ele>1431.06</ele><time>2012-09-14T15:02:46Z</time></trkpt><trkpt lat="4.9648018274" lon="-75.6505468022"><ele>1431.06</ele><time>2012-09-14T15:03:16Z</time></trkpt><trkpt lat="4.9648022465" lon="-75.6505430304"><ele>1431.06</ele><time>2012-09-14T15:03:44Z</time></trkpt><trkpt lat="4.9648068566" lon="-75.6505453773"><ele>1431.06</ele><time>2012-09-14T15:04:04Z</time></trkpt><trkpt lat="4.9648013245" lon="-75.6505380850"><ele>1431.06</ele><time>2012-09-14T15:04:29Z</time></trkpt><trkpt lat="4.9647955410" lon="-75.6505276915"><ele>1431.06</ele><time>2012-09-14T15:04:59Z</time></trkpt><trkpt lat="4.9647888355" lon="-75.6505376659"><ele>1431.06</ele><time>2012-09-14T15:05:28Z</time></trkpt><trkpt lat="4.9647916015" lon="-75.6505449582"><ele>1431.06</ele><time>2012-09-14T15:05:57Z</time></trkpt><trkpt lat="4.9647987261" lon="-75.6505544297"><ele>1432.50</ele><time>2012-09-14T15:06:28Z</time></trkpt><trkpt lat="4.9648047611" lon="-75.6505532563"><ele>1432.50</ele><time>2012-09-14T15:06:59Z</time></trkpt><trkpt lat="4.9648094550" lon="-75.6505576149"><ele>1432.50</ele><time>2012-09-14T15:07:20Z</time></trkpt><trkpt lat="4.9648077786" lon="-75.6505532563"><ele>1432.50</ele><time>2012-09-14T15:07:45Z</time></trkpt><trkpt lat="4.9648113828" lon="-75.6505860295"><ele>1433.46</ele><time>2012-09-14T15:08:09Z</time></trkpt><trkpt lat="4.9648182560" lon="-75.6505998597"><ele>1434.42</ele><time>2012-09-14T15:08:32Z</time></trkpt><trkpt lat="4.9648189265" lon="-75.6505964231"><ele>1434.91</ele><time>2012-09-14T15:09:00Z</time></trkpt><trkpt lat="4.9647813756" lon="-75.6506126001"><ele>1434.91</ele><time>2012-09-14T15:09:20Z</time></trkpt><trkpt lat="4.9647380412" lon="-75.6505781505"><ele>1434.42</ele><time>2012-09-14T15:09:35Z</time></trkpt><trkpt lat="4.9672797695" lon="-75.6484533381"><ele>1435.39</ele><time>2012-09-14T15:12:02Z</time></trkpt><trkpt lat="4.9672280531" lon="-75.6484472193"><ele>1445.00</ele><time>2012-09-14T15:12:21Z</time></trkpt><trkpt lat="4.9671691284" lon="-75.6485565193"><ele>1444.52</ele><time>2012-09-14T15:12:37Z</time></trkpt><trkpt lat="4.9671261292" lon="-75.6485429406"><ele>1443.56</ele><time>2012-09-14T15:12:53Z</time></trkpt><trkpt lat="4.9670370296" lon="-75.6485372409"><ele>1444.52</ele><time>2012-09-14T15:13:17Z</time></trkpt><trkpt lat="4.9669716507" lon="-75.6485244166"><ele>1444.52</ele><time>2012-09-14T15:13:36Z</time></trkpt><trkpt lat="4.9669410568" lon="-75.6486161146"><ele>1443.08</ele><time>2012-09-14T15:13:59Z</time></trkpt><trkpt lat="4.9669195153" lon="-75.6486404222"><ele>1443.08</ele><time>2012-09-14T15:14:25Z</time></trkpt><trkpt lat="4.9669075292" lon="-75.6486552581"><ele>1442.60</ele><time>2012-09-14T15:14:47Z</time></trkpt><trkpt lat="4.9669006560" lon="-75.6486626342"><ele>1444.52</ele><time>2012-09-14T15:15:02Z</time></trkpt><trkpt lat="4.9669001531" lon="-75.6486681662"><ele>1445.00</ele><time>2012-09-14T15:15:20Z</time></trkpt><trkpt lat="4.9669004884" lon="-75.6486692559"><ele>1444.52</ele><time>2012-09-14T15:15:54Z</time></trkpt><trkpt lat="4.9669027515" lon="-75.6486673281"><ele>1445.00</ele><time>2012-09-14T15:16:19Z</time></trkpt><trkpt lat="4.9668999016" lon="-75.6486620475"><ele>1445.96</ele><time>2012-09-14T15:16:50Z</time></trkpt><trkpt lat="4.9668981414" lon="-75.6486622989"><ele>1446.44</ele><time>2012-09-14T15:17:20Z</time></trkpt><trkpt lat="4.9669001531" lon="-75.6486638077"><ele>1445.96</ele><time>2012-09-14T15:17:51Z</time></trkpt><trkpt lat="4.9668988958" lon="-75.6486642268"><ele>1445.96</ele><time>2012-09-14T15:18:20Z</time></trkpt><trkpt lat="4.9669030868" lon="-75.6486665737"><ele>1445.96</ele><time>2012-09-14T15:18:57Z</time></trkpt><trkpt lat="4.9669097085" lon="-75.6486717705"><ele>1445.96</ele><time>2012-09-14T15:19:26Z</time></trkpt><trkpt lat="4.9669100437" lon="-75.6486665737"><ele>1445.00</ele><time>2012-09-14T15:19:44Z</time></trkpt><trkpt lat="4.9669017456" lon="-75.6486639753"><ele>1436.35</ele><time>2012-09-14T15:20:11Z</time></trkpt><trkpt lat="4.9668874964" lon="-75.6486704294"><ele>1440.19</ele><time>2012-09-14T15:20:41Z</time></trkpt><trkpt lat="4.9668931961" lon="-75.6486715190"><ele>1443.56</ele><time>2012-09-14T15:21:17Z</time></trkpt><trkpt lat="4.9668947887" lon="-75.6486696750"><ele>1444.52</ele><time>2012-09-14T15:21:50Z</time></trkpt><trkpt lat="4.9669079483" lon="-75.6486762129"><ele>1445.00</ele><time>2012-09-14T15:22:16Z</time></trkpt><trkpt lat="4.9669056851" lon="-75.6486774702"><ele>1445.48</ele><time>2012-09-14T15:22:50Z</time></trkpt><trkpt lat="4.9669072777" lon="-75.6486745365"><ele>1446.44</ele><time>2012-09-14T15:23:21Z</time></trkpt><trkpt lat="4.9669067748" lon="-75.6486737821"><ele>1445.96</ele><time>2012-09-14T15:23:45Z</time></trkpt><trkpt lat="4.9669074453" lon="-75.6486698426"><ele>1445.48</ele><time>2012-09-14T15:24:07Z</time></trkpt><trkpt lat="4.9669084512" lon="-75.6486691721"><ele>1445.48</ele><time>2012-09-14T15:24:39Z</time></trkpt><trkpt lat="4.9669070262" lon="-75.6486736145"><ele>1445.96</ele><time>2012-09-14T15:25:05Z</time></trkpt><trkpt lat="4.9669021647" lon="-75.6486726087"><ele>1445.96</ele><time>2012-09-14T15:25:22Z</time></trkpt><trkpt lat="4.9669038411" lon="-75.6486733630"><ele>1445.96</ele><time>2012-09-14T15:25:54Z</time></trkpt><trkpt lat="4.9669066910" lon="-75.6486732792"><ele>1445.96</ele><time>2012-09-14T15:26:14Z</time></trkpt><trkpt lat="4.9669256341" lon="-75.6486945692"><ele>1446.44</ele><time>2012-09-14T15:26:39Z</time></trkpt><trkpt lat="4.9669214431" lon="-75.6486907136"><ele>1446.44</ele><time>2012-09-14T15:27:11Z</time></trkpt><trkpt lat="4.9669216946" lon="-75.6486947369"><ele>1446.44</ele><time>2012-09-14T15:27:36Z</time></trkpt><trkpt lat="4.9669175874" lon="-75.6486962456"><ele>1446.92</ele><time>2012-09-14T15:28:08Z</time></trkpt><trkpt lat="4.9669155758" lon="-75.6486968324"><ele>1446.92</ele><time>2012-09-14T15:28:36Z</time></trkpt><trkpt lat="4.9669145700" lon="-75.6486968324"><ele>1446.92</ele><time>2012-09-14T15:29:00Z</time></trkpt><trkpt lat="4.9669704773" lon="-75.6486752070"><ele>1446.92</ele><time>2012-09-14T15:29:20Z</time></trkpt><trkpt lat="4.9669472594" lon="-75.6486421824"><ele>1449.32</ele><time>2012-09-14T15:29:46Z</time></trkpt><trkpt lat="4.9669346865" lon="-75.6486449484"><ele>1445.96</ele><time>2012-09-14T15:30:07Z</time></trkpt><trkpt lat="4.9669955391" lon="-75.6485151965"><ele>1444.04</ele><time>2012-09-14T15:30:31Z</time></trkpt><trkpt lat="4.9671760853" lon="-75.6485495623"><ele>1442.60</ele><time>2012-09-14T15:30:52Z</time></trkpt><trkpt lat="4.9671956152" lon="-75.6485738698"><ele>1442.60</ele><time>2012-09-14T15:31:29Z</time></trkpt><trkpt lat="4.9676397722" lon="-75.6489330344"><ele>1442.11</ele><time>2012-09-14T15:31:41Z</time></trkpt><trkpt lat="4.9685008451" lon="-75.6497987173"><ele>1438.75</ele><time>2012-09-14T15:32:00Z</time></trkpt><trkpt lat="4.9690303300" lon="-75.6502499152"><ele>1435.39</ele><time>2012-09-14T15:32:15Z</time></trkpt><trkpt lat="4.9698900618" lon="-75.6508431025"><ele>1430.10</ele><time>2012-09-14T15:32:33Z</time></trkpt><trkpt lat="4.9699446280" lon="-75.6509021949"><ele>1428.18</ele><time>2012-09-14T15:32:44Z</time></trkpt><trkpt lat="4.9698717054" lon="-75.6508881971"><ele>1427.21</ele><time>2012-09-14T15:32:56Z</time></trkpt><trkpt lat="4.9685575068" lon="-75.6498796027"><ele>1419.52</ele><time>2012-09-14T15:34:07Z</time></trkpt><trkpt lat="4.9683958199" lon="-75.6497524492"><ele>1428.18</ele><time>2012-09-14T15:34:19Z</time></trkpt><trkpt lat="4.9681577738" lon="-75.6495954562"><ele>1435.39</ele><time>2012-09-14T15:34:32Z</time></trkpt><trkpt lat="4.9680072349" lon="-75.6495227851"><ele>1440.67</ele><time>2012-09-14T15:34:43Z</time></trkpt><trkpt lat="4.9677325599" lon="-75.6492903549"><ele>1446.44</ele><time>2012-09-14T15:35:01Z</time></trkpt><trkpt lat="4.9677211605" lon="-75.6492631137"><ele>1441.63</ele><time>2012-09-14T15:35:27Z</time></trkpt><trkpt lat="4.9677124433" lon="-75.6492514629"><ele>1439.23</ele><time>2012-09-14T15:36:08Z</time></trkpt><trkpt lat="4.9677005410" lon="-75.6492229644"><ele>1440.19</ele><time>2012-09-14T15:36:26Z</time></trkpt><trkpt lat="4.9676600564" lon="-75.6493529677"><ele>1438.27</ele><time>2012-09-14T15:36:43Z</time></trkpt><trkpt lat="4.9676608108" lon="-75.6493382156"><ele>1437.79</ele><time>2012-09-14T15:37:06Z</time></trkpt><trkpt lat="4.9676785804" lon="-75.6493945420"><ele>1437.31</ele><time>2012-09-14T15:37:31Z</time></trkpt><trkpt lat="4.9677286204" lon="-75.6493556499"><ele>1433.94</ele><time>2012-09-14T15:37:56Z</time></trkpt><trkpt lat="4.9676892255" lon="-75.6493336055"><ele>1433.94</ele><time>2012-09-14T15:38:19Z</time></trkpt><trkpt lat="4.9676625710" lon="-75.6494284887"><ele>1433.94</ele><time>2012-09-14T15:38:42Z</time></trkpt><trkpt lat="4.9676593021" lon="-75.6493635289"><ele>1443.08</ele><time>2012-09-14T15:39:38Z</time></trkpt><trkpt lat="4.9676810112" lon="-75.6493242178"><ele>1448.36</ele><time>2012-09-14T15:40:03Z</time></trkpt><trkpt lat="4.9677333981" lon="-75.6492941268"><ele>1441.15</ele><time>2012-09-14T15:40:28Z</time></trkpt><trkpt lat="4.9677182268" lon="-75.6492466852"><ele>1439.71</ele><time>2012-09-14T15:40:49Z</time></trkpt><trkpt lat="4.9676560331" lon="-75.6493139919"><ele>1440.19</ele><time>2012-09-14T15:41:15Z</time></trkpt><trkpt lat="4.9675977789" lon="-75.6493394729"><ele>1438.75</ele><time>2012-09-14T15:41:33Z</time></trkpt><trkpt lat="4.9677298777" lon="-75.6493096333"><ele>1433.94</ele><time>2012-09-14T15:41:55Z</time></trkpt><trkpt lat="4.9677561130" lon="-75.6492932886"><ele>1433.94</ele><time>2012-09-14T15:42:16Z</time></trkpt><trkpt lat="4.9677711166" lon="-75.6492729206"><ele>1432.98</ele><time>2012-09-14T15:42:40Z</time></trkpt><trkpt lat="4.9677733798" lon="-75.6492652092"><ele>1432.98</ele><time>2012-09-14T15:43:09Z</time></trkpt><trkpt lat="4.9677662551" lon="-75.6492681429"><ele>1432.50</ele><time>2012-09-14T15:43:28Z</time></trkpt><trkpt lat="4.9677868746" lon="-75.6492829788"><ele>1432.50</ele><time>2012-09-14T15:43:55Z</time></trkpt><trkpt lat="4.9679292832" lon="-75.6494108867"><ele>1431.54</ele><time>2012-09-14T15:44:17Z</time></trkpt><trkpt lat="4.9679449573" lon="-75.6494065281"><ele>1432.50</ele><time>2012-09-14T15:44:39Z</time></trkpt><trkpt lat="4.9679433648" lon="-75.6493971404"><ele>1432.02</ele><time>2012-09-14T15:45:08Z</time></trkpt><trkpt lat="4.9681168701" lon="-75.6495460030"><ele>1432.02</ele><time>2012-09-14T15:46:06Z</time></trkpt><trkpt lat="4.9681552593" lon="-75.6495921034"><ele>1431.06</ele><time>2012-09-14T15:46:23Z</time></trkpt><trkpt lat="4.9680984300" lon="-75.6495346036"><ele>1431.06</ele><time>2012-09-14T15:46:43Z</time></trkpt><trkpt lat="4.9680335540" lon="-75.6494789477"><ele>1433.94</ele><time>2012-09-14T15:46:53Z</time></trkpt><trkpt lat="4.9679658283" lon="-75.6494205259"><ele>1434.42</ele><time>2012-09-14T15:47:11Z</time></trkpt><trkpt lat="4.9679552671" lon="-75.6494154129"><ele>1433.94</ele><time>2012-09-14T15:47:26Z</time></trkpt><trkpt lat="4.9679525010" lon="-75.6494159158"><ele>1434.91</ele><time>2012-09-14T15:47:55Z</time></trkpt><trkpt lat="4.9679433648" lon="-75.6494066957"><ele>1435.39</ele><time>2012-09-14T15:48:31Z</time></trkpt><trkpt lat="4.9679673370" lon="-75.6494322605"><ele>1435.87</ele><time>2012-09-14T15:48:57Z</time></trkpt><trkpt lat="4.9680638127" lon="-75.6495055184"><ele>1435.39</ele><time>2012-09-14T15:49:08Z</time></trkpt><trkpt lat="4.9682246614" lon="-75.6496219430"><ele>1432.98</ele><time>2012-09-14T15:49:26Z</time></trkpt><trkpt lat="4.9683768768" lon="-75.6497339252"><ele>1430.58</ele><time>2012-09-14T15:49:44Z</time></trkpt><trkpt lat="4.9684841651" lon="-75.6498184986"><ele>1428.66</ele><time>2012-09-14T15:49:59Z</time></trkpt><trkpt lat="4.9685479514" lon="-75.6498638447"><ele>1428.66</ele><time>2012-09-14T15:50:10Z</time></trkpt><trkpt lat="4.9686528929" lon="-75.6499413773"><ele>1427.70</ele><time>2012-09-14T15:50:27Z</time></trkpt><trkpt lat="4.9686756078" lon="-75.6499626674"><ele>1427.21</ele><time>2012-09-14T15:50:32Z</time></trkpt><trkpt lat="4.9688046053" lon="-75.6500504259"><ele>1425.77</ele><time>2012-09-14T15:50:48Z</time></trkpt><trkpt lat="4.9689237121" lon="-75.6501451414"><ele>1424.33</ele><time>2012-09-14T15:51:05Z</time></trkpt><trkpt lat="4.9689378776" lon="-75.6501575466"><ele>1424.33</ele><time>2012-09-14T15:51:22Z</time></trkpt><trkpt lat="4.9690192658" lon="-75.6502263620"><ele>1423.37</ele><time>2012-09-14T15:51:36Z</time></trkpt><trkpt lat="4.9695365131" lon="-75.6506186351"><ele>1420.49</ele><time>2012-09-14T15:51:50Z</time></trkpt><trkpt lat="4.9704526551" lon="-75.6513108965"><ele>1414.72</ele><time>2012-09-14T15:52:12Z</time></trkpt><trkpt lat="4.9707054533" lon="-75.6514662970"><ele>1411.83</ele><time>2012-09-14T15:52:24Z</time></trkpt><trkpt lat="4.9708602671" lon="-75.6517639384"><ele>1410.39</ele><time>2012-09-14T15:52:34Z</time></trkpt><trkpt lat="4.9708416592" lon="-75.6518014893"><ele>1409.91</ele><time>2012-09-14T15:52:35Z</time></trkpt><trkpt lat="4.9704147689" lon="-75.6523519289"><ele>1406.07</ele><time>2012-09-14T15:52:52Z</time></trkpt><trkpt lat="4.9703605380" lon="-75.6524261925"><ele>1404.62</ele><time>2012-09-14T15:53:02Z</time></trkpt><trkpt lat="4.9702830054" lon="-75.6527591217"><ele>1399.82</ele><time>2012-09-14T15:53:12Z</time></trkpt><trkpt lat="4.9706917908" lon="-75.6531162746"><ele>1395.97</ele><time>2012-09-14T15:53:24Z</time></trkpt><trkpt lat="4.9713264685" lon="-75.6535476912"><ele>1388.28</ele><time>2012-09-14T15:53:38Z</time></trkpt><trkpt lat="4.9720424507" lon="-75.6541565526"><ele>1384.44</ele><time>2012-09-14T15:53:55Z</time></trkpt><trkpt lat="4.9725016952" lon="-75.6546684355"><ele>1383.96</ele><time>2012-09-14T15:54:10Z</time></trkpt><trkpt lat="4.9727176968" lon="-75.6549484748"><ele>1382.03</ele><time>2012-09-14T15:54:22Z</time></trkpt><trkpt lat="4.9727472849" lon="-75.6549978442"><ele>1382.03</ele><time>2012-09-14T15:54:23Z</time></trkpt><trkpt lat="4.9727710895" lon="-75.6550485548"><ele>1382.03</ele><time>2012-09-14T15:54:24Z</time></trkpt><trkpt lat="4.9730183557" lon="-75.6559527945"><ele>1380.59</ele><time>2012-09-14T15:54:42Z</time></trkpt><trkpt lat="4.9732257240" lon="-75.6566379312"><ele>1376.75</ele><time>2012-09-14T15:54:56Z</time></trkpt><trkpt lat="4.9733213615" lon="-75.6570667494"><ele>1375.78</ele><time>2012-09-14T15:55:08Z</time></trkpt><trkpt lat="4.9733255524" lon="-75.6570680905"><ele>1378.19</ele><time>2012-09-14T15:55:33Z</time></trkpt><trkpt lat="4.9733292405" lon="-75.6571085751"><ele>1378.67</ele><time>2012-09-14T15:55:57Z</time></trkpt><trkpt lat="4.9733582418" lon="-75.6572514027"><ele>1378.67</ele><time>2012-09-14T15:56:38Z</time></trkpt><trkpt lat="4.9733423162" lon="-75.6571523286"><ele>1378.67</ele><time>2012-09-14T15:56:58Z</time></trkpt><trkpt lat="4.9733746704" lon="-75.6570970919"><ele>1378.19</ele><time>2012-09-14T15:57:24Z</time></trkpt><trkpt lat="4.9733473454" lon="-75.6570693478"><ele>1376.75</ele><time>2012-09-14T15:57:48Z</time></trkpt><trkpt lat="4.9733312521" lon="-75.6570566911"><ele>1376.75</ele><time>2012-09-14T15:58:11Z</time></trkpt><trkpt lat="4.9733141530" lon="-75.6570348144"><ele>1377.71</ele><time>2012-09-14T15:58:34Z</time></trkpt><trkpt lat="4.9733087048" lon="-75.6570208166"><ele>1377.71</ele><time>2012-09-14T15:58:51Z</time></trkpt><trkpt lat="4.9733058549" lon="-75.6569956709"><ele>1378.19</ele><time>2012-09-14T15:59:12Z</time></trkpt><trkpt lat="4.9732824694" lon="-75.6568097603"><ele>1378.67</ele><time>2012-09-14T15:59:35Z</time></trkpt><trkpt lat="4.9733043462" lon="-75.6567872968"><ele>1379.63</ele><time>2012-09-14T15:59:51Z</time></trkpt><trkpt lat="4.9733119737" lon="-75.6567745563"><ele>1380.11</ele><time>2012-09-14T15:59:52Z</time></trkpt><trkpt lat="4.9733938649" lon="-75.6566885579"><ele>1381.07</ele><time>2012-09-14T16:00:06Z</time></trkpt><trkpt lat="4.9734976329" lon="-75.6566088460"><ele>1383.47</ele><time>2012-09-14T16:00:26Z</time></trkpt><trkpt lat="4.9734444078" lon="-75.6565061677"><ele>1384.92</ele><time>2012-09-14T16:00:43Z</time></trkpt><trkpt lat="4.9734475929" lon="-75.6564474944"><ele>1385.88</ele><time>2012-09-14T16:00:50Z</time></trkpt><trkpt lat="4.9734470062" lon="-75.6564355921"><ele>1385.88</ele><time>2012-09-14T16:00:51Z</time></trkpt><trkpt lat="4.9734626804" lon="-75.6563604902"><ele>1386.36</ele><time>2012-09-14T16:00:59Z</time></trkpt><trkpt lat="4.9734668713" lon="-75.6563211791"><ele>1385.88</ele><time>2012-09-14T16:01:03Z</time></trkpt><trkpt lat="4.9734905083" lon="-75.6562045030"><ele>1384.92</ele><time>2012-09-14T16:01:16Z</time></trkpt><trkpt lat="4.9735119659" lon="-75.6561433990"><ele>1383.96</ele><time>2012-09-14T16:01:32Z</time></trkpt><trkpt lat="4.9735177495" lon="-75.6561438181"><ele>1383.96</ele><time>2012-09-14T16:01:59Z</time></trkpt><trkpt lat="4.9735253770" lon="-75.6561452430"><ele>1383.96</ele><time>2012-09-14T16:02:00Z</time></trkpt><trkpt lat="4.9735159893" lon="-75.6561502721"><ele>1383.47</ele><time>2012-09-14T16:02:14Z</time></trkpt><trkpt lat="4.9735094514" lon="-75.6561471708"><ele>1383.47</ele><time>2012-09-14T16:02:44Z</time></trkpt><trkpt lat="4.9735673703" lon="-75.6560786068"><ele>1382.99</ele><time>2012-09-14T16:03:14Z</time></trkpt><trkpt lat="4.9735951144" lon="-75.6560280640"><ele>1382.03</ele><time>2012-09-14T16:03:37Z</time></trkpt><trkpt lat="4.9736711383" lon="-75.6559258886"><ele>1380.59</ele><time>2012-09-14T16:04:06Z</time></trkpt><trkpt lat="4.9738431349" lon="-75.6558604259"><ele>1378.19</ele><time>2012-09-14T16:04:28Z</time></trkpt><trkpt lat="4.9740219209" lon="-75.6557792891"><ele>1374.34</ele><time>2012-09-14T16:04:49Z</time></trkpt><trkpt lat="4.9740563706" lon="-75.6557601783"><ele>1372.90</ele><time>2012-09-14T16:05:09Z</time></trkpt><trkpt lat="4.9740572087" lon="-75.6557547301"><ele>1371.94</ele><time>2012-09-14T16:05:39Z</time></trkpt><trkpt lat="4.9740597233" lon="-75.6557587534"><ele>1371.94</ele><time>2012-09-14T16:06:05Z</time></trkpt><trkpt lat="4.9740660936" lon="-75.6557139941"><ele>1370.50</ele><time>2012-09-14T16:06:28Z</time></trkpt><trkpt lat="4.9741144571" lon="-75.6557096355"><ele>1370.50</ele><time>2012-09-14T16:06:53Z</time></trkpt><trkpt lat="4.9740862940" lon="-75.6557395589"><ele>1372.90</ele><time>2012-09-14T16:07:07Z</time></trkpt><trkpt lat="4.9740878027" lon="-75.6557432469"><ele>1372.42</ele><time>2012-09-14T16:07:24Z</time></trkpt><trkpt lat="4.9740852881" lon="-75.6557355355"><ele>1372.90</ele><time>2012-09-14T16:07:46Z</time></trkpt><trkpt lat="4.9740828574" lon="-75.6557322666"><ele>1372.90</ele><time>2012-09-14T16:08:16Z</time></trkpt><trkpt lat="4.9740836956" lon="-75.6557332724"><ele>1372.42</ele><time>2012-09-14T16:08:45Z</time></trkpt><trkpt lat="4.9741328135" lon="-75.6557222083"><ele>1372.42</ele><time>2012-09-14T16:09:09Z</time></trkpt><trkpt lat="4.9742572010" lon="-75.6557026785"><ele>1370.98</ele><time>2012-09-14T16:09:24Z</time></trkpt><trkpt lat="4.9742693547" lon="-75.6556969788"><ele>1370.02</ele><time>2012-09-14T16:09:50Z</time></trkpt><trkpt lat="4.9743113481" lon="-75.6556067895"><ele>1368.57</ele><time>2012-09-14T16:10:13Z</time></trkpt><trkpt lat="4.9743198976" lon="-75.6555734295"><ele>1368.57</ele><time>2012-09-14T16:10:39Z</time></trkpt><trkpt lat="4.9743070733" lon="-75.6555419974"><ele>1369.54</ele><time>2012-09-14T16:11:08Z</time></trkpt><trkpt lat="4.9742897227" lon="-75.6555488706"><ele>1369.05</ele><time>2012-09-14T16:11:38Z</time></trkpt><trkpt lat="4.9742837716" lon="-75.6555484515"><ele>1370.02</ele><time>2012-09-14T16:12:09Z</time></trkpt><trkpt lat="4.9743619747" lon="-75.6555024348"><ele>1372.90</ele><time>2012-09-14T16:12:31Z</time></trkpt><trkpt lat="4.9744000286" lon="-75.6554922089"><ele>1372.42</ele><time>2012-09-14T16:12:54Z</time></trkpt><trkpt lat="4.9744985159" lon="-75.6554048695"><ele>1370.50</ele><time>2012-09-14T16:13:14Z</time></trkpt><trkpt lat="4.9744753819" lon="-75.6554318592"><ele>1370.50</ele><time>2012-09-14T16:13:41Z</time></trkpt><trkpt lat="4.9745529145" lon="-75.6554041151"><ele>1374.34</ele><time>2012-09-14T16:14:03Z</time></trkpt><trkpt lat="4.9745563511" lon="-75.6554097310"><ele>1374.34</ele><time>2012-09-14T16:14:30Z</time></trkpt><trkpt lat="4.9745578598" lon="-75.6554154307"><ele>1373.38</ele><time>2012-09-14T16:14:58Z</time></trkpt><trkpt lat="4.9744831771" lon="-75.6554673146"><ele>1372.42</ele><time>2012-09-14T16:15:21Z</time></trkpt><trkpt lat="4.9744721968" lon="-75.6554502156"><ele>1373.38</ele><time>2012-09-14T16:15:53Z</time></trkpt><trkpt lat="4.9745172076" lon="-75.6554254889"><ele>1372.42</ele><time>2012-09-14T16:16:18Z</time></trkpt><trkpt lat="4.9746434391" lon="-75.6553334557"><ele>1374.82</ele><time>2012-09-14T16:16:41Z</time></trkpt><trkpt lat="4.9747457821" lon="-75.6552022789"><ele>1379.15</ele><time>2012-09-14T16:17:03Z</time></trkpt><trkpt lat="4.9748151843" lon="-75.6550384965"><ele>1382.99</ele><time>2012-09-14T16:17:25Z</time></trkpt><trkpt lat="4.9748821557" lon="-75.6550505664"><ele>1383.96</ele><time>2012-09-14T16:17:44Z</time></trkpt><trkpt lat="4.9748843350" lon="-75.6550797354"><ele>1384.92</ele><time>2012-09-14T16:18:01Z</time></trkpt><trkpt lat="4.9748858437" lon="-75.6550823338"><ele>1385.88</ele><time>2012-09-14T16:18:21Z</time></trkpt><trkpt lat="4.9748928007" lon="-75.6550801545"><ele>1385.88</ele><time>2012-09-14T16:18:42Z</time></trkpt><trkpt lat="4.9748968240" lon="-75.6550793163"><ele>1385.88</ele><time>2012-09-14T16:18:57Z</time></trkpt><trkpt lat="4.9748899508" lon="-75.6550816633"><ele>1385.40</ele><time>2012-09-14T16:19:21Z</time></trkpt><trkpt lat="4.9748891126" lon="-75.6550843455"><ele>1384.92</ele><time>2012-09-14T16:19:57Z</time></trkpt><trkpt lat="4.9748912919" lon="-75.6550873630"><ele>1385.40</ele><time>2012-09-14T16:20:21Z</time></trkpt><trkpt lat="4.9748912081" lon="-75.6550874468"><ele>1385.40</ele><time>2012-09-14T16:20:45Z</time></trkpt><trkpt lat="4.9748831615" lon="-75.6550911348"><ele>1386.36</ele><time>2012-09-14T16:21:15Z</time></trkpt><trkpt lat="4.9748872686" lon="-75.6550969183"><ele>1386.36</ele><time>2012-09-14T16:21:38Z</time></trkpt><trkpt lat="4.9748858437" lon="-75.6550948229"><ele>1386.36</ele><time>2012-09-14T16:22:08Z</time></trkpt><trkpt lat="4.9748835806" lon="-75.6550947390"><ele>1385.88</ele><time>2012-09-14T16:22:41Z</time></trkpt><trkpt lat="4.9749073014" lon="-75.6552440207"><ele>1383.96</ele><time>2012-09-14T16:23:02Z</time></trkpt><trkpt lat="4.9749066308" lon="-75.6552357227"><ele>1383.96</ele><time>2012-09-14T16:23:39Z</time></trkpt><trkpt lat="4.9748879392" lon="-75.6550886203"><ele>1384.92</ele><time>2012-09-14T16:23:58Z</time></trkpt><trkpt lat="4.9748916272" lon="-75.6550986785"><ele>1387.80</ele><time>2012-09-14T16:24:20Z</time></trkpt><trkpt lat="4.9748887774" lon="-75.6550946552"><ele>1387.32</ele><time>2012-09-14T16:24:44Z</time></trkpt><trkpt lat="4.9748920463" lon="-75.6550928950"><ele>1386.84</ele><time>2012-09-14T16:25:17Z</time></trkpt><trkpt lat="4.9748901185" lon="-75.6550879497"><ele>1387.32</ele><time>2012-09-14T16:25:45Z</time></trkpt><trkpt lat="4.9748900346" lon="-75.6550864410"><ele>1387.32</ele><time>2012-09-14T16:26:16Z</time></trkpt><trkpt lat="4.9748947285" lon="-75.6550764665"><ele>1387.80</ele><time>2012-09-14T16:26:41Z</time></trkpt><trkpt lat="4.9748872686" lon="-75.6550824177"><ele>1387.32</ele><time>2012-09-14T16:27:08Z</time></trkpt><trkpt lat="4.9748858437" lon="-75.6550987624"><ele>1386.84</ele><time>2012-09-14T16:27:31Z</time></trkpt><trkpt lat="4.9749584310" lon="-75.6553456094"><ele>1384.92</ele><time>2012-09-14T16:27:57Z</time></trkpt><trkpt lat="4.9749269150" lon="-75.6555357110"><ele>1387.32</ele><time>2012-09-14T16:28:21Z</time></trkpt><trkpt lat="4.9749107379" lon="-75.6557010859"><ele>1387.32</ele><time>2012-09-14T16:28:44Z</time></trkpt><trkpt lat="4.9749705847" lon="-75.6558760162"><ele>1386.84</ele><time>2012-09-14T16:29:10Z</time></trkpt><trkpt lat="4.9748404976" lon="-75.6559190992"><ele>1386.36</ele><time>2012-09-14T16:29:29Z</time></trkpt><trkpt lat="4.9748090655" lon="-75.6559275649"><ele>1385.40</ele><time>2012-09-14T16:29:34Z</time></trkpt><trkpt lat="4.9746192992" lon="-75.6559869088"><ele>1383.96</ele><time>2012-09-14T16:29:59Z</time></trkpt><trkpt lat="4.9744830932" lon="-75.6560230348"><ele>1383.47</ele><time>2012-09-14T16:30:24Z</time></trkpt><trkpt lat="4.9743357394" lon="-75.6560975499"><ele>1383.47</ele><time>2012-09-14T16:30:48Z</time></trkpt><trkpt lat="4.9742514174" lon="-75.6561510265"><ele>1383.47</ele><time>2012-09-14T16:31:01Z</time></trkpt><trkpt lat="4.9742138665" lon="-75.6561777648"><ele>1383.47</ele><time>2012-09-14T16:31:17Z</time></trkpt><trkpt lat="4.9741187319" lon="-75.6562523637"><ele>1382.99</ele><time>2012-09-14T16:31:37Z</time></trkpt><trkpt lat="4.9739919137" lon="-75.6563145574"><ele>1381.55</ele><time>2012-09-14T16:31:59Z</time></trkpt><trkpt lat="4.9739381857" lon="-75.6564161461"><ele>1379.15</ele><time>2012-09-14T16:32:23Z</time></trkpt><trkpt lat="4.9739533570" lon="-75.6564025674"><ele>1379.15</ele><time>2012-09-14T16:32:40Z</time></trkpt><trkpt lat="4.9739484116" lon="-75.6563993823"><ele>1379.15</ele><time>2012-09-14T16:33:07Z</time></trkpt><trkpt lat="4.9739513453" lon="-75.6564058363"><ele>1379.15</ele><time>2012-09-14T16:33:34Z</time></trkpt><trkpt lat="4.9739889801" lon="-75.6564189121"><ele>1379.63</ele><time>2012-09-14T16:33:56Z</time></trkpt><trkpt lat="4.9740903173" lon="-75.6565194950"><ele>1379.15</ele><time>2012-09-14T16:34:17Z</time></trkpt><trkpt lat="4.9741463922" lon="-75.6565653440"><ele>1379.63</ele><time>2012-09-14T16:34:37Z</time></trkpt><trkpt lat="4.9741789140" lon="-75.6566386018"><ele>1380.59</ele><time>2012-09-14T16:34:57Z</time></trkpt><trkpt lat="4.9742258526" lon="-75.6566494983"><ele>1380.59</ele><time>2012-09-14T16:35:12Z</time></trkpt><trkpt lat="4.9742846098" lon="-75.6566306390"><ele>1382.03</ele><time>2012-09-14T16:35:29Z</time></trkpt><trkpt lat="4.9743416067" lon="-75.6566018052"><ele>1382.03</ele><time>2012-09-14T16:35:56Z</time></trkpt><trkpt lat="4.9744790699" lon="-75.6565645058"><ele>1380.59</ele><time>2012-09-14T16:36:21Z</time></trkpt><trkpt lat="4.9744980130" lon="-75.6565559562"><ele>1378.67</ele><time>2012-09-14T16:36:50Z</time></trkpt><trkpt lat="4.9745350610" lon="-75.6565347500"><ele>1375.78</ele><time>2012-09-14T16:36:59Z</time></trkpt><trkpt lat="4.9746046308" lon="-75.6565251108"><ele>1381.55</ele><time>2012-09-14T16:37:14Z</time></trkpt><trkpt lat="4.9746481329" lon="-75.6564935111"><ele>1381.07</ele><time>2012-09-14T16:37:38Z</time></trkpt><trkpt lat="4.9746568501" lon="-75.6564896554"><ele>1381.07</ele><time>2012-09-14T16:38:08Z</time></trkpt><trkpt lat="4.9746565148" lon="-75.6564956065"><ele>1381.55</ele><time>2012-09-14T16:38:44Z</time></trkpt><trkpt lat="4.9747301918" lon="-75.6564485840"><ele>1381.07</ele><time>2012-09-14T16:39:13Z</time></trkpt><trkpt lat="4.9749377277" lon="-75.6563083548"><ele>1379.15</ele><time>2012-09-14T16:39:36Z</time></trkpt><trkpt lat="4.9751458503" lon="-75.6561770104"><ele>1379.15</ele><time>2012-09-14T16:39:58Z</time></trkpt><trkpt lat="4.9753276538" lon="-75.6560622621"><ele>1380.11</ele><time>2012-09-14T16:40:20Z</time></trkpt><trkpt lat="4.9754773546" lon="-75.6559491064"><ele>1380.11</ele><time>2012-09-14T16:40:40Z</time></trkpt><trkpt lat="4.9754850660" lon="-75.6559404731"><ele>1380.11</ele><time>2012-09-14T16:41:02Z</time></trkpt><trkpt lat="4.9754946213" lon="-75.6559374556"><ele>1379.63</ele><time>2012-09-14T16:41:24Z</time></trkpt><trkpt lat="4.9755009077" lon="-75.6559399702"><ele>1379.63</ele><time>2012-09-14T16:41:48Z</time></trkpt><trkpt lat="4.9755019136" lon="-75.6559454184"><ele>1380.11</ele><time>2012-09-14T16:42:18Z</time></trkpt><trkpt lat="4.9755015783" lon="-75.6559464242"><ele>1379.63</ele><time>2012-09-14T16:42:47Z</time></trkpt><trkpt lat="4.9755097087" lon="-75.6559149083"><ele>1379.63</ele><time>2012-09-14T16:43:16Z</time></trkpt><trkpt lat="4.9755448289" lon="-75.6558680534"><ele>1378.67</ele><time>2012-09-14T16:43:42Z</time></trkpt><trkpt lat="4.9755645264" lon="-75.6557999924"><ele>1377.71</ele><time>2012-09-14T16:44:08Z</time></trkpt><trkpt lat="4.9755871575" lon="-75.6557620224"><ele>1377.23</ele><time>2012-09-14T16:44:29Z</time></trkpt><trkpt lat="4.9756260496" lon="-75.6557958852"><ele>1378.19</ele><time>2012-09-14T16:44:57Z</time></trkpt><trkpt lat="4.9756145664" lon="-75.6557725836"><ele>1379.15</ele><time>2012-09-14T16:45:32Z</time></trkpt><trkpt lat="4.9756053463" lon="-75.6557636149"><ele>1378.67</ele><time>2012-09-14T16:46:05Z</time></trkpt><trkpt lat="4.9755631015" lon="-75.6557543110"><ele>1379.63</ele><time>2012-09-14T16:46:30Z</time></trkpt><trkpt lat="4.9755821284" lon="-75.6557588372"><ele>1378.19</ele><time>2012-09-14T16:46:50Z</time></trkpt><trkpt lat="4.9755892530" lon="-75.6557518803"><ele>1376.75</ele><time>2012-09-14T16:47:07Z</time></trkpt><trkpt lat="4.9756425619" lon="-75.6557366252"><ele>1373.86</ele><time>2012-09-14T16:47:27Z</time></trkpt><trkpt lat="4.9756476749" lon="-75.6557336915"><ele>1373.86</ele><time>2012-09-14T16:47:57Z</time></trkpt><trkpt lat="4.9756506924" lon="-75.6557260640"><ele>1373.38</ele><time>2012-09-14T16:48:23Z</time></trkpt><trkpt lat="4.9756651931" lon="-75.6557300035"><ele>1373.86</ele><time>2012-09-14T16:48:50Z</time></trkpt><trkpt lat="4.9756732397" lon="-75.6557308417"><ele>1373.86</ele><time>2012-09-14T16:49:23Z</time></trkpt><trkpt lat="4.9756809510" lon="-75.6557327695"><ele>1374.82</ele><time>2012-09-14T16:49:56Z</time></trkpt><trkpt lat="4.9756822921" lon="-75.6557295844"><ele>1374.82</ele><time>2012-09-14T16:50:25Z</time></trkpt><trkpt lat="4.9756791070" lon="-75.6557500362"><ele>1375.78</ele><time>2012-09-14T16:50:53Z</time></trkpt><trkpt lat="4.9756923504" lon="-75.6557504553"><ele>1376.26</ele><time>2012-09-14T16:51:15Z</time></trkpt><trkpt lat="4.9756950326" lon="-75.6557494495"><ele>1377.23</ele><time>2012-09-14T16:51:39Z</time></trkpt><trkpt lat="4.9756976310" lon="-75.6557440851"><ele>1378.19</ele><time>2012-09-14T16:52:07Z</time></trkpt><trkpt lat="4.9757063482" lon="-75.6557434145"><ele>1378.19</ele><time>2012-09-14T16:52:38Z</time></trkpt><trkpt lat="4.9757115450" lon="-75.6557399780"><ele>1378.19</ele><time>2012-09-14T16:53:02Z</time></trkpt><trkpt lat="4.9757065158" lon="-75.6557409838"><ele>1378.19</ele><time>2012-09-14T16:53:35Z</time></trkpt><trkpt lat="4.9757057615" lon="-75.6557506230"><ele>1378.67</ele><time>2012-09-14T16:54:06Z</time></trkpt><trkpt lat="4.9757010676" lon="-75.6557437498"><ele>1378.67</ele><time>2012-09-14T16:54:35Z</time></trkpt><trkpt lat="4.9756568111" lon="-75.6557590049"><ele>1378.19</ele><time>2012-09-14T16:55:00Z</time></trkpt><trkpt lat="4.9756589904" lon="-75.6557430793"><ele>1377.23</ele><time>2012-09-14T16:55:19Z</time></trkpt><trkpt lat="4.9758784287" lon="-75.6556703243"><ele>1370.50</ele><time>2012-09-14T16:55:40Z</time></trkpt><trkpt lat="4.9759342521" lon="-75.6556666363"><ele>1370.98</ele><time>2012-09-14T16:55:53Z</time></trkpt><trkpt lat="4.9759512674" lon="-75.6556752697"><ele>1373.38</ele><time>2012-09-14T16:56:06Z</time></trkpt><trkpt lat="4.9759538658" lon="-75.6556445081"><ele>1374.82</ele><time>2012-09-14T16:56:29Z</time></trkpt><trkpt lat="4.9759587273" lon="-75.6556015089"><ele>1375.78</ele><time>2012-09-14T16:56:49Z</time></trkpt><trkpt lat="4.9759510998" lon="-75.6555979885"><ele>1379.63</ele><time>2012-09-14T16:57:05Z</time></trkpt><trkpt lat="4.9759694561" lon="-75.6555987429"><ele>1380.11</ele><time>2012-09-14T16:57:29Z</time></trkpt><trkpt lat="4.9759683665" lon="-75.6555967312"><ele>1380.11</ele><time>2012-09-14T16:57:55Z</time></trkpt><trkpt lat="4.9759627506" lon="-75.6555959769"><ele>1380.59</ele><time>2012-09-14T16:58:20Z</time></trkpt><trkpt lat="4.9760730565" lon="-75.6555601023"><ele>1380.11</ele><time>2012-09-14T16:58:38Z</time></trkpt><trkpt lat="4.9762793351" lon="-75.6554932147"><ele>1379.63</ele><time>2012-09-14T16:59:01Z</time></trkpt><trkpt lat="4.9764182232" lon="-75.6554266624"><ele>1377.71</ele><time>2012-09-14T16:59:18Z</time></trkpt><trkpt lat="4.9764960911" lon="-75.6553820707"><ele>1377.71</ele><time>2012-09-14T16:59:37Z</time></trkpt><trkpt lat="4.9765045568" lon="-75.6553829927"><ele>1378.19</ele><time>2012-09-14T17:00:12Z</time></trkpt><trkpt lat="4.9764978513" lon="-75.6553849205"><ele>1378.19</ele><time>2012-09-14T17:00:39Z</time></trkpt><trkpt lat="4.9764996115" lon="-75.6553839985"><ele>1378.67</ele><time>2012-09-14T17:01:05Z</time></trkpt><trkpt lat="4.9765000306" lon="-75.6553835794"><ele>1378.67</ele><time>2012-09-14T17:01:33Z</time></trkpt><trkpt lat="4.9765003659" lon="-75.6553833280"><ele>1381.07</ele><time>2012-09-14T17:02:04Z</time></trkpt><trkpt lat="4.9765049759" lon="-75.6553872675"><ele>1381.55</ele><time>2012-09-14T17:02:27Z</time></trkpt><trkpt lat="4.9766454566" lon="-75.6553864293"><ele>1379.63</ele><time>2012-09-14T17:02:44Z</time></trkpt><trkpt lat="4.9768025335" lon="-75.6553768739"><ele>1377.71</ele><time>2012-09-14T17:03:02Z</time></trkpt><trkpt lat="4.9768428504" lon="-75.6553800590"><ele>1378.19</ele><time>2012-09-14T17:03:26Z</time></trkpt><trkpt lat="4.9769527372" lon="-75.6552956533"><ele>1377.71</ele><time>2012-09-14T17:03:41Z</time></trkpt><trkpt lat="4.9770058785" lon="-75.6551548373"><ele>1379.15</ele><time>2012-09-14T17:04:01Z</time></trkpt><trkpt lat="4.9772020150" lon="-75.6550499797"><ele>1378.19</ele><time>2012-09-14T17:04:23Z</time></trkpt><trkpt lat="4.9774015043" lon="-75.6551605370"><ele>1377.23</ele><time>2012-09-14T17:04:45Z</time></trkpt><trkpt lat="4.9774195254" lon="-75.6551735289"><ele>1377.71</ele><time>2012-09-14T17:04:47Z</time></trkpt><trkpt lat="4.9776188470" lon="-75.6552952342"><ele>1377.71</ele><time>2012-09-14T17:05:09Z</time></trkpt><trkpt lat="4.9777599983" lon="-75.6553853396"><ele>1376.26</ele><time>2012-09-14T17:05:25Z</time></trkpt><trkpt lat="4.9778655265" lon="-75.6554199569"><ele>1375.30</ele><time>2012-09-14T17:05:41Z</time></trkpt><trkpt lat="4.9778612517" lon="-75.6554179452"><ele>1375.30</ele><time>2012-09-14T17:06:01Z</time></trkpt><trkpt lat="4.9778613355" lon="-75.6554159336"><ele>1374.82</ele><time>2012-09-14T17:06:30Z</time></trkpt><trkpt lat="4.9778619222" lon="-75.6554140896"><ele>1374.82</ele><time>2012-09-14T17:06:59Z</time></trkpt><trkpt lat="4.9778610002" lon="-75.6554059591"><ele>1374.34</ele><time>2012-09-14T17:07:32Z</time></trkpt><trkpt lat="4.9778698850" lon="-75.6553762034"><ele>1373.86</ele><time>2012-09-14T17:07:57Z</time></trkpt><trkpt lat="4.9778662808" lon="-75.6554014329"><ele>1374.82</ele><time>2012-09-14T17:08:29Z</time></trkpt><trkpt lat="4.9778668676" lon="-75.6554064620"><ele>1374.34</ele><time>2012-09-14T17:08:58Z</time></trkpt><trkpt lat="4.9778874032" lon="-75.6553826574"><ele>1373.86</ele><time>2012-09-14T17:09:26Z</time></trkpt><trkpt lat="4.9779226072" lon="-75.6552986708"><ele>1372.42</ele><time>2012-09-14T17:09:46Z</time></trkpt><trkpt lat="4.9779767543" lon="-75.6552022789"><ele>1369.05</ele><time>2012-09-14T17:10:06Z</time></trkpt><trkpt lat="4.9780340865" lon="-75.6551410072"><ele>1364.25</ele><time>2012-09-14T17:10:29Z</time></trkpt><trkpt lat="4.9780545384" lon="-75.6551104970"><ele>1362.33</ele><time>2012-09-14T17:10:54Z</time></trkpt><trkpt lat="4.9780759960" lon="-75.6550907157"><ele>1361.36</ele><time>2012-09-14T17:11:11Z</time></trkpt><trkpt lat="4.9781300593" lon="-75.6550032087"><ele>1356.56</ele><time>2012-09-14T17:11:34Z</time></trkpt><trkpt lat="4.9781601503" lon="-75.6549961679"><ele>1355.12</ele><time>2012-09-14T17:11:41Z</time></trkpt><trkpt lat="4.9783489946" lon="-75.6549919769"><ele>1351.75</ele><time>2012-09-14T17:12:02Z</time></trkpt><trkpt lat="4.9783737212" lon="-75.6549814995"><ele>1351.27</ele><time>2012-09-14T17:12:17Z</time></trkpt><trkpt lat="4.9783688597" lon="-75.6549709383"><ele>1350.31</ele><time>2012-09-14T17:12:49Z</time></trkpt><trkpt lat="4.9783828575" lon="-75.6549509894"><ele>1350.31</ele><time>2012-09-14T17:13:15Z</time></trkpt><trkpt lat="4.9783826061" lon="-75.6549481396"><ele>1350.79</ele><time>2012-09-14T17:13:43Z</time></trkpt><trkpt lat="4.9783727992" lon="-75.6549398415"><ele>1351.75</ele><time>2012-09-14T17:14:05Z</time></trkpt><trkpt lat="4.9783847854" lon="-75.6549820025"><ele>1351.27</ele><time>2012-09-14T17:14:27Z</time></trkpt><trkpt lat="4.9783779960" lon="-75.6549776439"><ele>1351.27</ele><time>2012-09-14T17:14:57Z</time></trkpt><trkpt lat="4.9783772416" lon="-75.6549799908"><ele>1351.27</ele><time>2012-09-14T17:15:19Z</time></trkpt><trkpt lat="4.9783831928" lon="-75.6549784821"><ele>1351.27</ele><time>2012-09-14T17:15:52Z</time></trkpt><trkpt lat="4.9783810973" lon="-75.6549745426"><ele>1351.27</ele><time>2012-09-14T17:16:22Z</time></trkpt><trkpt lat="4.9783814326" lon="-75.6549783982"><ele>1351.75</ele><time>2012-09-14T17:16:59Z</time></trkpt><trkpt lat="4.9783801753" lon="-75.6549798232"><ele>1351.27</ele><time>2012-09-14T17:17:28Z</time></trkpt><trkpt lat="4.9783734698" lon="-75.6549836788"><ele>1351.75</ele><time>2012-09-14T17:18:09Z</time></trkpt><trkpt lat="4.9783405289" lon="-75.6549222395"><ele>1351.75</ele><time>2012-09-14T17:18:26Z</time></trkpt><trkpt lat="4.9783438817" lon="-75.6549089961"><ele>1351.75</ele><time>2012-09-14T17:18:45Z</time></trkpt><trkpt lat="4.9784127809" lon="-75.6548823416"><ele>1351.27</ele><time>2012-09-14T17:18:55Z</time></trkpt><trkpt lat="4.9784946721" lon="-75.6548360735"><ele>1352.23</ele><time>2012-09-14T17:19:09Z</time></trkpt><trkpt lat="4.9786046427" lon="-75.6547758076"><ele>1356.08</ele><time>2012-09-14T17:19:27Z</time></trkpt><trkpt lat="4.9786312133" lon="-75.6547867041"><ele>1356.56</ele><time>2012-09-14T17:19:45Z</time></trkpt><trkpt lat="4.9786349852" lon="-75.6547928229"><ele>1357.52</ele><time>2012-09-14T17:20:04Z</time></trkpt><trkpt lat="4.9787712749" lon="-75.6549698487"><ele>1358.96</ele><time>2012-09-14T17:20:25Z</time></trkpt><trkpt lat="4.9787733704" lon="-75.6549954135"><ele>1359.92</ele><time>2012-09-14T17:20:47Z</time></trkpt><trkpt lat="4.9787730351" lon="-75.6549575273"><ele>1359.92</ele><time>2012-09-14T17:21:11Z</time></trkpt><trkpt lat="4.9787641503" lon="-75.6549882051"><ele>1360.88</ele><time>2012-09-14T17:21:37Z</time></trkpt><trkpt lat="4.9787581991" lon="-75.6549933180"><ele>1359.92</ele><time>2012-09-14T17:22:13Z</time></trkpt><trkpt lat="4.9787538406" lon="-75.6549846847"><ele>1363.29</ele><time>2012-09-14T17:22:38Z</time></trkpt><trkpt lat="4.9787626415" lon="-75.6549866963"><ele>1362.33</ele><time>2012-09-14T17:22:52Z</time></trkpt><trkpt lat="4.9787580315" lon="-75.6549770571"><ele>1361.84</ele><time>2012-09-14T17:23:31Z</time></trkpt><trkpt lat="4.9787621386" lon="-75.6549714413"><ele>1362.81</ele><time>2012-09-14T17:23:46Z</time></trkpt><trkpt lat="4.9787637312" lon="-75.6549681723"><ele>1364.73</ele><time>2012-09-14T17:24:12Z</time></trkpt><trkpt lat="4.9787631445" lon="-75.6549692620"><ele>1364.73</ele><time>2012-09-14T17:24:39Z</time></trkpt><trkpt lat="4.9787616357" lon="-75.6549713574"><ele>1364.25</ele><time>2012-09-14T17:25:06Z</time></trkpt><trkpt lat="4.9787604623" lon="-75.6549722794"><ele>1364.73</ele><time>2012-09-14T17:25:36Z</time></trkpt><trkpt lat="4.9787554331" lon="-75.6549734529"><ele>1364.73</ele><time>2012-09-14T17:26:10Z</time></trkpt><trkpt lat="4.9787692633" lon="-75.6549775600"><ele>1364.73</ele><time>2012-09-14T17:26:37Z</time></trkpt><trkpt lat="4.9788170401" lon="-75.6550014485"><ele>1364.25</ele><time>2012-09-14T17:27:01Z</time></trkpt><trkpt lat="4.9789540842" lon="-75.6550317910"><ele>1364.73</ele><time>2012-09-14T17:27:16Z</time></trkpt><trkpt lat="4.9790482130" lon="-75.6550916377"><ele>1365.69</ele><time>2012-09-14T17:27:33Z</time></trkpt><trkpt lat="4.9790920503" lon="-75.6551177893"><ele>1365.69</ele><time>2012-09-14T17:27:54Z</time></trkpt><trkpt lat="4.9791021086" lon="-75.6551101618"><ele>1365.69</ele><time>2012-09-14T17:28:23Z</time></trkpt><trkpt lat="4.9791036174" lon="-75.6551104970"><ele>1365.21</ele><time>2012-09-14T17:28:55Z</time></trkpt><trkpt lat="4.9791197944" lon="-75.6551037077"><ele>1365.21</ele><time>2012-09-14T17:29:16Z</time></trkpt><trkpt lat="4.9791178666" lon="-75.6551004387"><ele>1365.21</ele><time>2012-09-14T17:29:36Z</time></trkpt><trkpt lat="4.9791307747" lon="-75.6551388279"><ele>1364.73</ele><time>2012-09-14T17:30:00Z</time></trkpt><trkpt lat="4.9791775458" lon="-75.6552874390"><ele>1365.21</ele><time>2012-09-14T17:30:17Z</time></trkpt><trkpt lat="4.9791129213" lon="-75.6554145925"><ele>1362.81</ele><time>2012-09-14T17:30:36Z</time></trkpt><trkpt lat="4.9790586904" lon="-75.6554461922"><ele>1359.44</ele><time>2012-09-14T17:30:53Z</time></trkpt><trkpt lat="4.9790444411" lon="-75.6554821506"><ele>1358.48</ele><time>2012-09-14T17:31:14Z</time></trkpt><trkpt lat="4.9791850895" lon="-75.6556678936"><ele>1349.83</ele><time>2012-09-14T17:31:33Z</time></trkpt><trkpt lat="4.9791955668" lon="-75.6558094639"><ele>1345.50</ele><time>2012-09-14T17:31:55Z</time></trkpt><trkpt lat="4.9791527353" lon="-75.6558592524"><ele>1342.62</ele><time>2012-09-14T17:32:10Z</time></trkpt><trkpt lat="4.9791426770" lon="-75.6559418142"><ele>1344.06</ele><time>2012-09-14T17:32:34Z</time></trkpt><trkpt lat="4.9791495502" lon="-75.6560392119"><ele>1347.43</ele><time>2012-09-14T17:32:51Z</time></trkpt><trkpt lat="4.9791791383" lon="-75.6560981367"><ele>1351.75</ele><time>2012-09-14T17:33:08Z</time></trkpt><trkpt lat="4.9792025238" lon="-75.6561641023"><ele>1355.12</ele><time>2012-09-14T17:33:26Z</time></trkpt><trkpt lat="4.9792035297" lon="-75.6561694667"><ele>1357.52</ele><time>2012-09-14T17:33:45Z</time></trkpt><trkpt lat="4.9792233948" lon="-75.6561983004"><ele>1358.00</ele><time>2012-09-14T17:34:05Z</time></trkpt><trkpt lat="4.9792391527" lon="-75.6562224403"><ele>1358.00</ele><time>2012-09-14T17:34:26Z</time></trkpt><trkpt lat="4.9792864267" lon="-75.6562312413"><ele>1357.52</ele><time>2012-09-14T17:35:06Z</time></trkpt><trkpt lat="4.9793760292" lon="-75.6562342588"><ele>1357.04</ele><time>2012-09-14T17:35:16Z</time></trkpt><trkpt lat="4.9795250595" lon="-75.6562730670"><ele>1355.60</ele><time>2012-09-14T17:35:34Z</time></trkpt><trkpt lat="4.9795579165" lon="-75.6562796049"><ele>1354.63</ele><time>2012-09-14T17:35:38Z</time></trkpt><trkpt lat="4.9796073698" lon="-75.6562848017"><ele>1353.67</ele><time>2012-09-14T17:35:55Z</time></trkpt><trkpt lat="4.9796858244" lon="-75.6562889088"><ele>1354.15</ele><time>2012-09-14T17:36:16Z</time></trkpt><trkpt lat="4.9797949567" lon="-75.6563087739"><ele>1354.15</ele><time>2012-09-14T17:36:33Z</time></trkpt><trkpt lat="4.9799680430" lon="-75.6563313212"><ele>1354.15</ele><time>2012-09-14T17:36:52Z</time></trkpt><trkpt lat="4.9801148102" lon="-75.6563562993"><ele>1353.67</ele><time>2012-09-14T17:37:09Z</time></trkpt><trkpt lat="4.9802516028" lon="-75.6563805230"><ele>1353.19</ele><time>2012-09-14T17:37:26Z</time></trkpt><trkpt lat="4.9803835340" lon="-75.6564100273"><ele>1352.71</ele><time>2012-09-14T17:37:42Z</time></trkpt><trkpt lat="4.9805328995" lon="-75.6564303953"><ele>1352.71</ele><time>2012-09-14T17:38:00Z</time></trkpt><trkpt lat="4.9806824327" lon="-75.6564480811"><ele>1354.63</ele><time>2012-09-14T17:38:17Z</time></trkpt><trkpt lat="4.9808007013" lon="-75.6564650126"><ele>1353.19</ele><time>2012-09-14T17:38:34Z</time></trkpt><trkpt lat="4.9809007812" lon="-75.6565086823"><ele>1351.75</ele><time>2012-09-14T17:38:50Z</time></trkpt><trkpt lat="4.9809486419" lon="-75.6566083431"><ele>1350.79</ele><time>2012-09-14T17:39:06Z</time></trkpt><trkpt lat="4.9809534196" lon="-75.6566142105"><ele>1354.15</ele><time>2012-09-14T17:39:27Z</time></trkpt><trkpt lat="4.9809928145" lon="-75.6566871330"><ele>1353.67</ele><time>2012-09-14T17:39:41Z</time></trkpt><trkpt lat="4.9810334668" lon="-75.6567884702"><ele>1352.23</ele><time>2012-09-14T17:39:59Z</time></trkpt><trkpt lat="4.9810757954" lon="-75.6568728760"><ele>1351.27</ele><time>2012-09-14T17:40:15Z</time></trkpt><trkpt lat="4.9811155256" lon="-75.6569878757"><ele>1346.94</ele><time>2012-09-14T17:40:31Z</time></trkpt><trkpt lat="4.9811457843" lon="-75.6570604630"><ele>1343.10</ele><time>2012-09-14T17:40:46Z</time></trkpt><trkpt lat="4.9811726063" lon="-75.6571206450"><ele>1340.70</ele><time>2012-09-14T17:41:04Z</time></trkpt><trkpt lat="4.9811832514" lon="-75.6571564358"><ele>1339.73</ele><time>2012-09-14T17:41:24Z</time></trkpt><trkpt lat="4.9811965786" lon="-75.6571920589"><ele>1339.25</ele><time>2012-09-14T17:41:46Z</time></trkpt><trkpt lat="4.9812066369" lon="-75.6572066434"><ele>1338.77</ele><time>2012-09-14T17:42:09Z</time></trkpt><trkpt lat="4.9812112469" lon="-75.6572180428"><ele>1337.81</ele><time>2012-09-14T17:42:31Z</time></trkpt><trkpt lat="4.9812003504" lon="-75.6572513189"><ele>1336.85</ele><time>2012-09-14T17:42:52Z</time></trkpt><trkpt lat="4.9812414218" lon="-75.6573006045"><ele>1334.93</ele><time>2012-09-14T17:43:12Z</time></trkpt><trkpt lat="4.9812551681" lon="-75.6573091540"><ele>1334.93</ele><time>2012-09-14T17:43:36Z</time></trkpt><trkpt lat="4.9811542500" lon="-75.6573085673"><ele>1335.41</ele><time>2012-09-14T17:44:06Z</time></trkpt><trkpt lat="4.9812470376" lon="-75.6574068870"><ele>1334.93</ele><time>2012-09-14T17:44:24Z</time></trkpt><trkpt lat="4.9812942278" lon="-75.6573668215"><ele>1334.45</ele><time>2012-09-14T17:44:47Z</time></trkpt><trkpt lat="4.9813974090" lon="-75.6574383192"><ele>1332.04</ele><time>2012-09-14T17:45:12Z</time></trkpt><trkpt lat="4.9814580940" lon="-75.6575207133"><ele>1332.52</ele><time>2012-09-14T17:45:36Z</time></trkpt><trkpt lat="4.9814481195" lon="-75.6575244013"><ele>1333.01</ele><time>2012-09-14T17:46:01Z</time></trkpt><trkpt lat="4.9814589322" lon="-75.6575261615"><ele>1332.04</ele><time>2012-09-14T17:46:25Z</time></trkpt><trkpt lat="4.9814625364" lon="-75.6575292628"><ele>1330.60</ele><time>2012-09-14T17:46:48Z</time></trkpt><trkpt lat="4.9814628717" lon="-75.6575348787"><ele>1329.64</ele><time>2012-09-14T17:47:12Z</time></trkpt><trkpt lat="4.9814629555" lon="-75.6575344596"><ele>1329.64</ele><time>2012-09-14T17:47:39Z</time></trkpt><trkpt lat="4.9814852513" lon="-75.6575181149"><ele>1329.16</ele><time>2012-09-14T17:47:58Z</time></trkpt><trkpt lat="4.9814772885" lon="-75.6575211324"><ele>1328.68</ele><time>2012-09-14T17:48:19Z</time></trkpt><trkpt lat="4.9814927951" lon="-75.6575231440"><ele>1328.68</ele><time>2012-09-14T17:48:46Z</time></trkpt><trkpt lat="4.9814998358" lon="-75.6575135887"><ele>1328.68</ele><time>2012-09-14T17:49:19Z</time></trkpt><trkpt lat="4.9814998358" lon="-75.6575124152"><ele>1329.16</ele><time>2012-09-14T17:49:53Z</time></trkpt><trkpt lat="4.9814935494" lon="-75.6575071346"><ele>1328.68</ele><time>2012-09-14T17:50:38Z</time></trkpt><trkpt lat="4.9815282505" lon="-75.6575054582"><ele>1328.68</ele><time>2012-09-14T17:51:02Z</time></trkpt><trkpt lat="4.9814626202" lon="-75.6575204618"><ele>1329.64</ele><time>2012-09-14T17:51:28Z</time></trkpt><trkpt lat="4.9814946391" lon="-75.6575205456"><ele>1329.64</ele><time>2012-09-14T17:51:56Z</time></trkpt><trkpt lat="4.9814888556" lon="-75.6575233117"><ele>1330.60</ele><time>2012-09-14T17:52:29Z</time></trkpt><trkpt lat="4.9814953934" lon="-75.6575215515"><ele>1331.56</ele><time>2012-09-14T17:53:13Z</time></trkpt><trkpt lat="4.9814914539" lon="-75.6575189531"><ele>1330.12</ele><time>2012-09-14T17:53:50Z</time></trkpt><trkpt lat="4.9814905319" lon="-75.6575187854"><ele>1328.68</ele><time>2012-09-14T17:54:26Z</time></trkpt><trkpt lat="4.9814905319" lon="-75.6575146783"><ele>1329.16</ele><time>2012-09-14T17:55:04Z</time></trkpt><trkpt lat="4.9814886879" lon="-75.6575164385"><ele>1328.68</ele><time>2012-09-14T17:55:41Z</time></trkpt><trkpt lat="4.9814900290" lon="-75.6575178634"><ele>1329.64</ele><time>2012-09-14T17:56:02Z</time></trkpt><trkpt lat="4.9814866763" lon="-75.6575215515"><ele>1330.12</ele><time>2012-09-14T17:56:31Z</time></trkpt><trkpt lat="4.9814891908" lon="-75.6575210486"><ele>1330.12</ele><time>2012-09-14T17:57:05Z</time></trkpt><trkpt lat="4.9814898614" lon="-75.6575235631"><ele>1330.12</ele><time>2012-09-14T17:57:38Z</time></trkpt><trkpt lat="4.9814917054" lon="-75.6575248204"><ele>1329.64</ele><time>2012-09-14T17:58:15Z</time></trkpt><trkpt lat="4.9814962316" lon="-75.6575228926"><ele>1330.60</ele><time>2012-09-14T17:58:46Z</time></trkpt><trkpt lat="4.9815031048" lon="-75.6575196236"><ele>1330.60</ele><time>2012-09-14T17:59:22Z</time></trkpt><trkpt lat="4.9814906158" lon="-75.6575233117"><ele>1330.60</ele><time>2012-09-14T17:59:53Z</time></trkpt><trkpt lat="4.9814656377" lon="-75.6575264130"><ele>1330.12</ele><time>2012-09-14T18:00:27Z</time></trkpt><trkpt lat="4.9814647995" lon="-75.6575290114"><ele>1329.64</ele><time>2012-09-14T18:00:58Z</time></trkpt><trkpt lat="4.9814666435" lon="-75.6575298496"><ele>1329.64</ele><time>2012-09-14T18:01:21Z</time></trkpt><trkpt lat="4.9814700801" lon="-75.6575303525"><ele>1329.64</ele><time>2012-09-14T18:01:55Z</time></trkpt><trkpt lat="4.9814672302" lon="-75.6575340405"><ele>1329.64</ele><time>2012-09-14T18:02:25Z</time></trkpt><trkpt lat="4.9814634584" lon="-75.6575372256"><ele>1329.64</ele><time>2012-09-14T18:03:06Z</time></trkpt><trkpt lat="4.9814590160" lon="-75.6575373933"><ele>1328.68</ele><time>2012-09-14T18:03:43Z</time></trkpt><trkpt lat="4.9814549927" lon="-75.6575383991"><ele>1328.20</ele><time>2012-09-14T18:04:22Z</time></trkpt><trkpt lat="4.9814553279" lon="-75.6575425901"><ele>1327.72</ele><time>2012-09-14T18:05:03Z</time></trkpt><trkpt lat="4.9814559147" lon="-75.6575428415"><ele>1327.72</ele><time>2012-09-14T18:05:45Z</time></trkpt><trkpt lat="4.9814548250" lon="-75.6575411651"><ele>1327.24</ele><time>2012-09-14T18:06:28Z</time></trkpt><trkpt lat="4.9814553279" lon="-75.6575367227"><ele>1327.24</ele><time>2012-09-14T18:07:05Z</time></trkpt><trkpt lat="4.9814559147" lon="-75.6575368904"><ele>1327.24</ele><time>2012-09-14T18:07:34Z</time></trkpt><trkpt lat="4.9814587645" lon="-75.6575372256"><ele>1326.76</ele><time>2012-09-14T18:08:05Z</time></trkpt><trkpt lat="4.9814661406" lon="-75.6575517263"><ele>1326.28</ele><time>2012-09-14T18:08:50Z</time></trkpt><trkpt lat="4.9814150948" lon="-75.6575554144"><ele>1325.80</ele><time>2012-09-14T18:09:15Z</time></trkpt><trkpt lat="4.9813274201" lon="-75.6575423386"><ele>1326.28</ele><time>2012-09-14T18:09:36Z</time></trkpt><trkpt lat="4.9813234806" lon="-75.6576016825"><ele>1326.28</ele><time>2012-09-14T18:09:52Z</time></trkpt><trkpt lat="4.9812988378" lon="-75.6577349547"><ele>1324.83</ele><time>2012-09-14T18:10:12Z</time></trkpt><trkpt lat="4.9812441040" lon="-75.6577119045"><ele>1327.72</ele><time>2012-09-14T18:10:28Z</time></trkpt><trkpt lat="4.9812205508" lon="-75.6576416641"><ele>1334.45</ele><time>2012-09-14T18:10:45Z</time></trkpt><trkpt lat="4.9811215606" lon="-75.6575931329"><ele>1338.77</ele><time>2012-09-14T18:11:02Z</time></trkpt><trkpt lat="4.9810113385" lon="-75.6575570069"><ele>1341.66</ele><time>2012-09-14T18:11:17Z</time></trkpt><trkpt lat="4.9808742106" lon="-75.6575150974"><ele>1342.62</ele><time>2012-09-14T18:11:35Z</time></trkpt><trkpt lat="4.9808212370" lon="-75.6574953161"><ele>1343.10</ele><time>2012-09-14T18:11:47Z</time></trkpt><trkpt lat="4.9808064010" lon="-75.6574935559"><ele>1343.10</ele><time>2012-09-14T18:12:08Z</time></trkpt><trkpt lat="4.9808059819" lon="-75.6574592739"><ele>1344.06</ele><time>2012-09-14T18:12:43Z</time></trkpt><trkpt lat="4.9808211531" lon="-75.6574762892"><ele>1343.58</ele><time>2012-09-14T18:13:07Z</time></trkpt><trkpt lat="4.9808596261" lon="-75.6574978307"><ele>1342.62</ele><time>2012-09-14T18:13:29Z</time></trkpt><trkpt lat="4.9808627274" lon="-75.6575027760"><ele>1342.62</ele><time>2012-09-14T18:13:57Z</time></trkpt><trkpt lat="4.9808651581" lon="-75.6575042009"><ele>1342.62</ele><time>2012-09-14T18:14:27Z</time></trkpt><trkpt lat="4.9808676727" lon="-75.6575078052"><ele>1342.62</ele><time>2012-09-14T18:14:56Z</time></trkpt><trkpt lat="4.9808639847" lon="-75.6575104874"><ele>1342.14</ele><time>2012-09-14T18:15:20Z</time></trkpt><trkpt lat="4.9808644876" lon="-75.6575096492"><ele>1342.14</ele><time>2012-09-14T18:15:51Z</time></trkpt><trkpt lat="4.9809001107" lon="-75.6575166062"><ele>1341.18</ele><time>2012-09-14T18:16:11Z</time></trkpt><trkpt lat="4.9810301140" lon="-75.6575448532"><ele>1338.77</ele><time>2012-09-14T18:16:31Z</time></trkpt><trkpt lat="4.9812408350" lon="-75.6576479506"><ele>1336.37</ele><time>2012-09-14T18:16:56Z</time></trkpt><trkpt lat="4.9812518992" lon="-75.6576482859"><ele>1336.37</ele><time>2012-09-14T18:17:23Z</time></trkpt><trkpt lat="4.9812848400" lon="-75.6577222142"><ele>1334.45</ele><time>2012-09-14T18:17:45Z</time></trkpt><trkpt lat="4.9813409988" lon="-75.6576792151"><ele>1332.04</ele><time>2012-09-14T18:18:04Z</time></trkpt><trkpt lat="4.9813630432" lon="-75.6575760338"><ele>1328.20</ele><time>2012-09-14T18:18:26Z</time></trkpt><trkpt lat="4.9813885242" lon="-75.6575408299"><ele>1327.24</ele><time>2012-09-14T18:18:49Z</time></trkpt><trkpt lat="4.9815425836" lon="-75.6575699151"><ele>1322.91</ele><time>2012-09-14T18:19:10Z</time></trkpt><trkpt lat="4.9815481994" lon="-75.6577881798"><ele>1322.43</ele><time>2012-09-14T18:19:35Z</time></trkpt><trkpt lat="4.9815721717" lon="-75.6579407305"><ele>1320.99</ele><time>2012-09-14T18:19:53Z</time></trkpt><trkpt lat="4.9815134145" lon="-75.6580469292"><ele>1321.47</ele><time>2012-09-14T18:20:11Z</time></trkpt><trkpt lat="4.9815026857" lon="-75.6580617651"><ele>1320.99</ele><time>2012-09-14T18:20:39Z</time></trkpt><trkpt lat="4.9815095589" lon="-75.6580692250"><ele>1320.51</ele><time>2012-09-14T18:21:11Z</time></trkpt><trkpt lat="4.9815097265" lon="-75.6580781937"><ele>1320.99</ele><time>2012-09-14T18:21:36Z</time></trkpt><trkpt lat="4.9815109000" lon="-75.6580848992"><ele>1320.99</ele><time>2012-09-14T18:22:04Z</time></trkpt><trkpt lat="4.9815201201" lon="-75.6580703147"><ele>1320.99</ele><time>2012-09-14T18:22:28Z</time></trkpt><trkpt lat="4.9814627040" lon="-75.6581921037"><ele>1324.35</ele><time>2012-09-14T18:22:47Z</time></trkpt><trkpt lat="4.9814633746" lon="-75.6581854820"><ele>1325.31</ele><time>2012-09-14T18:23:18Z</time></trkpt><trkpt lat="4.9814665597" lon="-75.6581840571"><ele>1325.80</ele><time>2012-09-14T18:23:47Z</time></trkpt><trkpt lat="4.9814663082" lon="-75.6581834704"><ele>1327.24</ele><time>2012-09-14T18:24:09Z</time></trkpt><trkpt lat="4.9814611115" lon="-75.6581802014"><ele>1327.72</ele><time>2012-09-14T18:24:41Z</time></trkpt><trkpt lat="4.9814565014" lon="-75.6581779383"><ele>1328.68</ele><time>2012-09-14T18:25:05Z</time></trkpt><trkpt lat="4.9814502150" lon="-75.6581814587"><ele>1329.16</ele><time>2012-09-14T18:25:33Z</time></trkpt><trkpt lat="4.9814160168" lon="-75.6582169980"><ele>1331.56</ele><time>2012-09-14T18:25:51Z</time></trkpt><trkpt lat="4.9813603610" lon="-75.6582356058"><ele>1333.01</ele><time>2012-09-14T18:26:04Z</time></trkpt><trkpt lat="4.9813466147" lon="-75.6582433172"><ele>1333.01</ele><time>2012-09-14T18:26:23Z</time></trkpt><trkpt lat="4.9812899530" lon="-75.6582787726"><ele>1336.37</ele><time>2012-09-14T18:26:39Z</time></trkpt><trkpt lat="4.9812680762" lon="-75.6583255436"><ele>1338.29</ele><time>2012-09-14T18:26:58Z</time></trkpt><trkpt lat="4.9812619574" lon="-75.6583527848"><ele>1337.81</ele><time>2012-09-14T18:27:24Z</time></trkpt><trkpt lat="4.9812566768" lon="-75.6583632622"><ele>1337.81</ele><time>2012-09-14T18:27:46Z</time></trkpt><trkpt lat="4.9812529888" lon="-75.6583633460"><ele>1337.33</ele><time>2012-09-14T18:28:06Z</time></trkpt><trkpt lat="4.9812529050" lon="-75.6583623402"><ele>1337.33</ele><time>2012-09-14T18:28:34Z</time></trkpt><trkpt lat="4.9812537432" lon="-75.6583625078"><ele>1337.33</ele><time>2012-09-14T18:29:01Z</time></trkpt><trkpt lat="4.9812663998" lon="-75.6583502702"><ele>1337.33</ele><time>2012-09-14T18:29:33Z</time></trkpt><trkpt lat="4.9812471215" lon="-75.6583558023"><ele>1336.37</ele><time>2012-09-14T18:30:00Z</time></trkpt><trkpt lat="4.9812580179" lon="-75.6583499350"><ele>1336.85</ele><time>2012-09-14T18:30:34Z</time></trkpt><trkpt lat="4.9812485464" lon="-75.6583474204"><ele>1335.89</ele><time>2012-09-14T18:31:14Z</time></trkpt><trkpt lat="4.9812472053" lon="-75.6583475042"><ele>1335.41</ele><time>2012-09-14T18:31:48Z</time></trkpt><trkpt lat="4.9812520668" lon="-75.6583479233"><ele>1335.89</ele><time>2012-09-14T18:32:24Z</time></trkpt><trkpt lat="4.9812529888" lon="-75.6583471689"><ele>1335.89</ele><time>2012-09-14T18:32:54Z</time></trkpt><trkpt lat="4.9812275916" lon="-75.6583366077"><ele>1334.93</ele><time>2012-09-14T18:33:25Z</time></trkpt><trkpt lat="4.9812450260" lon="-75.6583283097"><ele>1334.45</ele><time>2012-09-14T18:33:55Z</time></trkpt><trkpt lat="4.9812597781" lon="-75.6583338417"><ele>1333.97</ele><time>2012-09-14T18:34:28Z</time></trkpt><trkpt lat="4.9812715128" lon="-75.6583914254"><ele>1334.93</ele><time>2012-09-14T18:34:58Z</time></trkpt><trkpt lat="4.9813172780" lon="-75.6584190857"><ele>1336.37</ele><time>2012-09-14T18:35:14Z</time></trkpt><trkpt lat="4.9814009294" lon="-75.6583920121"><ele>1336.37</ele><time>2012-09-14T18:35:33Z</time></trkpt><trkpt lat="4.9813961517" lon="-75.6583905034"><ele>1338.29</ele><time>2012-09-14T18:35:50Z</time></trkpt><trkpt lat="4.9813959841" lon="-75.6583900005"><ele>1337.81</ele><time>2012-09-14T18:36:18Z</time></trkpt><trkpt lat="4.9814098980" lon="-75.6584241148"><ele>1338.29</ele><time>2012-09-14T18:36:34Z</time></trkpt><trkpt lat="4.9814489577" lon="-75.6584801897"><ele>1341.66</ele><time>2012-09-14T18:36:55Z</time></trkpt><trkpt lat="4.9815238919" lon="-75.6585302297"><ele>1345.02</ele><time>2012-09-14T18:37:13Z</time></trkpt><trkpt lat="4.9815654662" lon="-75.6585562136"><ele>1347.43</ele><time>2012-09-14T18:37:37Z</time></trkpt><trkpt lat="4.9816969782" lon="-75.6587266177"><ele>1347.43</ele><time>2012-09-14T18:38:00Z</time></trkpt><trkpt lat="4.9818185996" lon="-75.6589051522"><ele>1346.46</ele><time>2012-09-14T18:38:25Z</time></trkpt><trkpt lat="4.9818209466" lon="-75.6589178089"><ele>1346.46</ele><time>2012-09-14T18:38:52Z</time></trkpt><trkpt lat="4.9818129838" lon="-75.6589028891"><ele>1346.46</ele><time>2012-09-14T18:39:21Z</time></trkpt><trkpt lat="4.9818026740" lon="-75.6589039788"><ele>1346.94</ele><time>2012-09-14T18:39:55Z</time></trkpt><trkpt lat="4.9817904364" lon="-75.6589126121"><ele>1346.94</ele><time>2012-09-14T18:40:28Z</time></trkpt><trkpt lat="4.9817750975" lon="-75.6589093432"><ele>1346.46</ele><time>2012-09-14T18:41:04Z</time></trkpt><trkpt lat="4.9817719124" lon="-75.6589084212"><ele>1346.94</ele><time>2012-09-14T18:41:35Z</time></trkpt><trkpt lat="4.9817761872" lon="-75.6589109357"><ele>1347.43</ele><time>2012-09-14T18:42:12Z</time></trkpt><trkpt lat="4.9818082899" lon="-75.6589284539"><ele>1347.91</ele><time>2012-09-14T18:42:43Z</time></trkpt><trkpt lat="4.9817973934" lon="-75.6589247659"><ele>1348.87</ele><time>2012-09-14T18:43:12Z</time></trkpt><trkpt lat="4.9818557315" lon="-75.6590000354"><ele>1350.31</ele><time>2012-09-14T18:43:30Z</time></trkpt><trkpt lat="4.9818985630" lon="-75.6590938289"><ele>1348.87</ele><time>2012-09-14T18:43:51Z</time></trkpt><trkpt lat="4.9819284864" lon="-75.6591331400"><ele>1347.43</ele><time>2012-09-14T18:44:12Z</time></trkpt><trkpt lat="4.9820454977" lon="-75.6591006182"><ele>1343.58</ele><time>2012-09-14T18:44:33Z</time></trkpt><trkpt lat="4.9820091203" lon="-75.6591353193"><ele>1343.10</ele><time>2012-09-14T18:44:51Z</time></trkpt><trkpt lat="4.9819866568" lon="-75.6591335591"><ele>1344.06</ele><time>2012-09-14T18:45:12Z</time></trkpt><trkpt lat="4.9819372874" lon="-75.6591770612"><ele>1343.10</ele><time>2012-09-14T18:45:32Z</time></trkpt><trkpt lat="4.9819144886" lon="-75.6591923162"><ele>1343.10</ele><time>2012-09-14T18:45:57Z</time></trkpt><trkpt lat="4.9819112197" lon="-75.6592269335"><ele>1342.62</ele><time>2012-09-14T18:46:25Z</time></trkpt><trkpt lat="4.9819159973" lon="-75.6592752133"><ele>1340.70</ele><time>2012-09-14T18:46:42Z</time></trkpt><trkpt lat="4.9819238763" lon="-75.6592830922"><ele>1339.73</ele><time>2012-09-14T18:47:01Z</time></trkpt><trkpt lat="4.9819220323" lon="-75.6592917256"><ele>1340.22</ele><time>2012-09-14T18:47:24Z</time></trkpt><trkpt lat="4.9818932824" lon="-75.6593311206"><ele>1338.29</ele><time>2012-09-14T18:47:42Z</time></trkpt><trkpt lat="4.9818568211" lon="-75.6593612954"><ele>1335.89</ele><time>2012-09-14T18:48:01Z</time></trkpt><trkpt lat="4.9818525463" lon="-75.6593737006"><ele>1335.41</ele><time>2012-09-14T18:48:19Z</time></trkpt><trkpt lat="4.9818426557" lon="-75.6593947392"><ele>1333.49</ele><time>2012-09-14T18:48:44Z</time></trkpt><trkpt lat="4.9818357825" lon="-75.6593902968"><ele>1332.04</ele><time>2012-09-14T18:49:04Z</time></trkpt><trkpt lat="4.9818433262" lon="-75.6593961641"><ele>1331.56</ele><time>2012-09-14T18:49:15Z</time></trkpt><trkpt lat="4.9818423204" lon="-75.6594059709"><ele>1331.08</ele><time>2012-09-14T18:49:40Z</time></trkpt><trkpt lat="4.9818367045" lon="-75.6594163645"><ele>1331.08</ele><time>2012-09-14T18:50:06Z</time></trkpt><trkpt lat="4.9818036798" lon="-75.6595065538"><ele>1331.08</ele><time>2012-09-14T18:50:29Z</time></trkpt><trkpt lat="4.9818306696" lon="-75.6594741996"><ele>1329.16</ele><time>2012-09-14T18:51:18Z</time></trkpt><trkpt lat="4.9818071164" lon="-75.6594216451"><ele>1328.68</ele><time>2012-09-14T18:51:35Z</time></trkpt><trkpt lat="4.9818068650" lon="-75.6594327930"><ele>1328.20</ele><time>2012-09-14T18:52:07Z</time></trkpt><trkpt lat="4.9817981478" lon="-75.6594264228"><ele>1328.20</ele><time>2012-09-14T18:52:31Z</time></trkpt><trkpt lat="4.9817639496" lon="-75.6593724433"><ele>1328.20</ele><time>2012-09-14T18:52:56Z</time></trkpt><trkpt lat="4.9817423243" lon="-75.6593256723"><ele>1328.68</ele><time>2012-09-14T18:53:21Z</time></trkpt><trkpt lat="4.9817821383" lon="-75.6593801547"><ele>1328.20</ele><time>2012-09-14T18:53:48Z</time></trkpt><trkpt lat="4.9817853235" lon="-75.6594148558"><ele>1328.68</ele><time>2012-09-14T18:54:22Z</time></trkpt><trkpt lat="4.9817917775" lon="-75.6594137661"><ele>1329.16</ele><time>2012-09-14T18:54:49Z</time></trkpt><trkpt lat="4.9818766024" lon="-75.6594379898"><ele>1329.16</ele><time>2012-09-14T18:55:06Z</time></trkpt><trkpt lat="4.9819156621" lon="-75.6594493054"><ele>1330.12</ele><time>2012-09-14T18:55:28Z</time></trkpt><trkpt lat="4.9819207750" lon="-75.6594421808"><ele>1330.12</ele><time>2012-09-14T18:55:50Z</time></trkpt><trkpt lat="4.9819692224" lon="-75.6594231538"><ele>1328.20</ele><time>2012-09-14T18:56:14Z</time></trkpt><trkpt lat="4.9819624331" lon="-75.6594591122"><ele>1329.16</ele><time>2012-09-14T18:56:40Z</time></trkpt><trkpt lat="4.9819708150" lon="-75.6595083140"><ele>1331.08</ele><time>2012-09-14T18:57:03Z</time></trkpt><trkpt lat="4.9819697253" lon="-75.6594918016"><ele>1332.04</ele><time>2012-09-14T18:57:22Z</time></trkpt><trkpt lat="4.9819455016" lon="-75.6594944000"><ele>1334.45</ele><time>2012-09-14T18:57:42Z</time></trkpt><trkpt lat="4.9819415621" lon="-75.6595150195"><ele>1335.41</ele><time>2012-09-14T18:57:56Z</time></trkpt><trkpt lat="4.9819193501" lon="-75.6595422607"><ele>1336.37</ele><time>2012-09-14T18:58:20Z</time></trkpt><trkpt lat="4.9818891753" lon="-75.6596060470"><ele>1336.37</ele><time>2012-09-14T18:58:48Z</time></trkpt><trkpt lat="4.9819391314" lon="-75.6595786382"><ele>1337.33</ele><time>2012-09-14T18:59:06Z</time></trkpt><trkpt lat="4.9819957931" lon="-75.6595732737"><ele>1333.49</ele><time>2012-09-14T18:59:28Z</time></trkpt><trkpt lat="4.9819955416" lon="-75.6595871877"><ele>1333.01</ele><time>2012-09-14T18:59:59Z</time></trkpt><trkpt lat="4.9820506107" lon="-75.6595546659"><ele>1330.60</ele><time>2012-09-14T19:00:17Z</time></trkpt><trkpt lat="4.9822028261" lon="-75.6594279315"><ele>1324.83</ele><time>2012-09-14T19:00:41Z</time></trkpt><trkpt lat="4.9822708033" lon="-75.6593999360"><ele>1327.24</ele><time>2012-09-14T19:00:59Z</time></trkpt><trkpt lat="4.9822692107" lon="-75.6593871117"><ele>1327.24</ele><time>2012-09-14T19:01:17Z</time></trkpt><trkpt lat="4.9822656903" lon="-75.6593241636"><ele>1326.28</ele><time>2012-09-14T19:01:37Z</time></trkpt><trkpt lat="4.9822388683" lon="-75.6593455374"><ele>1326.28</ele><time>2012-09-14T19:02:02Z</time></trkpt><trkpt lat="4.9822784308" lon="-75.6593534164"><ele>1326.28</ele><time>2012-09-14T19:02:28Z</time></trkpt><trkpt lat="4.9822554644" lon="-75.6593384966"><ele>1327.72</ele><time>2012-09-14T19:02:52Z</time></trkpt><trkpt lat="4.9822369404" lon="-75.6593149435"><ele>1329.64</ele><time>2012-09-14T19:03:15Z</time></trkpt><trkpt lat="4.9822464120" lon="-75.6592809968"><ele>1333.01</ele><time>2012-09-14T19:03:43Z</time></trkpt><trkpt lat="4.9822445679" lon="-75.6592723634"><ele>1333.49</ele><time>2012-09-14T19:04:16Z</time></trkpt><trkpt lat="4.9822267145" lon="-75.6592484750"><ele>1333.49</ele><time>2012-09-14T19:04:38Z</time></trkpt><trkpt lat="4.9822300673" lon="-75.6592675857"><ele>1333.01</ele><time>2012-09-14T19:05:05Z</time></trkpt><trkpt lat="4.9822281394" lon="-75.6592851877"><ele>1332.52</ele><time>2012-09-14T19:05:30Z</time></trkpt><trkpt lat="4.9822412152" lon="-75.6593269296"><ele>1332.04</ele><time>2012-09-14T19:05:55Z</time></trkpt><trkpt lat="4.9822412990" lon="-75.6593253370"><ele>1332.04</ele><time>2012-09-14T19:06:04Z</time></trkpt><trkpt lat="4.9822520278" lon="-75.6593022030"><ele>1332.04</ele><time>2012-09-14T19:06:26Z</time></trkpt><trkpt lat="4.9822321627" lon="-75.6593189668"><ele>1332.52</ele><time>2012-09-14T19:06:38Z</time></trkpt><trkpt lat="4.9822620861" lon="-75.6593571045"><ele>1333.49</ele><time>2012-09-14T19:06:59Z</time></trkpt><trkpt lat="4.9823837914" lon="-75.6593172066"><ele>1332.52</ele><time>2012-09-14T19:07:19Z</time></trkpt><trkpt lat="4.9824915826" lon="-75.6592973415"><ele>1331.08</ele><time>2012-09-14T19:07:40Z</time></trkpt><trkpt lat="4.9824775849" lon="-75.6593082380"><ele>1331.08</ele><time>2012-09-14T19:08:04Z</time></trkpt><trkpt lat="4.9824583065" lon="-75.6593032926"><ele>1332.52</ele><time>2012-09-14T19:08:32Z</time></trkpt><trkpt lat="4.9825110286" lon="-75.6592871156"><ele>1333.97</ele><time>2012-09-14T19:08:49Z</time></trkpt><trkpt lat="4.9825168122" lon="-75.6592907198"><ele>1333.49</ele><time>2012-09-14T19:09:15Z</time></trkpt><trkpt lat="4.9825189076" lon="-75.6592943240"><ele>1333.49</ele><time>2012-09-14T19:09:53Z</time></trkpt><trkpt lat="4.9825448077" lon="-75.6593157817"><ele>1332.52</ele><time>2012-09-14T19:10:15Z</time></trkpt><trkpt lat="4.9825583864" lon="-75.6593201403"><ele>1332.04</ele><time>2012-09-14T19:10:36Z</time></trkpt><trkpt lat="4.9825743958" lon="-75.6593359821"><ele>1331.56</ele><time>2012-09-14T19:10:55Z</time></trkpt><trkpt lat="4.9825791735" lon="-75.6593590323"><ele>1331.56</ele><time>2012-09-14T19:11:21Z</time></trkpt><trkpt lat="4.9825910758" lon="-75.6593876984"><ele>1332.04</ele><time>2012-09-14T19:11:42Z</time></trkpt><trkpt lat="4.9826220050" lon="-75.6594330445"><ele>1333.49</ele><time>2012-09-14T19:12:09Z</time></trkpt><trkpt lat="4.9826327339" lon="-75.6594596151"><ele>1333.97</ele><time>2012-09-14T19:12:30Z</time></trkpt><trkpt lat="4.9826469831" lon="-75.6595264189"><ele>1336.37</ele><time>2012-09-14T19:12:47Z</time></trkpt><trkpt lat="4.9825831968" lon="-75.6595576834"><ele>1338.77</ele><time>2012-09-14T19:13:05Z</time></trkpt><trkpt lat="4.9825721327" lon="-75.6595792249"><ele>1339.73</ele><time>2012-09-14T19:13:26Z</time></trkpt><trkpt lat="4.9826541077" lon="-75.6595557556"><ele>1337.81</ele><time>2012-09-14T19:13:51Z</time></trkpt><trkpt lat="4.9826965202" lon="-75.6595743634"><ele>1338.29</ele><time>2012-09-14T19:14:12Z</time></trkpt><trkpt lat="4.9827251863" lon="-75.6596057117"><ele>1338.77</ele><time>2012-09-14T19:14:31Z</time></trkpt><trkpt lat="4.9827401899" lon="-75.6596176140"><ele>1339.25</ele><time>2012-09-14T19:14:54Z</time></trkpt><trkpt lat="4.9827763159" lon="-75.6596810650"><ele>1340.22</ele><time>2012-09-14T19:15:16Z</time></trkpt><trkpt lat="4.9828047305" lon="-75.6597173586"><ele>1340.22</ele><time>2012-09-14T19:15:37Z</time></trkpt><trkpt lat="4.9828315526" lon="-75.6597353797"><ele>1340.70</ele><time>2012-09-14T19:15:55Z</time></trkpt><trkpt lat="4.9828548543" lon="-75.6598174386"><ele>1342.14</ele><time>2012-09-14T19:16:13Z</time></trkpt><trkpt lat="4.9828244280" lon="-75.6598687358"><ele>1344.54</ele><time>2012-09-14T19:16:31Z</time></trkpt><trkpt lat="4.9828011263" lon="-75.6598693226"><ele>1345.50</ele><time>2012-09-14T19:16:50Z</time></trkpt><trkpt lat="4.9829881266" lon="-75.6598069612"><ele>1340.22</ele><time>2012-09-14T19:17:19Z</time></trkpt><trkpt lat="4.9830715265" lon="-75.6597997528"><ele>1339.73</ele><time>2012-09-14T19:17:36Z</time></trkpt><trkpt lat="4.9830711912" lon="-75.6597989984"><ele>1339.25</ele><time>2012-09-14T19:18:06Z</time></trkpt><trkpt lat="4.9831002764" lon="-75.6598257367"><ele>1339.73</ele><time>2012-09-14T19:18:23Z</time></trkpt><trkpt lat="4.9831198063" lon="-75.6599481963"><ele>1341.18</ele><time>2012-09-14T19:18:41Z</time></trkpt><trkpt lat="4.9831109215" lon="-75.6600304227"><ele>1342.14</ele><time>2012-09-14T19:19:01Z</time></trkpt><trkpt lat="4.9831044674" lon="-75.6601518765"><ele>1344.06</ele><time>2012-09-14T19:19:25Z</time></trkpt><trkpt lat="4.9830932356" lon="-75.6601564866"><ele>1344.06</ele><time>2012-09-14T19:19:53Z</time></trkpt><trkpt lat="4.9830893800" lon="-75.6601807941"><ele>1345.02</ele><time>2012-09-14T19:20:20Z</time></trkpt><trkpt lat="4.9830767233" lon="-75.6601938698"><ele>1345.02</ele><time>2012-09-14T19:20:48Z</time></trkpt><trkpt lat="4.9830625579" lon="-75.6601830572"><ele>1347.43</ele><time>2012-09-14T19:21:19Z</time></trkpt><trkpt lat="4.9830543436" lon="-75.6601963844"><ele>1346.94</ele><time>2012-09-14T19:21:49Z</time></trkpt><trkpt lat="4.9830510747" lon="-75.6602017488"><ele>1348.39</ele><time>2012-09-14T19:22:21Z</time></trkpt><trkpt lat="4.9831019528" lon="-75.6601599231"><ele>1350.31</ele><time>2012-09-14T19:22:48Z</time></trkpt><trkpt lat="4.9830967560" lon="-75.6601645332"><ele>1350.31</ele><time>2012-09-14T19:23:13Z</time></trkpt><trkpt lat="4.9830827583" lon="-75.6601543073"><ele>1350.31</ele><time>2012-09-14T19:23:41Z</time></trkpt><trkpt lat="4.9830752984" lon="-75.6601348612"><ele>1351.27</ele><time>2012-09-14T19:24:03Z</time></trkpt><trkpt lat="4.9830659945" lon="-75.6602475140"><ele>1350.31</ele><time>2012-09-14T19:24:23Z</time></trkpt><trkpt lat="4.9830511585" lon="-75.6603380386"><ele>1350.79</ele><time>2012-09-14T19:24:38Z</time></trkpt><trkpt lat="4.9830032140" lon="-75.6604334246"><ele>1349.83</ele><time>2012-09-14T19:24:54Z</time></trkpt><trkpt lat="4.9828801677" lon="-75.6605419703"><ele>1347.43</ele><time>2012-09-14T19:25:16Z</time></trkpt><trkpt lat="4.9827284552" lon="-75.6606252026"><ele>1348.39</ele><time>2012-09-14T19:25:40Z</time></trkpt><trkpt lat="4.9826836959" lon="-75.6608400308"><ele>1350.79</ele><time>2012-09-14T19:26:01Z</time></trkpt><trkpt lat="4.9826229271" lon="-75.6609559525"><ele>1351.27</ele><time>2012-09-14T19:26:19Z</time></trkpt><trkpt lat="4.9825365935" lon="-75.6611016300"><ele>1345.98</ele><time>2012-09-14T19:26:39Z</time></trkpt><trkpt lat="4.9825054966" lon="-75.6612628140"><ele>1341.18</ele><time>2012-09-14T19:26:58Z</time></trkpt><trkpt lat="4.9824308138" lon="-75.6614966691"><ele>1345.50</ele><time>2012-09-14T19:27:22Z</time></trkpt><trkpt lat="4.9823332485" lon="-75.6616071425"><ele>1345.98</ele><time>2012-09-14T19:27:42Z</time></trkpt><trkpt lat="4.9822551291" lon="-75.6616737787"><ele>1349.35</ele><time>2012-09-14T19:28:00Z</time></trkpt><trkpt lat="4.9822128844" lon="-75.6617222261"><ele>1349.83</ele><time>2012-09-14T19:28:18Z</time></trkpt><trkpt lat="4.9820444919" lon="-75.6618293468"><ele>1351.27</ele><time>2012-09-14T19:28:39Z</time></trkpt><trkpt lat="4.9818760157" lon="-75.6618648861"><ele>1352.23</ele><time>2012-09-14T19:28:58Z</time></trkpt><trkpt lat="4.9817272369" lon="-75.6618728489"><ele>1356.56</ele><time>2012-09-14T19:29:17Z</time></trkpt><trkpt lat="4.9815720879" lon="-75.6618273351"><ele>1357.52</ele><time>2012-09-14T19:29:35Z</time></trkpt><trkpt lat="4.9814906158" lon="-75.6617996749"><ele>1356.56</ele><time>2012-09-14T19:29:52Z</time></trkpt><trkpt lat="4.9814037792" lon="-75.6617447734"><ele>1355.60</ele><time>2012-09-14T19:30:11Z</time></trkpt><trkpt lat="4.9813715927" lon="-75.6617575977"><ele>1354.63</ele><time>2012-09-14T19:30:30Z</time></trkpt><trkpt lat="4.9813426752" lon="-75.6617113296"><ele>1354.63</ele><time>2012-09-14T19:30:43Z</time></trkpt><trkpt lat="4.9812576827" lon="-75.6616985891"><ele>1355.60</ele><time>2012-09-14T19:30:56Z</time></trkpt><trkpt lat="4.9811111670" lon="-75.6617008522"><ele>1358.00</ele><time>2012-09-14T19:31:14Z</time></trkpt><trkpt lat="4.9810173735" lon="-75.6617145985"><ele>1358.48</ele><time>2012-09-14T19:31:23Z</time></trkpt><trkpt lat="4.9809563532" lon="-75.6617360562"><ele>1358.96</ele><time>2012-09-14T19:31:31Z</time></trkpt><trkpt lat="4.9808579497" lon="-75.6617910415"><ele>1359.92</ele><time>2012-09-14T19:31:41Z</time></trkpt><trkpt lat="4.9808001146" lon="-75.6618288439"><ele>1359.44</ele><time>2012-09-14T19:31:49Z</time></trkpt><trkpt lat="4.9807344005" lon="-75.6618669815"><ele>1358.96</ele><time>2012-09-14T19:31:57Z</time></trkpt><trkpt lat="4.9806036428" lon="-75.6619854178"><ele>1358.48</ele><time>2012-09-14T19:32:15Z</time></trkpt><trkpt lat="4.9804488290" lon="-75.6621165946"><ele>1357.52</ele><time>2012-09-14T19:32:35Z</time></trkpt><trkpt lat="4.9803127907" lon="-75.6622570753"><ele>1356.08</ele><time>2012-09-14T19:32:57Z</time></trkpt><trkpt lat="4.9801996350" lon="-75.6623687223"><ele>1354.63</ele><time>2012-09-14T19:33:15Z</time></trkpt><trkpt lat="4.9800395407" lon="-75.6624984741"><ele>1356.08</ele><time>2012-09-14T19:33:36Z</time></trkpt><trkpt lat="4.9799002334" lon="-75.6625542976"><ele>1354.63</ele><time>2012-09-14T19:33:53Z</time></trkpt><trkpt lat="4.9796991516" lon="-75.6625934411"><ele>1355.60</ele><time>2012-09-14T19:34:16Z</time></trkpt><trkpt lat="4.9795167614" lon="-75.6626173295"><ele>1355.60</ele><time>2012-09-14T19:34:39Z</time></trkpt><trkpt lat="4.9793497100" lon="-75.6626757514"><ele>1357.52</ele><time>2012-09-14T19:34:59Z</time></trkpt><trkpt lat="4.9792756978" lon="-75.6627548765"><ele>1357.52</ele><time>2012-09-14T19:35:16Z</time></trkpt><trkpt lat="4.9792691600" lon="-75.6627522781"><ele>1357.52</ele><time>2012-09-14T19:35:35Z</time></trkpt><trkpt lat="4.9792656396" lon="-75.6627518591"><ele>1357.52</ele><time>2012-09-14T19:36:01Z</time></trkpt><trkpt lat="4.9792652205" lon="-75.6627491768"><ele>1357.04</ele><time>2012-09-14T19:36:29Z</time></trkpt><trkpt lat="4.9791951478" lon="-75.6627956126"><ele>1356.56</ele><time>2012-09-14T19:36:41Z</time></trkpt><trkpt lat="4.9791876879" lon="-75.6627625879"><ele>1356.56</ele><time>2012-09-14T19:36:44Z</time></trkpt><trkpt lat="4.9791767914" lon="-75.6627443992"><ele>1356.08</ele><time>2012-09-14T19:36:45Z</time></trkpt><trkpt lat="4.9790945649" lon="-75.6623994838"><ele>1355.60</ele><time>2012-09-14T19:36:56Z</time></trkpt><trkpt lat="4.9793396518" lon="-75.6621696521"><ele>1353.19</ele><time>2012-09-14T19:37:06Z</time></trkpt><trkpt lat="4.9795787036" lon="-75.6618897803"><ele>1348.39</ele><time>2012-09-14T19:37:22Z</time></trkpt><trkpt lat="4.9797143228" lon="-75.6617785525"><ele>1346.46</ele><time>2012-09-14T19:37:33Z</time></trkpt><trkpt lat="4.9797061924" lon="-75.6617810670"><ele>1346.94</ele><time>2012-09-14T19:38:08Z</time></trkpt><trkpt lat="4.9796764366" lon="-75.6618377287"><ele>1346.94</ele><time>2012-09-14T19:38:30Z</time></trkpt><trkpt lat="4.9796803761" lon="-75.6618204620"><ele>1346.94</ele><time>2012-09-14T19:38:58Z</time></trkpt><trkpt lat="4.9796980619" lon="-75.6618134212"><ele>1347.43</ele><time>2012-09-14T19:39:19Z</time></trkpt><trkpt lat="4.9797026720" lon="-75.6618243176"><ele>1347.43</ele><time>2012-09-14T19:39:45Z</time></trkpt><trkpt lat="4.9796926137" lon="-75.6618281733"><ele>1348.39</ele><time>2012-09-14T19:40:19Z</time></trkpt><trkpt lat="4.9796828069" lon="-75.6618349627"><ele>1348.39</ele><time>2012-09-14T19:40:39Z</time></trkpt><trkpt lat="4.9796786997" lon="-75.6618422549"><ele>1349.35</ele><time>2012-09-14T19:41:09Z</time></trkpt><trkpt lat="4.9796734191" lon="-75.6618409138"><ele>1349.83</ele><time>2012-09-14T19:41:42Z</time></trkpt><trkpt lat="4.9796643667" lon="-75.6618463621"><ele>1350.79</ele><time>2012-09-14T19:42:12Z</time></trkpt><trkpt lat="4.9796673004" lon="-75.6618477032"><ele>1350.79</ele><time>2012-09-14T19:42:42Z</time></trkpt><trkpt lat="4.9796764366" lon="-75.6618518103"><ele>1350.79</ele><time>2012-09-14T19:43:14Z</time></trkpt><trkpt lat="4.9796816334" lon="-75.6618540734"><ele>1351.27</ele><time>2012-09-14T19:43:35Z</time></trkpt><trkpt lat="4.9796885066" lon="-75.6618526485"><ele>1350.79</ele><time>2012-09-14T19:44:01Z</time></trkpt><trkpt lat="4.9796881713" lon="-75.6618503015"><ele>1350.79</ele><time>2012-09-14T19:44:23Z</time></trkpt><trkpt lat="4.9796985649" lon="-75.6618547440"><ele>1351.27</ele><time>2012-09-14T19:44:42Z</time></trkpt><trkpt lat="4.9797017500" lon="-75.6618556660"><ele>1351.75</ele><time>2012-09-14T19:45:21Z</time></trkpt><trkpt lat="4.9797027558" lon="-75.6618547440"><ele>1352.23</ele><time>2012-09-14T19:46:01Z</time></trkpt><trkpt lat="4.9797020014" lon="-75.6618528161"><ele>1352.71</ele><time>2012-09-14T19:46:36Z</time></trkpt><trkpt lat="4.9796989840" lon="-75.6618532352"><ele>1352.71</ele><time>2012-09-14T19:47:06Z</time></trkpt><trkpt lat="4.9796968885" lon="-75.6618551631"><ele>1352.23</ele><time>2012-09-14T19:47:42Z</time></trkpt><trkpt lat="4.9796946254" lon="-75.6618560012"><ele>1352.23</ele><time>2012-09-14T19:48:18Z</time></trkpt><trkpt lat="4.9796915241" lon="-75.6618544925"><ele>1352.23</ele><time>2012-09-14T19:48:56Z</time></trkpt><trkpt lat="4.9796879198" lon="-75.6618431769"><ele>1350.79</ele><time>2012-09-14T19:49:22Z</time></trkpt><trkpt lat="4.9796795379" lon="-75.6618351303"><ele>1350.79</ele><time>2012-09-14T19:50:00Z</time></trkpt><trkpt lat="4.9796834774" lon="-75.6618242338"><ele>1351.27</ele><time>2012-09-14T19:50:35Z</time></trkpt><trkpt lat="4.9796890933" lon="-75.6618230604"><ele>1351.27</ele><time>2012-09-14T19:51:08Z</time></trkpt><trkpt lat="4.9796886742" lon="-75.6618222222"><ele>1351.27</ele><time>2012-09-14T19:51:41Z</time></trkpt><trkpt lat="4.9796877522" lon="-75.6618238147"><ele>1350.31</ele><time>2012-09-14T19:52:11Z</time></trkpt><trkpt lat="4.9796928652" lon="-75.6618252397"><ele>1350.31</ele><time>2012-09-14T19:52:40Z</time></trkpt><trkpt lat="4.9796951283" lon="-75.6618321966"><ele>1351.27</ele><time>2012-09-14T19:53:10Z</time></trkpt><trkpt lat="4.9796985649" lon="-75.6618469488"><ele>1351.75</ele><time>2012-09-14T19:53:40Z</time></trkpt><trkpt lat="4.9797045998" lon="-75.6618557498"><ele>1352.23</ele><time>2012-09-14T19:54:14Z</time></trkpt><trkpt lat="4.9797248002" lon="-75.6618527323"><ele>1352.23</ele><time>2012-09-14T19:54:44Z</time></trkpt><trkpt lat="4.9797143228" lon="-75.6618594378"><ele>1352.23</ele><time>2012-09-14T19:55:15Z</time></trkpt><trkpt lat="4.9797147419" lon="-75.6618634611"><ele>1351.75</ele><time>2012-09-14T19:55:44Z</time></trkpt><trkpt lat="4.9797142390" lon="-75.6618591864"><ele>1351.75</ele><time>2012-09-14T19:56:19Z</time></trkpt><trkpt lat="4.9797130655" lon="-75.6618562527"><ele>1352.23</ele><time>2012-09-14T19:56:57Z</time></trkpt><trkpt lat="4.9797067791" lon="-75.6618543249"><ele>1352.23</ele><time>2012-09-14T19:57:34Z</time></trkpt><trkpt lat="4.9797033425" lon="-75.6618534029"><ele>1352.23</ele><time>2012-09-14T19:58:10Z</time></trkpt><trkpt lat="4.9796785321" lon="-75.6618718430"><ele>1352.23</ele><time>2012-09-14T19:58:33Z</time></trkpt><trkpt lat="4.9796900991" lon="-75.6618641317"><ele>1352.71</ele><time>2012-09-14T19:59:05Z</time></trkpt><trkpt lat="4.9796957150" lon="-75.6618642993"><ele>1353.19</ele><time>2012-09-14T19:59:46Z</time></trkpt><trkpt lat="4.9796997383" lon="-75.6618651375"><ele>1353.67</ele><time>2012-09-14T20:00:15Z</time></trkpt><trkpt lat="4.9796999060" lon="-75.6618662272"><ele>1353.67</ele><time>2012-09-14T20:00:51Z</time></trkpt><trkpt lat="4.9797051027" lon="-75.6618634611"><ele>1353.67</ele><time>2012-09-14T20:01:23Z</time></trkpt><trkpt lat="4.9797058571" lon="-75.6618620362"><ele>1353.67</ele><time>2012-09-14T20:01:54Z</time></trkpt><trkpt lat="4.9797054380" lon="-75.6618620362"><ele>1353.19</ele><time>2012-09-14T20:02:25Z</time></trkpt><trkpt lat="4.9797396362" lon="-75.6618498825"><ele>1353.19</ele><time>2012-09-14T20:02:53Z</time></trkpt><trkpt lat="4.9796964694" lon="-75.6618241500"><ele>1352.23</ele><time>2012-09-14T20:03:16Z</time></trkpt><trkpt lat="4.9796949606" lon="-75.6618297659"><ele>1352.71</ele><time>2012-09-14T20:03:50Z</time></trkpt><trkpt lat="4.9796983972" lon="-75.6618324481"><ele>1352.71</ele><time>2012-09-14T20:04:19Z</time></trkpt><trkpt lat="4.9796981458" lon="-75.6618419196"><ele>1352.71</ele><time>2012-09-14T20:04:51Z</time></trkpt><trkpt lat="4.9796948768" lon="-75.6618354656"><ele>1352.71</ele><time>2012-09-14T20:05:18Z</time></trkpt><trkpt lat="4.9797001574" lon="-75.6618066318"><ele>1352.71</ele><time>2012-09-14T20:05:49Z</time></trkpt><trkpt lat="4.9796886742" lon="-75.6618305203"><ele>1353.19</ele><time>2012-09-14T20:06:15Z</time></trkpt><trkpt lat="4.9796756823" lon="-75.6618083920"><ele>1355.12</ele><time>2012-09-14T20:06:41Z</time></trkpt><trkpt lat="4.9796553981" lon="-75.6617683265"><ele>1358.00</ele><time>2012-09-14T20:07:06Z</time></trkpt><trkpt lat="4.9796618521" lon="-75.6618190371"><ele>1359.92</ele><time>2012-09-14T20:07:29Z</time></trkpt><trkpt lat="4.9796596728" lon="-75.6618321128"><ele>1359.92</ele><time>2012-09-14T20:08:00Z</time></trkpt><trkpt lat="4.9796654563" lon="-75.6618509721"><ele>1360.40</ele><time>2012-09-14T20:08:32Z</time></trkpt><trkpt lat="4.9796507042" lon="-75.6618570909"><ele>1359.44</ele><time>2012-09-14T20:09:06Z</time></trkpt><trkpt lat="4.9796515424" lon="-75.6618537381"><ele>1359.44</ele><time>2012-09-14T20:09:41Z</time></trkpt><trkpt lat="4.9796449207" lon="-75.6618552469"><ele>1359.92</ele><time>2012-09-14T20:10:14Z</time></trkpt><trkpt lat="4.9796482734" lon="-75.6618477870"><ele>1359.44</ele><time>2012-09-14T20:10:45Z</time></trkpt><trkpt lat="4.9796497822" lon="-75.6618446019"><ele>1359.92</ele><time>2012-09-14T20:11:16Z</time></trkpt><trkpt lat="4.9796536379" lon="-75.6618428417"><ele>1359.92</ele><time>2012-09-14T20:11:44Z</time></trkpt><trkpt lat="4.9796542246" lon="-75.6618383992"><ele>1359.92</ele><time>2012-09-14T20:12:20Z</time></trkpt><trkpt lat="4.9796532188" lon="-75.6618447695"><ele>1357.52</ele><time>2012-09-14T20:12:49Z</time></trkpt><trkpt lat="4.9796579126" lon="-75.6618562527"><ele>1356.08</ele><time>2012-09-14T20:13:21Z</time></trkpt><trkpt lat="4.9796987325" lon="-75.6618754473"><ele>1356.08</ele><time>2012-09-14T20:13:34Z</time></trkpt><trkpt lat="4.9797387980" lon="-75.6619415805"><ele>1355.60</ele><time>2012-09-14T20:13:40Z</time></trkpt><trkpt lat="4.9797232915" lon="-75.6619231403"><ele>1355.12</ele><time>2012-09-14T20:14:00Z</time></trkpt><trkpt lat="4.9796876684" lon="-75.6618556660"><ele>1354.63</ele><time>2012-09-14T20:14:17Z</time></trkpt><trkpt lat="4.9796780292" lon="-75.6618554145"><ele>1355.12</ele><time>2012-09-14T20:14:41Z</time></trkpt><trkpt lat="4.9796849024" lon="-75.6618389860"><ele>1354.15</ele><time>2012-09-14T20:15:06Z</time></trkpt><trkpt lat="4.9796835613" lon="-75.6618379802"><ele>1354.15</ele><time>2012-09-14T20:15:26Z</time></trkpt><trkpt lat="4.9796490278" lon="-75.6618358847"><ele>1353.19</ele><time>2012-09-14T20:15:50Z</time></trkpt><trkpt lat="4.9796716589" lon="-75.6618228089"><ele>1352.71</ele><time>2012-09-14T20:16:15Z</time></trkpt><trkpt lat="4.9789887853" lon="-75.6632702798"><ele>1353.19</ele><time>2012-09-14T20:19:05Z</time></trkpt><trkpt lat="4.9789156951" lon="-75.6632868759"><ele>1358.96</ele><time>2012-09-14T20:19:25Z</time></trkpt><trkpt lat="4.9789340515" lon="-75.6632778235"><ele>1358.00</ele><time>2012-09-14T20:19:49Z</time></trkpt><trkpt lat="4.9789874442" lon="-75.6633106805"><ele>1361.36</ele><time>2012-09-14T20:20:11Z</time></trkpt><trkpt lat="4.9789403379" lon="-75.6632976048"><ele>1363.77</ele><time>2012-09-14T20:20:29Z</time></trkpt><trkpt lat="4.9789643940" lon="-75.6632751413"><ele>1364.25</ele><time>2012-09-14T20:20:50Z</time></trkpt><trkpt lat="4.9789565150" lon="-75.6632550247"><ele>1361.36</ele><time>2012-09-14T20:21:21Z</time></trkpt><trkpt lat="4.9789542519" lon="-75.6632809248"><ele>1361.84</ele><time>2012-09-14T20:21:52Z</time></trkpt><trkpt lat="4.9789465405" lon="-75.6632789131"><ele>1363.29</ele><time>2012-09-14T20:22:20Z</time></trkpt><trkpt lat="4.9789457861" lon="-75.6632866245"><ele>1365.21</ele><time>2012-09-14T20:22:46Z</time></trkpt><trkpt lat="4.9789348058" lon="-75.6632951740"><ele>1365.69</ele><time>2012-09-14T20:23:04Z</time></trkpt><trkpt lat="4.9789286871" lon="-75.6633063219"><ele>1364.73</ele><time>2012-09-14T20:23:25Z</time></trkpt><trkpt lat="4.9789270107" lon="-75.6633079983"><ele>1364.25</ele><time>2012-09-14T20:23:50Z</time></trkpt><trkpt lat="4.9789291900" lon="-75.6633084174"><ele>1364.25</ele><time>2012-09-14T20:24:07Z</time></trkpt><trkpt lat="4.9789362308" lon="-75.6633065734"><ele>1364.25</ele><time>2012-09-14T20:24:22Z</time></trkpt><trkpt lat="4.9789431039" lon="-75.6633002870"><ele>1363.29</ele><time>2012-09-14T20:24:40Z</time></trkpt><trkpt lat="4.9789487198" lon="-75.6632905640"><ele>1361.84</ele><time>2012-09-14T20:25:02Z</time></trkpt><trkpt lat="4.9789491389" lon="-75.6632885523"><ele>1361.84</ele><time>2012-09-14T20:25:24Z</time></trkpt><trkpt lat="4.9789438583" lon="-75.6632800866"><ele>1361.84</ele><time>2012-09-14T20:25:31Z</time></trkpt><trkpt lat="4.9789384939" lon="-75.6633127760"><ele>1363.77</ele><time>2012-09-14T20:25:51Z</time></trkpt><trkpt lat="4.9789067265" lon="-75.6632619817"><ele>1363.29</ele><time>2012-09-14T20:26:23Z</time></trkpt><trkpt lat="4.9788224045" lon="-75.6632065773"><ele>1363.77</ele><time>2012-09-14T20:26:51Z</time></trkpt><trkpt lat="4.9788444489" lon="-75.6632128637"><ele>1364.25</ele><time>2012-09-14T20:27:13Z</time></trkpt><trkpt lat="4.9788708519" lon="-75.6632117741"><ele>1364.25</ele><time>2012-09-14T20:27:17Z</time></trkpt><trkpt lat="4.9789893720" lon="-75.6633141171"><ele>1364.25</ele><time>2012-09-14T20:27:39Z</time></trkpt><trkpt lat="4.9787559360" lon="-75.6639063824"><ele>1354.63</ele><time>2012-09-14T20:29:12Z</time></trkpt><trkpt lat="4.9787113443" lon="-75.6639197934"><ele>1359.92</ele><time>2012-09-14T20:29:27Z</time></trkpt><trkpt lat="4.9789157789" lon="-75.6640280876"><ele>1358.96</ele><time>2012-09-14T20:29:40Z</time></trkpt><trkpt lat="4.9796010833" lon="-75.6642918661"><ele>1356.56</ele><time>2012-09-14T20:29:51Z</time></trkpt><trkpt lat="4.9802438915" lon="-75.6648262963"><ele>1353.19</ele><time>2012-09-14T20:30:03Z</time></trkpt><trkpt lat="4.9809258431" lon="-75.6656685937"><ele>1350.79</ele><time>2012-09-14T20:30:17Z</time></trkpt><trkpt lat="4.9815855827" lon="-75.6664564088"><ele>1346.46</ele><time>2012-09-14T20:30:29Z</time></trkpt><trkpt lat="4.9816655461" lon="-75.6665533036"><ele>1345.50</ele><time>2012-09-14T20:30:31Z</time></trkpt><trkpt lat="4.9821035843" lon="-75.6674287096"><ele>1339.73</ele><time>2012-09-14T20:30:44Z</time></trkpt><trkpt lat="4.9823208433" lon="-75.6677887123"><ele>1337.33</ele><time>2012-09-14T20:30:49Z</time></trkpt><trkpt lat="4.9824189115" lon="-75.6679773051"><ele>1336.37</ele><time>2012-09-14T20:30:52Z</time></trkpt><trkpt lat="4.9827774893" lon="-75.6682349648"><ele>1332.52</ele><time>2012-09-14T20:31:00Z</time></trkpt><trkpt lat="4.9831642304" lon="-75.6682595238"><ele>1329.16</ele><time>2012-09-14T20:31:06Z</time></trkpt><trkpt lat="4.9835666455" lon="-75.6686019246"><ele>1324.35</ele><time>2012-09-14T20:31:14Z</time></trkpt><trkpt lat="4.9836199544" lon="-75.6687486917"><ele>1322.91</ele><time>2012-09-14T20:31:16Z</time></trkpt><trkpt lat="4.9838634487" lon="-75.6689356081"><ele>1320.51</ele><time>2012-09-14T20:31:21Z</time></trkpt><trkpt lat="4.9839994032" lon="-75.6690988876"><ele>1318.59</ele><time>2012-09-14T20:31:25Z</time></trkpt><trkpt lat="4.9842816219" lon="-75.6693433877"><ele>1317.62</ele><time>2012-09-14T20:31:31Z</time></trkpt><trkpt lat="4.9845325761" lon="-75.6693991274"><ele>1316.66</ele><time>2012-09-14T20:31:35Z</time></trkpt><trkpt lat="4.9847678561" lon="-75.6697333977"><ele>1316.18</ele><time>2012-09-14T20:31:43Z</time></trkpt><trkpt lat="4.9847214203" lon="-75.6698286161"><ele>1316.66</ele><time>2012-09-14T20:31:45Z</time></trkpt><trkpt lat="4.9845344201" lon="-75.6700455397"><ele>1317.14</ele><time>2012-09-14T20:31:50Z</time></trkpt><trkpt lat="4.9845435563" lon="-75.6703581847"><ele>1317.14</ele><time>2012-09-14T20:31:55Z</time></trkpt><trkpt lat="4.9847871345" lon="-75.6707537267"><ele>1316.18</ele><time>2012-09-14T20:32:01Z</time></trkpt><trkpt lat="4.9852105882" lon="-75.6711822934"><ele>1313.78</ele><time>2012-09-14T20:32:09Z</time></trkpt><trkpt lat="4.9854068924" lon="-75.6713237800"><ele>1313.30</ele><time>2012-09-14T20:32:12Z</time></trkpt><trkpt lat="4.9865228590" lon="-75.6717702840"><ele>1309.93</ele><time>2012-09-14T20:32:26Z</time></trkpt><trkpt lat="4.9873771425" lon="-75.6721189711"><ele>1308.97</ele><time>2012-09-14T20:32:39Z</time></trkpt><trkpt lat="4.9875387456" lon="-75.6721398421"><ele>1308.49</ele><time>2012-09-14T20:32:42Z</time></trkpt><trkpt lat="4.9877794739" lon="-75.6722372398"><ele>1308.49</ele><time>2012-09-14T20:32:46Z</time></trkpt><trkpt lat="4.9883709848" lon="-75.6725123338"><ele>1306.09</ele><time>2012-09-14T20:32:55Z</time></trkpt><trkpt lat="4.9887347594" lon="-75.6724867690"><ele>1303.20</ele><time>2012-09-14T20:33:04Z</time></trkpt><trkpt lat="4.9888404552" lon="-75.6724571809"><ele>1301.76</ele><time>2012-09-14T20:33:16Z</time></trkpt><trkpt lat="4.9888386112" lon="-75.6724590249"><ele>1299.36</ele><time>2012-09-14T20:33:49Z</time></trkpt><trkpt lat="4.9888446461" lon="-75.6724592764"><ele>1299.36</ele><time>2012-09-14T20:33:50Z</time></trkpt><trkpt lat="4.9889842886" lon="-75.6724322028"><ele>1299.36</ele><time>2012-09-14T20:33:56Z</time></trkpt><trkpt lat="4.9893688504" lon="-75.6721052248"><ele>1297.44</ele><time>2012-09-14T20:34:06Z</time></trkpt><trkpt lat="4.9894476403" lon="-75.6719153747"><ele>1296.48</ele><time>2012-09-14T20:34:10Z</time></trkpt><trkpt lat="4.9895516597" lon="-75.6717440486"><ele>1295.99</ele><time>2012-09-14T20:34:14Z</time></trkpt><trkpt lat="4.9896695092" lon="-75.6716248579"><ele>1295.51</ele><time>2012-09-14T20:34:17Z</time></trkpt><trkpt lat="4.9897918850" lon="-75.6714488380"><ele>1295.03</ele><time>2012-09-14T20:34:21Z</time></trkpt><trkpt lat="4.9899355508" lon="-75.6713542063"><ele>1294.55</ele><time>2012-09-14T20:34:25Z</time></trkpt><trkpt lat="4.9900321942" lon="-75.6713459082"><ele>1294.07</ele><time>2012-09-14T20:34:35Z</time></trkpt><trkpt lat="4.9900163524" lon="-75.6713419687"><ele>1293.59</ele><time>2012-09-14T20:34:54Z</time></trkpt><trkpt lat="4.9900672305" lon="-75.6713977084"><ele>1293.11</ele><time>2012-09-14T20:34:59Z</time></trkpt><trkpt lat="4.9900886882" lon="-75.6714672782"><ele>1291.19</ele><time>2012-09-14T20:35:13Z</time></trkpt><trkpt lat="4.9900868442" lon="-75.6714585610"><ele>1290.23</ele><time>2012-09-14T20:35:44Z</time></trkpt><trkpt lat="4.9900839105" lon="-75.6714503467"><ele>1287.82</ele><time>2012-09-14T20:36:23Z</time></trkpt><trkpt lat="4.9900785461" lon="-75.6714448147"><ele>1286.38</ele><time>2012-09-14T20:37:07Z</time></trkpt><trkpt lat="4.9900858384" lon="-75.6714469101"><ele>1286.86</ele><time>2012-09-14T20:37:39Z</time></trkpt><trkpt lat="4.9900877662" lon="-75.6714516040"><ele>1287.34</ele><time>2012-09-14T20:38:09Z</time></trkpt><trkpt lat="4.9900875147" lon="-75.6714521069"><ele>1287.34</ele><time>2012-09-14T20:38:13Z</time></trkpt><trkpt lat="4.9900729302" lon="-75.6713921763"><ele>1287.82</ele><time>2012-09-14T20:38:18Z</time></trkpt><trkpt lat="4.9900402408" lon="-75.6713511050"><ele>1288.30</ele><time>2012-09-14T20:38:33Z</time></trkpt><trkpt lat="4.9900347088" lon="-75.6713101175"><ele>1288.78</ele><time>2012-09-14T20:38:39Z</time></trkpt><trkpt lat="4.9899745267" lon="-75.6713386159"><ele>1289.27</ele><time>2012-09-14T20:38:43Z</time></trkpt><trkpt lat="4.9896422680" lon="-75.6715863012"><ele>1292.15</ele><time>2012-09-14T20:38:54Z</time></trkpt><trkpt lat="4.9896077346" lon="-75.6716318987"><ele>1292.63</ele><time>2012-09-14T20:38:55Z</time></trkpt><trkpt lat="4.9894780666" lon="-75.6717616506"><ele>1293.11</ele><time>2012-09-14T20:38:58Z</time></trkpt><trkpt lat="4.9893514160" lon="-75.6720312126"><ele>1294.07</ele><time>2012-09-14T20:39:03Z</time></trkpt><trkpt lat="4.9891116936" lon="-75.6723274291"><ele>1295.99</ele><time>2012-09-14T20:39:09Z</time></trkpt><trkpt lat="4.9888216797" lon="-75.6724424288"><ele>1297.44</ele><time>2012-09-14T20:39:14Z</time></trkpt><trkpt lat="4.9884229526" lon="-75.6724687479"><ele>1300.32</ele><time>2012-09-14T20:39:21Z</time></trkpt><trkpt lat="4.9877249915" lon="-75.6721706036"><ele>1305.61</ele><time>2012-09-14T20:39:32Z</time></trkpt><trkpt lat="4.9875732791" lon="-75.6720728707"><ele>1307.05</ele><time>2012-09-14T20:39:35Z</time></trkpt><trkpt lat="4.9872083310" lon="-75.6720381696"><ele>1310.90</ele><time>2012-09-14T20:39:42Z</time></trkpt><trkpt lat="4.9870187324" lon="-75.6719696894"><ele>1312.34</ele><time>2012-09-14T20:39:46Z</time></trkpt><trkpt lat="4.9865304027" lon="-75.6717821024"><ele>1311.86</ele><time>2012-09-14T20:39:55Z</time></trkpt><trkpt lat="4.9864893313" lon="-75.6718448829"><ele>1311.38</ele><time>2012-09-14T20:40:00Z</time></trkpt><trkpt lat="4.9865017366" lon="-75.6722422689"><ele>1309.93</ele><time>2012-09-14T20:40:10Z</time></trkpt><trkpt lat="4.9866355956" lon="-75.6725917105"><ele>1308.01</ele><time>2012-09-14T20:40:19Z</time></trkpt><trkpt lat="4.9866666086" lon="-75.6726238132"><ele>1307.05</ele><time>2012-09-14T20:40:25Z</time></trkpt><trkpt lat="4.9869411997" lon="-75.6728922017"><ele>1306.09</ele><time>2012-09-14T20:40:31Z</time></trkpt><trkpt lat="4.9872931559" lon="-75.6730767712"><ele>1305.13</ele><time>2012-09-14T20:40:36Z</time></trkpt><trkpt lat="4.9875612091" lon="-75.6731285714"><ele>1305.61</ele><time>2012-09-14T20:40:40Z</time></trkpt><trkpt lat="4.9878728483" lon="-75.6733688805"><ele>1305.13</ele><time>2012-09-14T20:40:46Z</time></trkpt><trkpt lat="4.9882460106" lon="-75.6736724731"><ele>1304.17</ele><time>2012-09-14T20:40:53Z</time></trkpt><trkpt lat="4.9884805363" lon="-75.6737153884"><ele>1304.17</ele><time>2012-09-14T20:40:57Z</time></trkpt><trkpt lat="4.9887651019" lon="-75.6739380118"><ele>1304.17</ele><time>2012-09-14T20:41:09Z</time></trkpt><trkpt lat="4.9887744896" lon="-75.6739727966"><ele>1303.69</ele><time>2012-09-14T20:41:22Z</time></trkpt><trkpt lat="4.9887594860" lon="-75.6739623193"><ele>1302.24</ele><time>2012-09-14T20:42:10Z</time></trkpt><trkpt lat="4.9887619168" lon="-75.6739576254"><ele>1301.28</ele><time>2012-09-14T20:42:45Z</time></trkpt><trkpt lat="4.9887640961" lon="-75.6739616487"><ele>1303.20</ele><time>2012-09-14T20:43:14Z</time></trkpt><trkpt lat="4.9887930974" lon="-75.6740426179"><ele>1302.72</ele><time>2012-09-14T20:43:36Z</time></trkpt><trkpt lat="4.9888000544" lon="-75.6740997825"><ele>1301.76</ele><time>2012-09-14T20:43:47Z</time></trkpt><trkpt lat="4.9887989648" lon="-75.6740981061"><ele>1301.76</ele><time>2012-09-14T20:43:49Z</time></trkpt><trkpt lat="4.9887993839" lon="-75.6740686018"><ele>1301.28</ele><time>2012-09-14T20:44:05Z</time></trkpt><trkpt lat="4.9887957796" lon="-75.6740691885"><ele>1301.28</ele><time>2012-09-14T20:44:31Z</time></trkpt><trkpt lat="4.9887879845" lon="-75.6740613095"><ele>1301.28</ele><time>2012-09-14T20:44:44Z</time></trkpt><trkpt lat="4.9887578934" lon="-75.6740063243"><ele>1301.28</ele><time>2012-09-14T20:44:48Z</time></trkpt><trkpt lat="4.9885816220" lon="-75.6737412885"><ele>1302.24</ele><time>2012-09-14T20:44:57Z</time></trkpt><trkpt lat="4.9881450087" lon="-75.6736073457"><ele>1303.69</ele><time>2012-09-14T20:45:08Z</time></trkpt><trkpt lat="4.9878894445" lon="-75.6734527834"><ele>1302.72</ele><time>2012-09-14T20:45:16Z</time></trkpt><trkpt lat="4.9878588505" lon="-75.6734488439"><ele>1301.76</ele><time>2012-09-14T20:45:20Z</time></trkpt><trkpt lat="4.9878331181" lon="-75.6735151447"><ele>1300.32</ele><time>2012-09-14T20:45:24Z</time></trkpt><trkpt lat="4.9878098164" lon="-75.6736594811"><ele>1299.36</ele><time>2012-09-14T20:45:28Z</time></trkpt><trkpt lat="4.9876380712" lon="-75.6741744652"><ele>1296.48</ele><time>2012-09-14T20:45:38Z</time></trkpt><trkpt lat="4.9876524881" lon="-75.6743450370"><ele>1295.51</ele><time>2012-09-14T20:45:41Z</time></trkpt><trkpt lat="4.9876358919" lon="-75.6745432690"><ele>1294.55</ele><time>2012-09-14T20:45:45Z</time></trkpt><trkpt lat="4.9875881150" lon="-75.6746929698"><ele>1294.07</ele><time>2012-09-14T20:45:48Z</time></trkpt><trkpt lat="4.9875939824" lon="-75.6749301776"><ele>1294.07</ele><time>2012-09-14T20:45:53Z</time></trkpt><trkpt lat="4.9876042083" lon="-75.6754698046"><ele>1295.03</ele><time>2012-09-14T20:46:06Z</time></trkpt><trkpt lat="4.9876385741" lon="-75.6759722997"><ele>1296.96</ele><time>2012-09-14T20:46:19Z</time></trkpt><trkpt lat="4.9876574334" lon="-75.6760891434"><ele>1297.44</ele><time>2012-09-14T20:46:22Z</time></trkpt><trkpt lat="4.9877736066" lon="-75.6764242519"><ele>1297.44</ele><time>2012-09-14T20:46:34Z</time></trkpt><trkpt lat="4.9877865147" lon="-75.6764970068"><ele>1297.44</ele><time>2012-09-14T20:46:43Z</time></trkpt><trkpt lat="4.9877773784" lon="-75.6765146088"><ele>1296.48</ele><time>2012-09-14T20:46:55Z</time></trkpt><trkpt lat="4.9877959862" lon="-75.6765026227"><ele>1296.48</ele><time>2012-09-14T20:47:07Z</time></trkpt><trkpt lat="4.9877700862" lon="-75.6764348131"><ele>1296.96</ele><time>2012-09-14T20:47:11Z</time></trkpt><trkpt lat="4.9876928050" lon="-75.6762012094"><ele>1299.36</ele><time>2012-09-14T20:47:24Z</time></trkpt><trkpt lat="4.9875930604" lon="-75.6757622492"><ele>1301.28</ele><time>2012-09-14T20:47:36Z</time></trkpt><trkpt lat="4.9876138475" lon="-75.6752153300"><ele>1301.76</ele><time>2012-09-14T20:47:50Z</time></trkpt><trkpt lat="4.9875749554" lon="-75.6746857613"><ele>1297.92</ele><time>2012-09-14T20:48:02Z</time></trkpt><trkpt lat="4.9875882827" lon="-75.6745339651"><ele>1296.96</ele><time>2012-09-14T20:48:05Z</time></trkpt><trkpt lat="4.9876405858" lon="-75.6743439473"><ele>1295.99</ele><time>2012-09-14T20:48:09Z</time></trkpt><trkpt lat="4.9878115766" lon="-75.6735358480"><ele>1292.63</ele><time>2012-09-14T20:48:24Z</time></trkpt><trkpt lat="4.9878679030" lon="-75.6733591575"><ele>1292.15</ele><time>2012-09-14T20:48:29Z</time></trkpt><trkpt lat="4.9879269116" lon="-75.6733813696"><ele>1291.67</ele><time>2012-09-14T20:48:33Z</time></trkpt><trkpt lat="4.9880253989" lon="-75.6734693795"><ele>1291.19</ele><time>2012-09-14T20:48:37Z</time></trkpt><trkpt lat="4.9881162588" lon="-75.6735242810"><ele>1291.19</ele><time>2012-09-14T20:48:39Z</time></trkpt><trkpt lat="4.9887324125" lon="-75.6737627462"><ele>1293.59</ele><time>2012-09-14T20:48:51Z</time></trkpt><trkpt lat="4.9888770841" lon="-75.6741068233"><ele>1293.11</ele><time>2012-09-14T20:48:57Z</time></trkpt><trkpt lat="4.9889444746" lon="-75.6745843403"><ele>1290.71</ele><time>2012-09-14T20:49:04Z</time></trkpt><trkpt lat="4.9888622481" lon="-75.6749842409"><ele>1290.23</ele><time>2012-09-14T20:49:11Z</time></trkpt><trkpt lat="4.9886121321" lon="-75.6753008254"><ele>1289.27</ele><time>2012-09-14T20:49:19Z</time></trkpt><trkpt lat="4.9886946939" lon="-75.6756975409"><ele>1288.30</ele><time>2012-09-14T20:49:26Z</time></trkpt><trkpt lat="4.9891840294" lon="-75.6760731339"><ele>1287.34</ele><time>2012-09-14T20:49:37Z</time></trkpt><trkpt lat="4.9894950818" lon="-75.6761449669"><ele>1287.34</ele><time>2012-09-14T20:49:44Z</time></trkpt><trkpt lat="4.9894848559" lon="-75.6762401853"><ele>1287.82</ele><time>2012-09-14T20:49:48Z</time></trkpt><trkpt lat="4.9894091673" lon="-75.6763354037"><ele>1287.82</ele><time>2012-09-14T20:49:51Z</time></trkpt><trkpt lat="4.9893623125" lon="-75.6767900381"><ele>1287.34</ele><time>2012-09-14T20:50:01Z</time></trkpt><trkpt lat="4.9896113388" lon="-75.6769171916"><ele>1286.38</ele><time>2012-09-14T20:50:07Z</time></trkpt><trkpt lat="4.9898985866" lon="-75.6771115679"><ele>1284.46</ele><time>2012-09-14T20:50:18Z</time></trkpt><trkpt lat="4.9899673183" lon="-75.6772346143"><ele>1283.02</ele><time>2012-09-14T20:50:33Z</time></trkpt><trkpt lat="4.9899562541" lon="-75.6772237178"><ele>1283.50</ele><time>2012-09-14T20:51:09Z</time></trkpt><trkpt lat="4.9899643008" lon="-75.6772269029"><ele>1283.50</ele><time>2012-09-14T20:51:40Z</time></trkpt><trkpt lat="4.9900487904" lon="-75.6772906054"><ele>1283.02</ele><time>2012-09-14T20:51:44Z</time></trkpt><trkpt lat="4.9901372194" lon="-75.6775110494"><ele>1281.57</ele><time>2012-09-14T20:51:50Z</time></trkpt><trkpt lat="4.9900347926" lon="-75.6779032387"><ele>1275.81</ele><time>2012-09-14T20:52:06Z</time></trkpt><trkpt lat="4.9900394026" lon="-75.6778890733"><ele>1275.33</ele><time>2012-09-14T20:52:39Z</time></trkpt><trkpt lat="4.9900295958" lon="-75.6778932642"><ele>1276.29</ele><time>2012-09-14T20:53:05Z</time></trkpt><trkpt lat="4.9900243990" lon="-75.6778884027"><ele>1277.25</ele><time>2012-09-14T20:53:35Z</time></trkpt><trkpt lat="4.9900440127" lon="-75.6779091060"><ele>1276.77</ele><time>2012-09-14T20:53:45Z</time></trkpt><trkpt lat="4.9901946355" lon="-75.6779488362"><ele>1274.85</ele><time>2012-09-14T20:53:56Z</time></trkpt><trkpt lat="4.9901929591" lon="-75.6779492553"><ele>1274.36</ele><time>2012-09-14T20:54:09Z</time></trkpt><trkpt lat="4.9901959766" lon="-75.6779476628"><ele>1273.88</ele><time>2012-09-14T20:54:35Z</time></trkpt><trkpt lat="4.9901923724" lon="-75.6779489201"><ele>1273.88</ele><time>2012-09-14T20:54:55Z</time></trkpt><trkpt lat="4.9901891034" lon="-75.6779495906"><ele>1273.40</ele><time>2012-09-14T20:55:21Z</time></trkpt><trkpt lat="4.9901924562" lon="-75.6779469084"><ele>1273.40</ele><time>2012-09-14T20:55:57Z</time></trkpt><trkpt lat="4.9901686516" lon="-75.6779573020"><ele>1273.88</ele><time>2012-09-14T20:56:23Z</time></trkpt><trkpt lat="4.9901445955" lon="-75.6779638398"><ele>1274.36</ele><time>2012-09-14T20:56:28Z</time></trkpt><trkpt lat="4.9901267421" lon="-75.6779622473"><ele>1274.36</ele><time>2012-09-14T20:56:30Z</time></trkpt><trkpt lat="4.9901065417" lon="-75.6779481657"><ele>1274.36</ele><time>2012-09-14T20:56:33Z</time></trkpt><trkpt lat="4.9900667276" lon="-75.6779676955"><ele>1274.85</ele><time>2012-09-14T20:56:43Z</time></trkpt><trkpt lat="4.9900696613" lon="-75.6779640913"><ele>1274.85</ele><time>2012-09-14T20:56:54Z</time></trkpt><trkpt lat="4.9900651351" lon="-75.6779479142"><ele>1274.36</ele><time>2012-09-14T20:57:07Z</time></trkpt><trkpt lat="4.9900658056" lon="-75.6779489201"><ele>1275.81</ele><time>2012-09-14T20:57:21Z</time></trkpt><trkpt lat="4.9900516402" lon="-75.6779368501"><ele>1275.33</ele><time>2012-09-14T20:57:43Z</time></trkpt><trkpt lat="4.9900541548" lon="-75.6779426336"><ele>1275.33</ele><time>2012-09-14T20:57:45Z</time></trkpt><trkpt lat="4.9901928753" lon="-75.6778774224"><ele>1274.36</ele><time>2012-09-14T20:57:53Z</time></trkpt><trkpt lat="4.9902788736" lon="-75.6777340081"><ele>1273.40</ele><time>2012-09-14T20:57:57Z</time></trkpt><trkpt lat="4.9906754214" lon="-75.6772664655"><ele>1269.56</ele><time>2012-09-14T20:58:13Z</time></trkpt><trkpt lat="4.9906843901" lon="-75.6772612687"><ele>1267.64</ele><time>2012-09-14T20:58:34Z</time></trkpt><trkpt lat="4.9906835519" lon="-75.6772600114"><ele>1267.16</ele><time>2012-09-14T20:58:40Z</time></trkpt><trkpt lat="4.9907528702" lon="-75.6773898471"><ele>1263.31</ele><time>2012-09-14T20:58:50Z</time></trkpt><trkpt lat="4.9905250501" lon="-75.6777412165"><ele>1256.10</ele><time>2012-09-14T20:59:02Z</time></trkpt><trkpt lat="4.9903259799" lon="-75.6784502417"><ele>1245.53</ele><time>2012-09-14T20:59:17Z</time></trkpt><trkpt lat="4.9902532250" lon="-75.6786120124"><ele>1241.20</ele><time>2012-09-14T20:59:26Z</time></trkpt><trkpt lat="4.9902517162" lon="-75.6786586996"><ele>1239.28</ele><time>2012-09-14T20:59:31Z</time></trkpt><trkpt lat="4.9902490340" lon="-75.6786907185"><ele>1237.83</ele><time>2012-09-14T20:59:43Z</time></trkpt><trkpt lat="4.9902566615" lon="-75.6786874495"><ele>1237.83</ele><time>2012-09-14T20:59:58Z</time></trkpt><trkpt lat="4.9902587570" lon="-75.6786870304"><ele>1238.32</ele><time>2012-09-14T21:00:02Z</time></trkpt><trkpt lat="4.9902535602" lon="-75.6786242500"><ele>1238.32</ele><time>2012-09-14T21:00:06Z</time></trkpt><trkpt lat="4.9904228747" lon="-75.6779997982"><ele>1240.72</ele><time>2012-09-14T21:00:19Z</time></trkpt><trkpt lat="4.9905037601" lon="-75.6777124666"><ele>1243.12</ele><time>2012-09-14T21:00:25Z</time></trkpt><trkpt lat="4.9907604139" lon="-75.6773539726"><ele>1251.77</ele><time>2012-09-14T21:00:37Z</time></trkpt><trkpt lat="4.9907766748" lon="-75.6772554852"><ele>1254.18</ele><time>2012-09-14T21:00:41Z</time></trkpt><trkpt lat="4.9907268863" lon="-75.6772010867"><ele>1256.10</ele><time>2012-09-14T21:00:45Z</time></trkpt><trkpt lat="4.9905565660" lon="-75.6769802235"><ele>1259.94</ele><time>2012-09-14T21:00:58Z</time></trkpt><trkpt lat="4.9904208630" lon="-75.6767496374"><ele>1261.39</ele><time>2012-09-14T21:01:03Z</time></trkpt><trkpt lat="4.9903686438" lon="-75.6765540037"><ele>1261.87</ele><time>2012-09-14T21:01:07Z</time></trkpt><trkpt lat="4.9903890956" lon="-75.6761795841"><ele>1263.31</ele><time>2012-09-14T21:01:14Z</time></trkpt><trkpt lat="4.9904745910" lon="-75.6759806816"><ele>1264.27</ele><time>2012-09-14T21:01:18Z</time></trkpt><trkpt lat="4.9905939493" lon="-75.6758547854"><ele>1263.79</ele><time>2012-09-14T21:01:21Z</time></trkpt><trkpt lat="4.9907835480" lon="-75.6757148076"><ele>1263.79</ele><time>2012-09-14T21:01:25Z</time></trkpt><trkpt lat="4.9910206720" lon="-75.6755860616"><ele>1262.83</ele><time>2012-09-14T21:01:30Z</time></trkpt><trkpt lat="4.9913147092" lon="-75.6753126439"><ele>1260.91</ele><time>2012-09-14T21:01:37Z</time></trkpt><trkpt lat="4.9914561119" lon="-75.6750575826"><ele>1259.94</ele><time>2012-09-14T21:01:42Z</time></trkpt><trkpt lat="4.9914513342" lon="-75.6748269964"><ele>1258.50</ele><time>2012-09-14T21:01:48Z</time></trkpt><trkpt lat="4.9912691116" lon="-75.6744203065"><ele>1255.62</ele><time>2012-09-14T21:02:00Z</time></trkpt><trkpt lat="4.9914713670" lon="-75.6743068155"><ele>1254.18</ele><time>2012-09-14T21:02:07Z</time></trkpt><trkpt lat="4.9916702695" lon="-75.6740404386"><ele>1253.22</ele><time>2012-09-14T21:02:19Z</time></trkpt><trkpt lat="4.9916954990" lon="-75.6739991996"><ele>1252.74</ele><time>2012-09-14T21:02:20Z</time></trkpt><trkpt lat="4.9918573536" lon="-75.6738649216"><ele>1251.77</ele><time>2012-09-14T21:02:24Z</time></trkpt><trkpt lat="4.9921574257" lon="-75.6737039890"><ele>1249.85</ele><time>2012-09-14T21:02:30Z</time></trkpt><trkpt lat="4.9924047757" lon="-75.6736436393"><ele>1247.45</ele><time>2012-09-14T21:02:36Z</time></trkpt><trkpt lat="4.9924066197" lon="-75.6734865624"><ele>1246.49</ele><time>2012-09-14T21:02:42Z</time></trkpt><trkpt lat="4.9923523888" lon="-75.6734340079"><ele>1245.53</ele><time>2012-09-14T21:02:44Z</time></trkpt><trkpt lat="4.9921806436" lon="-75.6731160823"><ele>1241.68</ele><time>2012-09-14T21:02:51Z</time></trkpt><trkpt lat="4.9921575096" lon="-75.6728991587"><ele>1238.32</ele><time>2012-09-14T21:02:56Z</time></trkpt><trkpt lat="4.9922666419" lon="-75.6726423372"><ele>1234.47</ele><time>2012-09-14T21:03:02Z</time></trkpt><trkpt lat="4.9924144987" lon="-75.6725264154"><ele>1231.59</ele><time>2012-09-14T21:03:06Z</time></trkpt><trkpt lat="4.9924967252" lon="-75.6724880263"><ele>1230.14</ele><time>2012-09-14T21:03:08Z</time></trkpt><trkpt lat="4.9926088750" lon="-75.6723473780"><ele>1227.74</ele><time>2012-09-14T21:03:12Z</time></trkpt><trkpt lat="4.9926247168" lon="-75.6722981762"><ele>1227.26</ele><time>2012-09-14T21:03:13Z</time></trkpt><trkpt lat="4.9927082006" lon="-75.6720784027"><ele>1223.90</ele><time>2012-09-14T21:03:18Z</time></trkpt><trkpt lat="4.9927160796" lon="-75.6720350683"><ele>1223.42</ele><time>2012-09-14T21:03:19Z</time></trkpt><trkpt lat="4.9927494396" lon="-75.6718994491"><ele>1219.09</ele><time>2012-09-14T21:03:28Z</time></trkpt><trkpt lat="4.9927475955" lon="-75.6719573680"><ele>1217.65</ele><time>2012-09-14T21:03:51Z</time></trkpt><trkpt lat="4.9927443266" lon="-75.6719711144"><ele>1217.17</ele><time>2012-09-14T21:03:52Z</time></trkpt><trkpt lat="4.9927425664" lon="-75.6719865371"><ele>1217.17</ele><time>2012-09-14T21:03:53Z</time></trkpt><trkpt lat="4.9927427340" lon="-75.6720144488"><ele>1216.69</ele><time>2012-09-14T21:04:08Z</time></trkpt><trkpt lat="4.9927361961" lon="-75.6720349006"><ele>1217.65</ele><time>2012-09-14T21:04:27Z</time></trkpt><trkpt lat="4.9927210249" lon="-75.6720772292"><ele>1217.65</ele><time>2012-09-14T21:04:32Z</time></trkpt><trkpt lat="4.9927172530" lon="-75.6720894668"><ele>1217.65</ele><time>2012-09-14T21:04:33Z</time></trkpt><trkpt lat="4.9925443344" lon="-75.6724494696"><ele>1220.05</ele><time>2012-09-14T21:04:49Z</time></trkpt><trkpt lat="4.9923056178" lon="-75.6725987513"><ele>1221.49</ele><time>2012-09-14T21:04:56Z</time></trkpt><trkpt lat="4.9921664782" lon="-75.6728270743"><ele>1223.42</ele><time>2012-09-14T21:05:02Z</time></trkpt><trkpt lat="4.9921489600" lon="-75.6730649527"><ele>1226.30</ele><time>2012-09-14T21:05:07Z</time></trkpt><trkpt lat="4.9922989961" lon="-75.6734427251"><ele>1229.18</ele><time>2012-09-14T21:05:15Z</time></trkpt><trkpt lat="4.9923551548" lon="-75.6736981217"><ele>1231.59</ele><time>2012-09-14T21:05:23Z</time></trkpt><trkpt lat="4.9920437671" lon="-75.6737675238"><ele>1233.03</ele><time>2012-09-14T21:05:29Z</time></trkpt><trkpt lat="4.9917105865" lon="-75.6739531830"><ele>1236.87</ele><time>2012-09-14T21:05:36Z</time></trkpt><trkpt lat="4.9915974308" lon="-75.6741081644"><ele>1238.32</ele><time>2012-09-14T21:05:40Z</time></trkpt><trkpt lat="4.9914499931" lon="-75.6742835976"><ele>1241.20</ele><time>2012-09-14T21:05:47Z</time></trkpt><trkpt lat="4.9910673592" lon="-75.6740479823"><ele>1244.08</ele><time>2012-09-14T21:05:56Z</time></trkpt><trkpt lat="4.9909977056" lon="-75.6738722138"><ele>1245.04</ele><time>2012-09-14T21:05:59Z</time></trkpt><trkpt lat="4.9909698777" lon="-75.6737505086"><ele>1246.49</ele><time>2012-09-14T21:06:01Z</time></trkpt><trkpt lat="4.9909810256" lon="-75.6733698025"><ele>1248.89</ele><time>2012-09-14T21:06:07Z</time></trkpt><trkpt lat="4.9908171594" lon="-75.6730478536"><ele>1251.77</ele><time>2012-09-14T21:06:13Z</time></trkpt><trkpt lat="4.9903062824" lon="-75.6726936344"><ele>1258.50</ele><time>2012-09-14T21:06:26Z</time></trkpt><trkpt lat="4.9900612794" lon="-75.6722724438"><ele>1262.35</ele><time>2012-09-14T21:06:36Z</time></trkpt><trkpt lat="4.9900353793" lon="-75.6714789290"><ele>1267.64</ele><time>2012-09-14T21:06:53Z</time></trkpt><trkpt lat="4.9900452700" lon="-75.6713923439"><ele>1268.12</ele><time>2012-09-14T21:06:55Z</time></trkpt><trkpt lat="4.9898738600" lon="-75.6712071039"><ele>1271.00</ele><time>2012-09-14T21:07:05Z</time></trkpt><trkpt lat="4.9898265861" lon="-75.6712640170"><ele>1271.96</ele><time>2012-09-14T21:07:08Z</time></trkpt><trkpt lat="4.9894592073" lon="-75.6717401929"><ele>1274.85</ele><time>2012-09-14T21:07:21Z</time></trkpt><trkpt lat="4.9894419406" lon="-75.6717817672"><ele>1275.81</ele><time>2012-09-14T21:07:29Z</time></trkpt><trkpt lat="4.9894442037" lon="-75.6717536040"><ele>1277.73</ele><time>2012-09-14T21:07:45Z</time></trkpt><trkpt lat="4.9894071557" lon="-75.6718380097"><ele>1279.17</ele><time>2012-09-14T21:08:05Z</time></trkpt><trkpt lat="4.9893942475" lon="-75.6718570367"><ele>1282.06</ele><time>2012-09-14T21:08:27Z</time></trkpt><trkpt lat="4.9893986061" lon="-75.6718801707"><ele>1282.54</ele><time>2012-09-14T21:08:29Z</time></trkpt><trkpt lat="4.9891423713" lon="-75.6722561829"><ele>1286.86</ele><time>2012-09-14T21:08:41Z</time></trkpt><trkpt lat="4.9890463147" lon="-75.6723231543"><ele>1287.34</ele><time>2012-09-14T21:08:43Z</time></trkpt><trkpt lat="4.9884171691" lon="-75.6724364776"><ele>1293.11</ele><time>2012-09-14T21:08:55Z</time></trkpt><trkpt lat="4.9879141711" lon="-75.6722569373"><ele>1296.48</ele><time>2012-09-14T21:09:04Z</time></trkpt><trkpt lat="4.9877097365" lon="-75.6721185520"><ele>1298.88</ele><time>2012-09-14T21:09:08Z</time></trkpt><trkpt lat="4.9874363188" lon="-75.6720203161"><ele>1301.28</ele><time>2012-09-14T21:09:13Z</time></trkpt><trkpt lat="4.9871285353" lon="-75.6719829328"><ele>1304.65</ele><time>2012-09-14T21:09:19Z</time></trkpt><trkpt lat="4.9862981401" lon="-75.6716290489"><ele>1307.05</ele><time>2012-09-14T21:09:31Z</time></trkpt><trkpt lat="4.9853082374" lon="-75.6712122168"><ele>1308.97</ele><time>2012-09-14T21:09:45Z</time></trkpt><trkpt lat="4.9852377456" lon="-75.6711734086"><ele>1309.45</ele><time>2012-09-14T21:09:46Z</time></trkpt><trkpt lat="4.9848656729" lon="-75.6708558183"><ele>1310.41</ele><time>2012-09-14T21:09:52Z</time></trkpt><trkpt lat="4.9847222585" lon="-75.6706823129"><ele>1310.90</ele><time>2012-09-14T21:09:55Z</time></trkpt><trkpt lat="4.9844729807" lon="-75.6702340487"><ele>1311.38</ele><time>2012-09-14T21:10:01Z</time></trkpt><trkpt lat="4.9845135491" lon="-75.6699319649"><ele>1312.82</ele><time>2012-09-14T21:10:06Z</time></trkpt><trkpt lat="4.9846477434" lon="-75.6697934121"><ele>1313.30</ele><time>2012-09-14T21:10:09Z</time></trkpt><trkpt lat="4.9846293870" lon="-75.6693931762"><ele>1314.26</ele><time>2012-09-14T21:10:17Z</time></trkpt><trkpt lat="4.9843008164" lon="-75.6692346744"><ele>1314.26</ele><time>2012-09-14T21:10:23Z</time></trkpt><trkpt lat="4.9841757584" lon="-75.6692146417"><ele>1314.74</ele><time>2012-09-14T21:10:25Z</time></trkpt><trkpt lat="4.9839880038" lon="-75.6690970436"><ele>1314.26</ele><time>2012-09-14T21:10:29Z</time></trkpt><trkpt lat="4.9838834815" lon="-75.6689612567"><ele>1314.26</ele><time>2012-09-14T21:10:32Z</time></trkpt><trkpt lat="4.9835307710" lon="-75.6686793733"><ele>1313.30</ele><time>2012-09-14T21:10:40Z</time></trkpt><trkpt lat="4.9832084868" lon="-75.6681944802"><ele>1314.26</ele><time>2012-09-14T21:10:49Z</time></trkpt><trkpt lat="4.9829673395" lon="-75.6681116670"><ele>1314.74</ele><time>2012-09-14T21:10:53Z</time></trkpt><trkpt lat="4.9826130364" lon="-75.6680862699"><ele>1315.70</ele><time>2012-09-14T21:10:58Z</time></trkpt><trkpt lat="4.9823397864" lon="-75.6678706035"><ele>1318.10</ele><time>2012-09-14T21:11:04Z</time></trkpt><trkpt lat="4.9822905846" lon="-75.6677588727"><ele>1319.55</ele><time>2012-09-14T21:11:06Z</time></trkpt><trkpt lat="4.9818160851" lon="-75.6668902561"><ele>1327.24</ele><time>2012-09-14T21:11:20Z</time></trkpt><trkpt lat="4.9816464353" lon="-75.6665102206"><ele>1330.12</ele><time>2012-09-14T21:11:26Z</time></trkpt><trkpt lat="4.9809422716" lon="-75.6656459626"><ele>1339.25</ele><time>2012-09-14T21:11:41Z</time></trkpt><trkpt lat="4.9801929295" lon="-75.6647367775"><ele>1348.39</ele><time>2012-09-14T21:11:56Z</time></trkpt><trkpt lat="4.9797242135" lon="-75.6642714981"><ele>1351.75</ele><time>2012-09-14T21:12:03Z</time></trkpt><trkpt lat="4.9789117556" lon="-75.6639599428"><ele>1356.08</ele><time>2012-09-14T21:12:13Z</time></trkpt><trkpt lat="4.9787307065" lon="-75.6638537440"><ele>1357.52</ele><time>2012-09-14T21:12:16Z</time></trkpt><trkpt lat="4.9786927365" lon="-75.6638233177"><ele>1358.00</ele><time>2012-09-14T21:12:17Z</time></trkpt><trkpt lat="4.9786657467" lon="-75.6637958251"><ele>1358.48</ele><time>2012-09-14T21:12:18Z</time></trkpt><trkpt lat="4.9786500726" lon="-75.6637755409"><ele>1358.96</ele><time>2012-09-14T21:12:19Z</time></trkpt><trkpt lat="4.9786431156" lon="-75.6637601182"><ele>1358.96</ele><time>2012-09-14T21:12:20Z</time></trkpt><trkpt lat="4.9786375836" lon="-75.6637480482"><ele>1359.44</ele><time>2012-09-14T21:12:21Z</time></trkpt><trkpt lat="4.9786323030" lon="-75.6637410074"><ele>1359.92</ele><time>2012-09-14T21:12:22Z</time></trkpt><trkpt lat="4.9786222447" lon="-75.6637417618"><ele>1362.33</ele><time>2012-09-14T21:12:38Z</time></trkpt><trkpt lat="4.9786073249" lon="-75.6637545861"><ele>1362.33</ele><time>2012-09-14T21:12:40Z</time></trkpt><trkpt lat="4.9786002841" lon="-75.6637667399"><ele>1362.33</ele><time>2012-09-14T21:12:41Z</time></trkpt><trkpt lat="4.9785686005" lon="-75.6638322026"><ele>1363.77</ele><time>2012-09-14T21:12:57Z</time></trkpt><trkpt lat="4.9783524312" lon="-75.6641897745"><ele>1362.81</ele><time>2012-09-14T21:13:06Z</time></trkpt><trkpt lat="4.9783301353" lon="-75.6642423291"><ele>1362.33</ele><time>2012-09-14T21:13:14Z</time></trkpt><trkpt lat="4.9783311412" lon="-75.6642518006"><ele>1362.33</ele><time>2012-09-14T21:13:24Z</time></trkpt><trkpt lat="4.9783173949" lon="-75.6642569136"><ele>1362.33</ele><time>2012-09-14T21:13:25Z</time></trkpt><trkpt lat="4.9779303186" lon="-75.6643614359"><ele>1360.40</ele><time>2012-09-14T21:13:33Z</time></trkpt><trkpt lat="4.9778368603" lon="-75.6644125655"><ele>1359.44</ele><time>2012-09-14T21:13:35Z</time></trkpt><trkpt lat="4.9777962081" lon="-75.6644463446"><ele>1358.96</ele><time>2012-09-14T21:13:36Z</time></trkpt><trkpt lat="4.9777588248" lon="-75.6644833926"><ele>1358.48</ele><time>2012-09-14T21:13:37Z</time></trkpt><trkpt lat="4.9777285662" lon="-75.6645277329"><ele>1358.00</ele><time>2012-09-14T21:13:38Z</time></trkpt><trkpt lat="4.9777052645" lon="-75.6645810418"><ele>1357.52</ele><time>2012-09-14T21:13:39Z</time></trkpt><trkpt lat="4.9776857346" lon="-75.6646398827"><ele>1357.04</ele><time>2012-09-14T21:13:40Z</time></trkpt><trkpt lat="4.9776237924" lon="-75.6649270467"><ele>1355.12</ele><time>2012-09-14T21:13:44Z</time></trkpt><trkpt lat="4.9776184279" lon="-75.6650082674"><ele>1354.63</ele><time>2012-09-14T21:13:45Z</time></trkpt><trkpt lat="4.9773759395" lon="-75.6658738665"><ele>1349.35</ele><time>2012-09-14T21:13:56Z</time></trkpt><trkpt lat="4.9771952257" lon="-75.6661967374"><ele>1345.50</ele><time>2012-09-14T21:14:04Z</time></trkpt><trkpt lat="4.9771461077" lon="-75.6664359570"><ele>1343.58</ele><time>2012-09-14T21:14:08Z</time></trkpt><trkpt lat="4.9771525618" lon="-75.6665077899"><ele>1343.10</ele><time>2012-09-14T21:14:09Z</time></trkpt><trkpt lat="4.9771668110" lon="-75.6665822212"><ele>1342.62</ele><time>2012-09-14T21:14:10Z</time></trkpt><trkpt lat="4.9772117380" lon="-75.6668343488"><ele>1340.70</ele><time>2012-09-14T21:14:13Z</time></trkpt><trkpt lat="4.9772083014" lon="-75.6671118736"><ele>1338.77</ele><time>2012-09-14T21:14:16Z</time></trkpt><trkpt lat="4.9771110713" lon="-75.6674980279"><ele>1334.93</ele><time>2012-09-14T21:14:23Z</time></trkpt><trkpt lat="4.9770502187" lon="-75.6675111875"><ele>1332.04</ele><time>2012-09-14T21:14:32Z</time></trkpt><trkpt lat="4.9771107361" lon="-75.6674730498"><ele>1328.68</ele><time>2012-09-14T21:14:41Z</time></trkpt><trkpt lat="4.9771089759" lon="-75.6674524304"><ele>1328.68</ele><time>2012-09-14T21:14:42Z</time></trkpt><trkpt lat="4.9771107361" lon="-75.6674207468"><ele>1328.20</ele><time>2012-09-14T21:14:43Z</time></trkpt><trkpt lat="4.9771170225" lon="-75.6673818547"><ele>1328.20</ele><time>2012-09-14T21:14:44Z</time></trkpt><trkpt lat="4.9771293439" lon="-75.6673340779"><ele>1327.72</ele><time>2012-09-14T21:14:45Z</time></trkpt><trkpt lat="4.9771456886" lon="-75.6672748178"><ele>1327.24</ele><time>2012-09-14T21:14:46Z</time></trkpt><trkpt lat="4.9771687388" lon="-75.6664758548"><ele>1324.35</ele><time>2012-09-14T21:14:55Z</time></trkpt><trkpt lat="4.9771563336" lon="-75.6662818138"><ele>1323.87</ele><time>2012-09-14T21:14:57Z</time></trkpt><trkpt lat="4.9772091396" lon="-75.6659883633"><ele>1323.39</ele><time>2012-09-14T21:15:00Z</time></trkpt><trkpt lat="4.9772396497" lon="-75.6659034546"><ele>1323.39</ele><time>2012-09-14T21:15:01Z</time></trkpt><trkpt lat="4.9772727583" lon="-75.6658366509"><ele>1322.91</ele><time>2012-09-14T21:15:02Z</time></trkpt><trkpt lat="4.9774597585" lon="-75.6654862035"><ele>1320.51</ele><time>2012-09-14T21:15:10Z</time></trkpt></trkseg></trk></gpx>